<?xml version="1.0" encoding="utf-8"?>
<gpx xmlns:xsi="http://www.w3.org/2001/XMLSchema-instance" xmlns:xsd="http://www.w3.org/2001/XMLSchema" version="1.1" creator="Shapelink.com" xmlns="http://www.topografix.com/GPX/1/1" xmlns:gpxtpx="http://www.garmin.com/xmlschemas/TrackPointExtension/v1">
  <metadata>
    <name>Løping 3.68 km, 2013-04-15</name>
    <desc></desc>
    <author><name>Mikael Blom</name></author> 
    <time>2013-04-15T18:49:37Z</time>
  </metadata>
  <trk>
    <name>Løping 3.68 km, 2013-04-15</name>
    <trkseg>
      <trkpt lat="59.9788738" lon="17.7393384">
        <ele>37.1481</ele>
        <time>2013-04-15T18:49:37Z</time>
      </trkpt>
      <trkpt lat="59.9788564" lon="17.7393424">
        <ele>36.6675</ele>
        <time>2013-04-15T18:49:38Z</time>
      </trkpt>
      <trkpt lat="59.9788289" lon="17.7393429">
        <ele>36.6675</ele>
        <time>2013-04-15T18:49:39Z</time>
      </trkpt>
      <trkpt lat="59.9787926" lon="17.7393463">
        <ele>37.1481</ele>
        <time>2013-04-15T18:49:40Z</time>
      </trkpt>
      <trkpt lat="59.9787567" lon="17.7393484">
        <ele>37.1481</ele>
        <time>2013-04-15T18:49:41Z</time>
      </trkpt>
      <trkpt lat="59.9787175" lon="17.7393548">
        <ele>38.5901</ele>
        <time>2013-04-15T18:49:42Z</time>
      </trkpt>
      <trkpt lat="59.9786842" lon="17.7393605">
        <ele>39.5513</ele>
        <time>2013-04-15T18:49:43Z</time>
      </trkpt>
      <trkpt lat="59.9786513" lon="17.7393605">
        <ele>39.5513</ele>
        <time>2013-04-15T18:49:44Z</time>
      </trkpt>
      <trkpt lat="59.9786135" lon="17.7393527">
        <ele>39.5513</ele>
        <time>2013-04-15T18:49:45Z</time>
      </trkpt>
      <trkpt lat="59.978575" lon="17.7393375">
        <ele>39.5513</ele>
        <time>2013-04-15T18:49:46Z</time>
      </trkpt>
      <trkpt lat="59.9785433" lon="17.7393205">
        <ele>39.5513</ele>
        <time>2013-04-15T18:49:47Z</time>
      </trkpt>
      <trkpt lat="59.9785189" lon="17.7392916">
        <ele>39.5513</ele>
        <time>2013-04-15T18:49:48Z</time>
      </trkpt>
      <trkpt lat="59.9784963" lon="17.7392734">
        <ele>39.5513</ele>
        <time>2013-04-15T18:49:49Z</time>
      </trkpt>
      <trkpt lat="59.9784738" lon="17.7392598">
        <ele>39.5513</ele>
        <time>2013-04-15T18:49:50Z</time>
      </trkpt>
      <trkpt lat="59.9784532" lon="17.7392546">
        <ele>39.5513</ele>
        <time>2013-04-15T18:49:51Z</time>
      </trkpt>
      <trkpt lat="59.9784299" lon="17.7392626">
        <ele>39.0707</ele>
        <time>2013-04-15T18:49:52Z</time>
      </trkpt>
      <trkpt lat="59.978403" lon="17.7392638">
        <ele>39.0707</ele>
        <time>2013-04-15T18:49:53Z</time>
      </trkpt>
      <trkpt lat="59.9783713" lon="17.7392713">
        <ele>39.5513</ele>
        <time>2013-04-15T18:49:54Z</time>
      </trkpt>
      <trkpt lat="59.9783399" lon="17.7392894">
        <ele>40.0321</ele>
        <time>2013-04-15T18:49:55Z</time>
      </trkpt>
      <trkpt lat="59.9783061" lon="17.7393098">
        <ele>40.0321</ele>
        <time>2013-04-15T18:49:56Z</time>
      </trkpt>
      <trkpt lat="59.9782672" lon="17.7393358">
        <ele>40.5128</ele>
        <time>2013-04-15T18:49:57Z</time>
      </trkpt>
      <trkpt lat="59.9782371" lon="17.7393419">
        <ele>40.5128</ele>
        <time>2013-04-15T18:49:58Z</time>
      </trkpt>
      <trkpt lat="59.9782108" lon="17.7393362">
        <ele>40.5128</ele>
        <time>2013-04-15T18:49:59Z</time>
      </trkpt>
      <trkpt lat="59.9781876" lon="17.7393181">
        <ele>40.5128</ele>
        <time>2013-04-15T18:50:00Z</time>
      </trkpt>
      <trkpt lat="59.9781568" lon="17.739319">
        <ele>40.5128</ele>
        <time>2013-04-15T18:50:01Z</time>
      </trkpt>
      <trkpt lat="59.9781269" lon="17.7393133">
        <ele>40.9934</ele>
        <time>2013-04-15T18:50:02Z</time>
      </trkpt>
      <trkpt lat="59.9780827" lon="17.7393196">
        <ele>41.474</ele>
        <time>2013-04-15T18:50:03Z</time>
      </trkpt>
      <trkpt lat="59.9780533" lon="17.7393201">
        <ele>41.9547</ele>
        <time>2013-04-15T18:50:04Z</time>
      </trkpt>
      <trkpt lat="59.9780265" lon="17.7393075">
        <ele>41.474</ele>
        <time>2013-04-15T18:50:05Z</time>
      </trkpt>
      <trkpt lat="59.9779948" lon="17.7392901">
        <ele>41.9547</ele>
        <time>2013-04-15T18:50:06Z</time>
      </trkpt>
      <trkpt lat="59.9779675" lon="17.7392752">
        <ele>41.9547</ele>
        <time>2013-04-15T18:50:07Z</time>
      </trkpt>
      <trkpt lat="59.9779368" lon="17.7392586">
        <ele>41.9547</ele>
        <time>2013-04-15T18:50:08Z</time>
      </trkpt>
      <trkpt lat="59.9779143" lon="17.739246">
        <ele>41.9547</ele>
        <time>2013-04-15T18:50:09Z</time>
      </trkpt>
      <trkpt lat="59.9778965" lon="17.7392321">
        <ele>40.9934</ele>
        <time>2013-04-15T18:50:10Z</time>
      </trkpt>
      <trkpt lat="59.9778741" lon="17.7392285">
        <ele>40.9934</ele>
        <time>2013-04-15T18:50:11Z</time>
      </trkpt>
      <trkpt lat="59.9778504" lon="17.7392201">
        <ele>40.0321</ele>
        <time>2013-04-15T18:50:12Z</time>
      </trkpt>
      <trkpt lat="59.9778263" lon="17.7392164">
        <ele>40.0321</ele>
        <time>2013-04-15T18:50:13Z</time>
      </trkpt>
      <trkpt lat="59.9778051" lon="17.7392108">
        <ele>39.5513</ele>
        <time>2013-04-15T18:50:14Z</time>
      </trkpt>
      <trkpt lat="59.9777859" lon="17.7392078">
        <ele>39.0707</ele>
        <time>2013-04-15T18:50:15Z</time>
      </trkpt>
      <trkpt lat="59.9777611" lon="17.7392051">
        <ele>38.5901</ele>
        <time>2013-04-15T18:50:16Z</time>
      </trkpt>
      <trkpt lat="59.9777389" lon="17.739191">
        <ele>38.1094</ele>
        <time>2013-04-15T18:50:17Z</time>
      </trkpt>
      <trkpt lat="59.9777177" lon="17.7391723">
        <ele>37.1481</ele>
        <time>2013-04-15T18:50:18Z</time>
      </trkpt>
      <trkpt lat="59.9776965" lon="17.7391503">
        <ele>36.6675</ele>
        <time>2013-04-15T18:50:19Z</time>
      </trkpt>
      <trkpt lat="59.9776792" lon="17.7391285">
        <ele>35.7061</ele>
        <time>2013-04-15T18:50:20Z</time>
      </trkpt>
      <trkpt lat="59.9776581" lon="17.739115">
        <ele>35.2255</ele>
        <time>2013-04-15T18:50:21Z</time>
      </trkpt>
      <trkpt lat="59.9776317" lon="17.7391138">
        <ele>34.7449</ele>
        <time>2013-04-15T18:50:22Z</time>
      </trkpt>
      <trkpt lat="59.9776063" lon="17.7391197">
        <ele>34.2642</ele>
        <time>2013-04-15T18:50:23Z</time>
      </trkpt>
      <trkpt lat="59.9775834" lon="17.7391232">
        <ele>33.3029</ele>
        <time>2013-04-15T18:50:24Z</time>
      </trkpt>
      <trkpt lat="59.9775616" lon="17.7391257">
        <ele>32.8223</ele>
        <time>2013-04-15T18:50:25Z</time>
      </trkpt>
      <trkpt lat="59.9775398" lon="17.7391244">
        <ele>31.8607</ele>
        <time>2013-04-15T18:50:26Z</time>
      </trkpt>
      <trkpt lat="59.9775127" lon="17.7391265">
        <ele>31.3801</ele>
        <time>2013-04-15T18:50:27Z</time>
      </trkpt>
      <trkpt lat="59.9774882" lon="17.739133">
        <ele>30.8995</ele>
        <time>2013-04-15T18:50:28Z</time>
      </trkpt>
      <trkpt lat="59.9774686" lon="17.7391308">
        <ele>30.4188</ele>
        <time>2013-04-15T18:50:29Z</time>
      </trkpt>
      <trkpt lat="59.9774497" lon="17.7391316">
        <ele>30.4188</ele>
        <time>2013-04-15T18:50:30Z</time>
      </trkpt>
      <trkpt lat="59.9774286" lon="17.7391334">
        <ele>29.9381</ele>
        <time>2013-04-15T18:50:31Z</time>
      </trkpt>
      <trkpt lat="59.9774041" lon="17.7391436">
        <ele>28.9769</ele>
        <time>2013-04-15T18:50:32Z</time>
      </trkpt>
      <trkpt lat="59.9773664" lon="17.7391457">
        <ele>28.4962</ele>
        <time>2013-04-15T18:50:34Z</time>
      </trkpt>
      <trkpt lat="59.9773468" lon="17.7391501">
        <ele>28.0155</ele>
        <time>2013-04-15T18:50:35Z</time>
      </trkpt>
      <trkpt lat="59.9773238" lon="17.7391578">
        <ele>27.5349</ele>
        <time>2013-04-15T18:50:36Z</time>
      </trkpt>
      <trkpt lat="59.9773023" lon="17.7391621">
        <ele>27.0543</ele>
        <time>2013-04-15T18:50:37Z</time>
      </trkpt>
      <trkpt lat="59.9772772" lon="17.7391734">
        <ele>27.0543</ele>
        <time>2013-04-15T18:50:38Z</time>
      </trkpt>
      <trkpt lat="59.9772499" lon="17.7391936">
        <ele>26.5736</ele>
        <time>2013-04-15T18:50:39Z</time>
      </trkpt>
      <trkpt lat="59.9772214" lon="17.7392148">
        <ele>26.5736</ele>
        <time>2013-04-15T18:50:40Z</time>
      </trkpt>
      <trkpt lat="59.9771936" lon="17.7392306">
        <ele>26.0929</ele>
        <time>2013-04-15T18:50:41Z</time>
      </trkpt>
      <trkpt lat="59.9771743" lon="17.739241">
        <ele>26.0929</ele>
        <time>2013-04-15T18:50:42Z</time>
      </trkpt>
      <trkpt lat="59.9771539" lon="17.7392563">
        <ele>25.6123</ele>
        <time>2013-04-15T18:50:43Z</time>
      </trkpt>
      <trkpt lat="59.9771339" lon="17.7392647">
        <ele>25.6123</ele>
        <time>2013-04-15T18:50:44Z</time>
      </trkpt>
      <trkpt lat="59.9771159" lon="17.7392714">
        <ele>25.1317</ele>
        <time>2013-04-15T18:50:45Z</time>
      </trkpt>
      <trkpt lat="59.9770982" lon="17.7392818">
        <ele>25.1317</ele>
        <time>2013-04-15T18:50:46Z</time>
      </trkpt>
      <trkpt lat="59.9770784" lon="17.7392946">
        <ele>25.1317</ele>
        <time>2013-04-15T18:50:47Z</time>
      </trkpt>
      <trkpt lat="59.9770535" lon="17.7392966">
        <ele>25.6123</ele>
        <time>2013-04-15T18:50:48Z</time>
      </trkpt>
      <trkpt lat="59.9770339" lon="17.7393102">
        <ele>25.6123</ele>
        <time>2013-04-15T18:50:49Z</time>
      </trkpt>
      <trkpt lat="59.9770117" lon="17.7393232">
        <ele>26.0929</ele>
        <time>2013-04-15T18:50:50Z</time>
      </trkpt>
      <trkpt lat="59.9769905" lon="17.7393425">
        <ele>26.0929</ele>
        <time>2013-04-15T18:50:51Z</time>
      </trkpt>
      <trkpt lat="59.9769716" lon="17.7393604">
        <ele>26.0929</ele>
        <time>2013-04-15T18:50:52Z</time>
      </trkpt>
      <trkpt lat="59.9769511" lon="17.7393786">
        <ele>26.5736</ele>
        <time>2013-04-15T18:50:53Z</time>
      </trkpt>
      <trkpt lat="59.9769288" lon="17.7393932">
        <ele>27.0543</ele>
        <time>2013-04-15T18:50:54Z</time>
      </trkpt>
      <trkpt lat="59.9769018" lon="17.7393972">
        <ele>27.0543</ele>
        <time>2013-04-15T18:50:55Z</time>
      </trkpt>
      <trkpt lat="59.9768718" lon="17.7394014">
        <ele>27.5349</ele>
        <time>2013-04-15T18:50:56Z</time>
      </trkpt>
      <trkpt lat="59.9768453" lon="17.7394097">
        <ele>27.5349</ele>
        <time>2013-04-15T18:50:57Z</time>
      </trkpt>
      <trkpt lat="59.9768163" lon="17.7394217">
        <ele>28.0155</ele>
        <time>2013-04-15T18:50:58Z</time>
      </trkpt>
      <trkpt lat="59.9767857" lon="17.7394303">
        <ele>28.0155</ele>
        <time>2013-04-15T18:50:59Z</time>
      </trkpt>
      <trkpt lat="59.976752" lon="17.7394258">
        <ele>28.4962</ele>
        <time>2013-04-15T18:51:00Z</time>
      </trkpt>
      <trkpt lat="59.9767272" lon="17.7394251">
        <ele>28.4962</ele>
        <time>2013-04-15T18:51:01Z</time>
      </trkpt>
      <trkpt lat="59.9767029" lon="17.739423">
        <ele>28.0155</ele>
        <time>2013-04-15T18:51:02Z</time>
      </trkpt>
      <trkpt lat="59.97668" lon="17.7394271">
        <ele>28.0155</ele>
        <time>2013-04-15T18:51:03Z</time>
      </trkpt>
      <trkpt lat="59.9766546" lon="17.7394366">
        <ele>28.0155</ele>
        <time>2013-04-15T18:51:04Z</time>
      </trkpt>
      <trkpt lat="59.9766261" lon="17.7394432">
        <ele>28.0155</ele>
        <time>2013-04-15T18:51:05Z</time>
      </trkpt>
      <trkpt lat="59.9766033" lon="17.7394422">
        <ele>27.5349</ele>
        <time>2013-04-15T18:51:06Z</time>
      </trkpt>
      <trkpt lat="59.9765823" lon="17.7394461">
        <ele>27.5349</ele>
        <time>2013-04-15T18:51:07Z</time>
      </trkpt>
      <trkpt lat="59.9765585" lon="17.7394481">
        <ele>27.0543</ele>
        <time>2013-04-15T18:51:08Z</time>
      </trkpt>
      <trkpt lat="59.9765325" lon="17.7394567">
        <ele>26.5736</ele>
        <time>2013-04-15T18:51:09Z</time>
      </trkpt>
      <trkpt lat="59.9765147" lon="17.7394651">
        <ele>25.6123</ele>
        <time>2013-04-15T18:51:10Z</time>
      </trkpt>
      <trkpt lat="59.976493" lon="17.7394801">
        <ele>25.6123</ele>
        <time>2013-04-15T18:51:11Z</time>
      </trkpt>
      <trkpt lat="59.976475" lon="17.7394931">
        <ele>25.1317</ele>
        <time>2013-04-15T18:51:12Z</time>
      </trkpt>
      <trkpt lat="59.9764503" lon="17.7395057">
        <ele>25.1317</ele>
        <time>2013-04-15T18:51:13Z</time>
      </trkpt>
      <trkpt lat="59.9764272" lon="17.7395122">
        <ele>25.1317</ele>
        <time>2013-04-15T18:51:14Z</time>
      </trkpt>
      <trkpt lat="59.9764054" lon="17.7395183">
        <ele>25.1317</ele>
        <time>2013-04-15T18:51:15Z</time>
      </trkpt>
      <trkpt lat="59.9763859" lon="17.7395373">
        <ele>25.1317</ele>
        <time>2013-04-15T18:51:16Z</time>
      </trkpt>
      <trkpt lat="59.9763684" lon="17.7395636">
        <ele>25.1317</ele>
        <time>2013-04-15T18:51:17Z</time>
      </trkpt>
      <trkpt lat="59.9763513" lon="17.7395973">
        <ele>25.1317</ele>
        <time>2013-04-15T18:51:18Z</time>
      </trkpt>
      <trkpt lat="59.976334" lon="17.7396222">
        <ele>25.6123</ele>
        <time>2013-04-15T18:51:19Z</time>
      </trkpt>
      <trkpt lat="59.9763147" lon="17.7396461">
        <ele>26.0929</ele>
        <time>2013-04-15T18:51:20Z</time>
      </trkpt>
      <trkpt lat="59.9762922" lon="17.7396687">
        <ele>26.0929</ele>
        <time>2013-04-15T18:51:21Z</time>
      </trkpt>
      <trkpt lat="59.9762723" lon="17.7396903">
        <ele>26.0929</ele>
        <time>2013-04-15T18:51:22Z</time>
      </trkpt>
      <trkpt lat="59.9762528" lon="17.7397146">
        <ele>26.5736</ele>
        <time>2013-04-15T18:51:23Z</time>
      </trkpt>
      <trkpt lat="59.976229" lon="17.7397366">
        <ele>27.0543</ele>
        <time>2013-04-15T18:51:24Z</time>
      </trkpt>
      <trkpt lat="59.9762054" lon="17.7397496">
        <ele>27.5349</ele>
        <time>2013-04-15T18:51:25Z</time>
      </trkpt>
      <trkpt lat="59.9761835" lon="17.7397543">
        <ele>28.0155</ele>
        <time>2013-04-15T18:51:26Z</time>
      </trkpt>
      <trkpt lat="59.9761611" lon="17.7397494">
        <ele>28.0155</ele>
        <time>2013-04-15T18:51:27Z</time>
      </trkpt>
      <trkpt lat="59.9761387" lon="17.7397377">
        <ele>28.0155</ele>
        <time>2013-04-15T18:51:28Z</time>
      </trkpt>
      <trkpt lat="59.9761186" lon="17.7397277">
        <ele>27.5349</ele>
        <time>2013-04-15T18:51:29Z</time>
      </trkpt>
      <trkpt lat="59.9760964" lon="17.7397174">
        <ele>27.5349</ele>
        <time>2013-04-15T18:51:30Z</time>
      </trkpt>
      <trkpt lat="59.976072" lon="17.7397019">
        <ele>27.5349</ele>
        <time>2013-04-15T18:51:31Z</time>
      </trkpt>
      <trkpt lat="59.97605" lon="17.7396745">
        <ele>27.0543</ele>
        <time>2013-04-15T18:51:32Z</time>
      </trkpt>
      <trkpt lat="59.9760296" lon="17.7396422">
        <ele>27.5349</ele>
        <time>2013-04-15T18:51:33Z</time>
      </trkpt>
      <trkpt lat="59.9760122" lon="17.7396122">
        <ele>27.5349</ele>
        <time>2013-04-15T18:51:34Z</time>
      </trkpt>
      <trkpt lat="59.9759944" lon="17.739579">
        <ele>27.5349</ele>
        <time>2013-04-15T18:51:35Z</time>
      </trkpt>
      <trkpt lat="59.9759737" lon="17.7395429">
        <ele>27.0543</ele>
        <time>2013-04-15T18:51:36Z</time>
      </trkpt>
      <trkpt lat="59.9759534" lon="17.739507">
        <ele>27.0543</ele>
        <time>2013-04-15T18:51:37Z</time>
      </trkpt>
      <trkpt lat="59.9759363" lon="17.7394682">
        <ele>27.0543</ele>
        <time>2013-04-15T18:51:38Z</time>
      </trkpt>
      <trkpt lat="59.975919" lon="17.7394336">
        <ele>27.5349</ele>
        <time>2013-04-15T18:51:39Z</time>
      </trkpt>
      <trkpt lat="59.9759117" lon="17.7394073">
        <ele>28.0155</ele>
        <time>2013-04-15T18:51:40Z</time>
      </trkpt>
      <trkpt lat="59.9758995" lon="17.7393729">
        <ele>28.0155</ele>
        <time>2013-04-15T18:51:41Z</time>
      </trkpt>
      <trkpt lat="59.975883" lon="17.7393345">
        <ele>28.4962</ele>
        <time>2013-04-15T18:51:42Z</time>
      </trkpt>
      <trkpt lat="59.9758643" lon="17.7393008">
        <ele>28.9769</ele>
        <time>2013-04-15T18:51:43Z</time>
      </trkpt>
      <trkpt lat="59.9758434" lon="17.7392699">
        <ele>28.9769</ele>
        <time>2013-04-15T18:51:44Z</time>
      </trkpt>
      <trkpt lat="59.9758243" lon="17.7392285">
        <ele>28.9769</ele>
        <time>2013-04-15T18:51:45Z</time>
      </trkpt>
      <trkpt lat="59.9758076" lon="17.7391839">
        <ele>28.9769</ele>
        <time>2013-04-15T18:51:46Z</time>
      </trkpt>
      <trkpt lat="59.9757895" lon="17.739145">
        <ele>28.9769</ele>
        <time>2013-04-15T18:51:47Z</time>
      </trkpt>
      <trkpt lat="59.9757809" lon="17.7391034">
        <ele>29.4575</ele>
        <time>2013-04-15T18:51:48Z</time>
      </trkpt>
      <trkpt lat="59.9757766" lon="17.7390658">
        <ele>29.9381</ele>
        <time>2013-04-15T18:51:49Z</time>
      </trkpt>
      <trkpt lat="59.9757498" lon="17.7390311">
        <ele>30.4188</ele>
        <time>2013-04-15T18:51:50Z</time>
      </trkpt>
      <trkpt lat="59.9757234" lon="17.7389936">
        <ele>30.8995</ele>
        <time>2013-04-15T18:51:51Z</time>
      </trkpt>
      <trkpt lat="59.9756979" lon="17.7389529">
        <ele>30.8995</ele>
        <time>2013-04-15T18:51:52Z</time>
      </trkpt>
      <trkpt lat="59.9756698" lon="17.7389005">
        <ele>31.3801</ele>
        <time>2013-04-15T18:51:53Z</time>
      </trkpt>
      <trkpt lat="59.9756477" lon="17.7388537">
        <ele>31.3801</ele>
        <time>2013-04-15T18:51:54Z</time>
      </trkpt>
      <trkpt lat="59.9756266" lon="17.738817">
        <ele>31.8607</ele>
        <time>2013-04-15T18:51:55Z</time>
      </trkpt>
      <trkpt lat="59.975609" lon="17.7387882">
        <ele>32.3416</ele>
        <time>2013-04-15T18:51:56Z</time>
      </trkpt>
      <trkpt lat="59.9755908" lon="17.7387572">
        <ele>32.3416</ele>
        <time>2013-04-15T18:51:57Z</time>
      </trkpt>
      <trkpt lat="59.975573" lon="17.7387254">
        <ele>32.8223</ele>
        <time>2013-04-15T18:51:58Z</time>
      </trkpt>
      <trkpt lat="59.9755607" lon="17.738695">
        <ele>32.8223</ele>
        <time>2013-04-15T18:51:59Z</time>
      </trkpt>
      <trkpt lat="59.9755436" lon="17.7386629">
        <ele>33.3029</ele>
        <time>2013-04-15T18:52:00Z</time>
      </trkpt>
      <trkpt lat="59.9755251" lon="17.7386322">
        <ele>34.2642</ele>
        <time>2013-04-15T18:52:01Z</time>
      </trkpt>
      <trkpt lat="59.9754846" lon="17.7385655">
        <ele>34.2642</ele>
        <time>2013-04-15T18:52:03Z</time>
      </trkpt>
      <trkpt lat="59.9754628" lon="17.7385311">
        <ele>34.7449</ele>
        <time>2013-04-15T18:52:04Z</time>
      </trkpt>
      <trkpt lat="59.9754442" lon="17.7385046">
        <ele>34.7449</ele>
        <time>2013-04-15T18:52:05Z</time>
      </trkpt>
      <trkpt lat="59.9754291" lon="17.7384728">
        <ele>34.2642</ele>
        <time>2013-04-15T18:52:06Z</time>
      </trkpt>
      <trkpt lat="59.9754118" lon="17.7384353">
        <ele>34.2642</ele>
        <time>2013-04-15T18:52:07Z</time>
      </trkpt>
      <trkpt lat="59.9753937" lon="17.7383963">
        <ele>34.2642</ele>
        <time>2013-04-15T18:52:08Z</time>
      </trkpt>
      <trkpt lat="59.9753723" lon="17.7383567">
        <ele>34.7449</ele>
        <time>2013-04-15T18:52:09Z</time>
      </trkpt>
      <trkpt lat="59.9753556" lon="17.7383192">
        <ele>34.7449</ele>
        <time>2013-04-15T18:52:10Z</time>
      </trkpt>
      <trkpt lat="59.9753395" lon="17.7382844">
        <ele>34.2642</ele>
        <time>2013-04-15T18:52:11Z</time>
      </trkpt>
      <trkpt lat="59.9753183" lon="17.7382453">
        <ele>34.2642</ele>
        <time>2013-04-15T18:52:12Z</time>
      </trkpt>
      <trkpt lat="59.9753012" lon="17.7382074">
        <ele>34.2642</ele>
        <time>2013-04-15T18:52:13Z</time>
      </trkpt>
      <trkpt lat="59.9752888" lon="17.7381764">
        <ele>34.2642</ele>
        <time>2013-04-15T18:52:14Z</time>
      </trkpt>
      <trkpt lat="59.9752757" lon="17.7381417">
        <ele>33.7834</ele>
        <time>2013-04-15T18:52:15Z</time>
      </trkpt>
      <trkpt lat="59.9752571" lon="17.7381044">
        <ele>33.7834</ele>
        <time>2013-04-15T18:52:16Z</time>
      </trkpt>
      <trkpt lat="59.9752389" lon="17.7380767">
        <ele>33.7834</ele>
        <time>2013-04-15T18:52:17Z</time>
      </trkpt>
      <trkpt lat="59.9752198" lon="17.7380484">
        <ele>33.3029</ele>
        <time>2013-04-15T18:52:18Z</time>
      </trkpt>
      <trkpt lat="59.9752018" lon="17.7380147">
        <ele>33.3029</ele>
        <time>2013-04-15T18:52:19Z</time>
      </trkpt>
      <trkpt lat="59.9751847" lon="17.7379814">
        <ele>32.8223</ele>
        <time>2013-04-15T18:52:20Z</time>
      </trkpt>
      <trkpt lat="59.9751675" lon="17.7379475">
        <ele>32.8223</ele>
        <time>2013-04-15T18:52:21Z</time>
      </trkpt>
      <trkpt lat="59.9751504" lon="17.7379143">
        <ele>32.8223</ele>
        <time>2013-04-15T18:52:22Z</time>
      </trkpt>
      <trkpt lat="59.9751323" lon="17.7378842">
        <ele>32.3416</ele>
        <time>2013-04-15T18:52:23Z</time>
      </trkpt>
      <trkpt lat="59.9751127" lon="17.7378491">
        <ele>32.3416</ele>
        <time>2013-04-15T18:52:24Z</time>
      </trkpt>
      <trkpt lat="59.9750936" lon="17.7378183">
        <ele>32.8223</ele>
        <time>2013-04-15T18:52:25Z</time>
      </trkpt>
      <trkpt lat="59.9750725" lon="17.7377911">
        <ele>32.3416</ele>
        <time>2013-04-15T18:52:26Z</time>
      </trkpt>
      <trkpt lat="59.975052" lon="17.737756">
        <ele>32.8223</ele>
        <time>2013-04-15T18:52:27Z</time>
      </trkpt>
      <trkpt lat="59.9750332" lon="17.7377229">
        <ele>32.8223</ele>
        <time>2013-04-15T18:52:28Z</time>
      </trkpt>
      <trkpt lat="59.9750131" lon="17.7376914">
        <ele>32.8223</ele>
        <time>2013-04-15T18:52:29Z</time>
      </trkpt>
      <trkpt lat="59.9749949" lon="17.7376551">
        <ele>32.8223</ele>
        <time>2013-04-15T18:52:30Z</time>
      </trkpt>
      <trkpt lat="59.9749755" lon="17.7376185">
        <ele>32.8223</ele>
        <time>2013-04-15T18:52:31Z</time>
      </trkpt>
      <trkpt lat="59.9749571" lon="17.7375822">
        <ele>32.8223</ele>
        <time>2013-04-15T18:52:32Z</time>
      </trkpt>
      <trkpt lat="59.974937" lon="17.7375476">
        <ele>32.3416</ele>
        <time>2013-04-15T18:52:33Z</time>
      </trkpt>
      <trkpt lat="59.9749175" lon="17.7375175">
        <ele>32.3416</ele>
        <time>2013-04-15T18:52:34Z</time>
      </trkpt>
      <trkpt lat="59.9748983" lon="17.7374822">
        <ele>32.3416</ele>
        <time>2013-04-15T18:52:35Z</time>
      </trkpt>
      <trkpt lat="59.9748795" lon="17.7374428">
        <ele>32.3416</ele>
        <time>2013-04-15T18:52:36Z</time>
      </trkpt>
      <trkpt lat="59.9748615" lon="17.7374066">
        <ele>32.3416</ele>
        <time>2013-04-15T18:52:37Z</time>
      </trkpt>
      <trkpt lat="59.974841" lon="17.7373693">
        <ele>32.3416</ele>
        <time>2013-04-15T18:52:38Z</time>
      </trkpt>
      <trkpt lat="59.974823" lon="17.7373279">
        <ele>32.3416</ele>
        <time>2013-04-15T18:52:39Z</time>
      </trkpt>
      <trkpt lat="59.9748075" lon="17.737289">
        <ele>32.3416</ele>
        <time>2013-04-15T18:52:40Z</time>
      </trkpt>
      <trkpt lat="59.9747892" lon="17.7372533">
        <ele>31.8607</ele>
        <time>2013-04-15T18:52:41Z</time>
      </trkpt>
      <trkpt lat="59.9747718" lon="17.7372127">
        <ele>31.8607</ele>
        <time>2013-04-15T18:52:42Z</time>
      </trkpt>
      <trkpt lat="59.9747543" lon="17.7371725">
        <ele>31.3801</ele>
        <time>2013-04-15T18:52:43Z</time>
      </trkpt>
      <trkpt lat="59.9747375" lon="17.7371332">
        <ele>30.8995</ele>
        <time>2013-04-15T18:52:44Z</time>
      </trkpt>
      <trkpt lat="59.9747241" lon="17.7370912">
        <ele>30.8995</ele>
        <time>2013-04-15T18:52:45Z</time>
      </trkpt>
      <trkpt lat="59.9747099" lon="17.7370502">
        <ele>30.4188</ele>
        <time>2013-04-15T18:52:46Z</time>
      </trkpt>
      <trkpt lat="59.9746918" lon="17.7370062">
        <ele>29.9381</ele>
        <time>2013-04-15T18:52:47Z</time>
      </trkpt>
      <trkpt lat="59.9746806" lon="17.7369697">
        <ele>30.4188</ele>
        <time>2013-04-15T18:52:48Z</time>
      </trkpt>
      <trkpt lat="59.9746864" lon="17.7369332">
        <ele>30.4188</ele>
        <time>2013-04-15T18:52:49Z</time>
      </trkpt>
      <trkpt lat="59.9746812" lon="17.7368875">
        <ele>30.4188</ele>
        <time>2013-04-15T18:52:50Z</time>
      </trkpt>
      <trkpt lat="59.9746635" lon="17.736843">
        <ele>30.4188</ele>
        <time>2013-04-15T18:52:51Z</time>
      </trkpt>
      <trkpt lat="59.9746454" lon="17.7368026">
        <ele>30.4188</ele>
        <time>2013-04-15T18:52:52Z</time>
      </trkpt>
      <trkpt lat="59.9746282" lon="17.7367625">
        <ele>30.4188</ele>
        <time>2013-04-15T18:52:53Z</time>
      </trkpt>
      <trkpt lat="59.9746116" lon="17.7367221">
        <ele>29.9381</ele>
        <time>2013-04-15T18:52:54Z</time>
      </trkpt>
      <trkpt lat="59.9745958" lon="17.7366799">
        <ele>29.9381</ele>
        <time>2013-04-15T18:52:55Z</time>
      </trkpt>
      <trkpt lat="59.9745795" lon="17.7366383">
        <ele>29.9381</ele>
        <time>2013-04-15T18:52:56Z</time>
      </trkpt>
      <trkpt lat="59.9745625" lon="17.7365936">
        <ele>29.9381</ele>
        <time>2013-04-15T18:52:57Z</time>
      </trkpt>
      <trkpt lat="59.9745454" lon="17.7365431">
        <ele>29.4575</ele>
        <time>2013-04-15T18:52:58Z</time>
      </trkpt>
      <trkpt lat="59.9745303" lon="17.7364966">
        <ele>28.9769</ele>
        <time>2013-04-15T18:52:59Z</time>
      </trkpt>
      <trkpt lat="59.9745167" lon="17.7364571">
        <ele>28.4962</ele>
        <time>2013-04-15T18:53:00Z</time>
      </trkpt>
      <trkpt lat="59.9745023" lon="17.7364141">
        <ele>28.0155</ele>
        <time>2013-04-15T18:53:01Z</time>
      </trkpt>
      <trkpt lat="59.9744914" lon="17.736369">
        <ele>28.0155</ele>
        <time>2013-04-15T18:53:02Z</time>
      </trkpt>
      <trkpt lat="59.9744789" lon="17.7363269">
        <ele>27.5349</ele>
        <time>2013-04-15T18:53:03Z</time>
      </trkpt>
      <trkpt lat="59.9744651" lon="17.7362862">
        <ele>27.5349</ele>
        <time>2013-04-15T18:53:04Z</time>
      </trkpt>
      <trkpt lat="59.9744507" lon="17.7362429">
        <ele>27.0543</ele>
        <time>2013-04-15T18:53:05Z</time>
      </trkpt>
      <trkpt lat="59.9744381" lon="17.7361956">
        <ele>26.5736</ele>
        <time>2013-04-15T18:53:06Z</time>
      </trkpt>
      <trkpt lat="59.9744261" lon="17.7361529">
        <ele>26.5736</ele>
        <time>2013-04-15T18:53:07Z</time>
      </trkpt>
      <trkpt lat="59.9744139" lon="17.7361089">
        <ele>26.5736</ele>
        <time>2013-04-15T18:53:08Z</time>
      </trkpt>
      <trkpt lat="59.9744028" lon="17.7360651">
        <ele>26.5736</ele>
        <time>2013-04-15T18:53:09Z</time>
      </trkpt>
      <trkpt lat="59.9743942" lon="17.7360226">
        <ele>26.0929</ele>
        <time>2013-04-15T18:53:10Z</time>
      </trkpt>
      <trkpt lat="59.9743833" lon="17.7359769">
        <ele>26.5736</ele>
        <time>2013-04-15T18:53:11Z</time>
      </trkpt>
      <trkpt lat="59.974373" lon="17.7359353">
        <ele>26.0929</ele>
        <time>2013-04-15T18:53:12Z</time>
      </trkpt>
      <trkpt lat="59.974366" lon="17.7358982">
        <ele>26.0929</ele>
        <time>2013-04-15T18:53:13Z</time>
      </trkpt>
      <trkpt lat="59.9743587" lon="17.7358553">
        <ele>26.0929</ele>
        <time>2013-04-15T18:53:14Z</time>
      </trkpt>
      <trkpt lat="59.974351" lon="17.7358055">
        <ele>26.5736</ele>
        <time>2013-04-15T18:53:15Z</time>
      </trkpt>
      <trkpt lat="59.9743489" lon="17.7357651">
        <ele>26.5736</ele>
        <time>2013-04-15T18:53:16Z</time>
      </trkpt>
      <trkpt lat="59.9743465" lon="17.7357302">
        <ele>26.5736</ele>
        <time>2013-04-15T18:53:17Z</time>
      </trkpt>
      <trkpt lat="59.9743413" lon="17.7356915">
        <ele>26.5736</ele>
        <time>2013-04-15T18:53:18Z</time>
      </trkpt>
      <trkpt lat="59.9743342" lon="17.7356464">
        <ele>27.0543</ele>
        <time>2013-04-15T18:53:19Z</time>
      </trkpt>
      <trkpt lat="59.9743253" lon="17.7356006">
        <ele>27.0543</ele>
        <time>2013-04-15T18:53:20Z</time>
      </trkpt>
      <trkpt lat="59.9743179" lon="17.735554">
        <ele>27.0543</ele>
        <time>2013-04-15T18:53:21Z</time>
      </trkpt>
      <trkpt lat="59.9743104" lon="17.7355069">
        <ele>27.5349</ele>
        <time>2013-04-15T18:53:22Z</time>
      </trkpt>
      <trkpt lat="59.974305" lon="17.735468">
        <ele>27.5349</ele>
        <time>2013-04-15T18:53:23Z</time>
      </trkpt>
      <trkpt lat="59.9743013" lon="17.7354257">
        <ele>27.5349</ele>
        <time>2013-04-15T18:53:24Z</time>
      </trkpt>
      <trkpt lat="59.9742966" lon="17.7353781">
        <ele>27.5349</ele>
        <time>2013-04-15T18:53:25Z</time>
      </trkpt>
      <trkpt lat="59.9742921" lon="17.7353356">
        <ele>27.5349</ele>
        <time>2013-04-15T18:53:26Z</time>
      </trkpt>
      <trkpt lat="59.9742883" lon="17.7352874">
        <ele>27.5349</ele>
        <time>2013-04-15T18:53:27Z</time>
      </trkpt>
      <trkpt lat="59.9742845" lon="17.7352345">
        <ele>28.0155</ele>
        <time>2013-04-15T18:53:28Z</time>
      </trkpt>
      <trkpt lat="59.9742791" lon="17.735188">
        <ele>28.0155</ele>
        <time>2013-04-15T18:53:29Z</time>
      </trkpt>
      <trkpt lat="59.9742759" lon="17.7351351">
        <ele>28.4962</ele>
        <time>2013-04-15T18:53:30Z</time>
      </trkpt>
      <trkpt lat="59.9742733" lon="17.7350833">
        <ele>28.4962</ele>
        <time>2013-04-15T18:53:31Z</time>
      </trkpt>
      <trkpt lat="59.9742672" lon="17.7350303">
        <ele>28.4962</ele>
        <time>2013-04-15T18:53:32Z</time>
      </trkpt>
      <trkpt lat="59.974264" lon="17.7349792">
        <ele>28.4962</ele>
        <time>2013-04-15T18:53:33Z</time>
      </trkpt>
      <trkpt lat="59.9742589" lon="17.7349258">
        <ele>28.9769</ele>
        <time>2013-04-15T18:53:34Z</time>
      </trkpt>
      <trkpt lat="59.9742557" lon="17.7348751">
        <ele>28.4962</ele>
        <time>2013-04-15T18:53:35Z</time>
      </trkpt>
      <trkpt lat="59.9742548" lon="17.7348234">
        <ele>28.9769</ele>
        <time>2013-04-15T18:53:36Z</time>
      </trkpt>
      <trkpt lat="59.9742556" lon="17.7347839">
        <ele>28.4962</ele>
        <time>2013-04-15T18:53:37Z</time>
      </trkpt>
      <trkpt lat="59.9742577" lon="17.7347388">
        <ele>28.4962</ele>
        <time>2013-04-15T18:53:38Z</time>
      </trkpt>
      <trkpt lat="59.9742523" lon="17.7346694">
        <ele>28.4962</ele>
        <time>2013-04-15T18:53:39Z</time>
      </trkpt>
      <trkpt lat="59.9742465" lon="17.7346041">
        <ele>28.4962</ele>
        <time>2013-04-15T18:53:40Z</time>
      </trkpt>
      <trkpt lat="59.9742453" lon="17.7345498">
        <ele>28.4962</ele>
        <time>2013-04-15T18:53:41Z</time>
      </trkpt>
      <trkpt lat="59.9742445" lon="17.7344995">
        <ele>28.9769</ele>
        <time>2013-04-15T18:53:42Z</time>
      </trkpt>
      <trkpt lat="59.9742434" lon="17.7344508">
        <ele>28.9769</ele>
        <time>2013-04-15T18:53:43Z</time>
      </trkpt>
      <trkpt lat="59.9742465" lon="17.7344072">
        <ele>28.9769</ele>
        <time>2013-04-15T18:53:44Z</time>
      </trkpt>
      <trkpt lat="59.9742491" lon="17.7343628">
        <ele>28.9769</ele>
        <time>2013-04-15T18:53:45Z</time>
      </trkpt>
      <trkpt lat="59.9742496" lon="17.7343113">
        <ele>29.4575</ele>
        <time>2013-04-15T18:53:46Z</time>
      </trkpt>
      <trkpt lat="59.9742508" lon="17.7342582">
        <ele>29.4575</ele>
        <time>2013-04-15T18:53:47Z</time>
      </trkpt>
      <trkpt lat="59.9742556" lon="17.7342142">
        <ele>29.4575</ele>
        <time>2013-04-15T18:53:48Z</time>
      </trkpt>
      <trkpt lat="59.9742591" lon="17.7341701">
        <ele>29.9381</ele>
        <time>2013-04-15T18:53:49Z</time>
      </trkpt>
      <trkpt lat="59.9742624" lon="17.7341193">
        <ele>29.4575</ele>
        <time>2013-04-15T18:53:50Z</time>
      </trkpt>
      <trkpt lat="59.9742662" lon="17.7340679">
        <ele>29.9381</ele>
        <time>2013-04-15T18:53:51Z</time>
      </trkpt>
      <trkpt lat="59.9742683" lon="17.7340186">
        <ele>29.9381</ele>
        <time>2013-04-15T18:53:52Z</time>
      </trkpt>
      <trkpt lat="59.9742722" lon="17.7339692">
        <ele>29.9381</ele>
        <time>2013-04-15T18:53:53Z</time>
      </trkpt>
      <trkpt lat="59.9742727" lon="17.7339135">
        <ele>30.4188</ele>
        <time>2013-04-15T18:53:54Z</time>
      </trkpt>
      <trkpt lat="59.974274" lon="17.7338613">
        <ele>30.4188</ele>
        <time>2013-04-15T18:53:55Z</time>
      </trkpt>
      <trkpt lat="59.9742802" lon="17.7338147">
        <ele>30.4188</ele>
        <time>2013-04-15T18:53:56Z</time>
      </trkpt>
      <trkpt lat="59.9742869" lon="17.7337696">
        <ele>29.9381</ele>
        <time>2013-04-15T18:53:57Z</time>
      </trkpt>
      <trkpt lat="59.9742932" lon="17.7337214">
        <ele>29.9381</ele>
        <time>2013-04-15T18:53:58Z</time>
      </trkpt>
      <trkpt lat="59.9742969" lon="17.7336696">
        <ele>29.9381</ele>
        <time>2013-04-15T18:53:59Z</time>
      </trkpt>
      <trkpt lat="59.9743012" lon="17.7336194">
        <ele>29.9381</ele>
        <time>2013-04-15T18:54:00Z</time>
      </trkpt>
      <trkpt lat="59.9743049" lon="17.7335691">
        <ele>29.9381</ele>
        <time>2013-04-15T18:54:01Z</time>
      </trkpt>
      <trkpt lat="59.9743114" lon="17.7335214">
        <ele>29.9381</ele>
        <time>2013-04-15T18:54:02Z</time>
      </trkpt>
      <trkpt lat="59.974317" lon="17.733475">
        <ele>30.4188</ele>
        <time>2013-04-15T18:54:03Z</time>
      </trkpt>
      <trkpt lat="59.9743185" lon="17.7334253">
        <ele>30.4188</ele>
        <time>2013-04-15T18:54:04Z</time>
      </trkpt>
      <trkpt lat="59.9743196" lon="17.7333754">
        <ele>30.8995</ele>
        <time>2013-04-15T18:54:05Z</time>
      </trkpt>
      <trkpt lat="59.9743206" lon="17.7333269">
        <ele>30.8995</ele>
        <time>2013-04-15T18:54:06Z</time>
      </trkpt>
      <trkpt lat="59.9743214" lon="17.7332785">
        <ele>30.8995</ele>
        <time>2013-04-15T18:54:07Z</time>
      </trkpt>
      <trkpt lat="59.9743237" lon="17.7332314">
        <ele>30.8995</ele>
        <time>2013-04-15T18:54:08Z</time>
      </trkpt>
      <trkpt lat="59.9743253" lon="17.7331822">
        <ele>30.8995</ele>
        <time>2013-04-15T18:54:09Z</time>
      </trkpt>
      <trkpt lat="59.9743289" lon="17.7331324">
        <ele>30.8995</ele>
        <time>2013-04-15T18:54:10Z</time>
      </trkpt>
      <trkpt lat="59.9743311" lon="17.7330828">
        <ele>31.3801</ele>
        <time>2013-04-15T18:54:11Z</time>
      </trkpt>
      <trkpt lat="59.974333" lon="17.7330356">
        <ele>30.8995</ele>
        <time>2013-04-15T18:54:12Z</time>
      </trkpt>
      <trkpt lat="59.9743356" lon="17.7329901">
        <ele>30.8995</ele>
        <time>2013-04-15T18:54:13Z</time>
      </trkpt>
      <trkpt lat="59.9743342" lon="17.7329451">
        <ele>31.3801</ele>
        <time>2013-04-15T18:54:14Z</time>
      </trkpt>
      <trkpt lat="59.9743336" lon="17.7328981">
        <ele>31.3801</ele>
        <time>2013-04-15T18:54:15Z</time>
      </trkpt>
      <trkpt lat="59.9743354" lon="17.7328497">
        <ele>31.3801</ele>
        <time>2013-04-15T18:54:16Z</time>
      </trkpt>
      <trkpt lat="59.9743344" lon="17.7327987">
        <ele>31.8607</ele>
        <time>2013-04-15T18:54:17Z</time>
      </trkpt>
      <trkpt lat="59.9743346" lon="17.732747">
        <ele>31.8607</ele>
        <time>2013-04-15T18:54:18Z</time>
      </trkpt>
      <trkpt lat="59.9743351" lon="17.7326989">
        <ele>31.8607</ele>
        <time>2013-04-15T18:54:19Z</time>
      </trkpt>
      <trkpt lat="59.9743361" lon="17.7326502">
        <ele>31.3801</ele>
        <time>2013-04-15T18:54:20Z</time>
      </trkpt>
      <trkpt lat="59.9743387" lon="17.7326003">
        <ele>31.3801</ele>
        <time>2013-04-15T18:54:21Z</time>
      </trkpt>
      <trkpt lat="59.9743392" lon="17.7325492">
        <ele>31.3801</ele>
        <time>2013-04-15T18:54:22Z</time>
      </trkpt>
      <trkpt lat="59.9743393" lon="17.7324938">
        <ele>31.8607</ele>
        <time>2013-04-15T18:54:23Z</time>
      </trkpt>
      <trkpt lat="59.9743387" lon="17.7324454">
        <ele>31.8607</ele>
        <time>2013-04-15T18:54:24Z</time>
      </trkpt>
      <trkpt lat="59.9743382" lon="17.7323983">
        <ele>31.8607</ele>
        <time>2013-04-15T18:54:25Z</time>
      </trkpt>
      <trkpt lat="59.9743383" lon="17.7323483">
        <ele>31.8607</ele>
        <time>2013-04-15T18:54:26Z</time>
      </trkpt>
      <trkpt lat="59.9743362" lon="17.732299">
        <ele>31.8607</ele>
        <time>2013-04-15T18:54:27Z</time>
      </trkpt>
      <trkpt lat="59.974333" lon="17.7322527">
        <ele>31.8607</ele>
        <time>2013-04-15T18:54:28Z</time>
      </trkpt>
      <trkpt lat="59.9743334" lon="17.7322089">
        <ele>31.3801</ele>
        <time>2013-04-15T18:54:29Z</time>
      </trkpt>
      <trkpt lat="59.974333" lon="17.7321664">
        <ele>31.3801</ele>
        <time>2013-04-15T18:54:30Z</time>
      </trkpt>
      <trkpt lat="59.9743315" lon="17.7321196">
        <ele>30.8995</ele>
        <time>2013-04-15T18:54:31Z</time>
      </trkpt>
      <trkpt lat="59.9743309" lon="17.7320694">
        <ele>30.8995</ele>
        <time>2013-04-15T18:54:32Z</time>
      </trkpt>
      <trkpt lat="59.9743283" lon="17.732022">
        <ele>30.8995</ele>
        <time>2013-04-15T18:54:33Z</time>
      </trkpt>
      <trkpt lat="59.974328" lon="17.7319726">
        <ele>30.8995</ele>
        <time>2013-04-15T18:54:34Z</time>
      </trkpt>
      <trkpt lat="59.9743284" lon="17.7319227">
        <ele>30.8995</ele>
        <time>2013-04-15T18:54:35Z</time>
      </trkpt>
      <trkpt lat="59.9743256" lon="17.7318782">
        <ele>31.3801</ele>
        <time>2013-04-15T18:54:36Z</time>
      </trkpt>
      <trkpt lat="59.9743257" lon="17.7318332">
        <ele>30.8995</ele>
        <time>2013-04-15T18:54:37Z</time>
      </trkpt>
      <trkpt lat="59.9743251" lon="17.7317824">
        <ele>30.8995</ele>
        <time>2013-04-15T18:54:38Z</time>
      </trkpt>
      <trkpt lat="59.9743251" lon="17.7317331">
        <ele>31.3801</ele>
        <time>2013-04-15T18:54:39Z</time>
      </trkpt>
      <trkpt lat="59.9743278" lon="17.7316767">
        <ele>31.3801</ele>
        <time>2013-04-15T18:54:40Z</time>
      </trkpt>
      <trkpt lat="59.974331" lon="17.7316207">
        <ele>31.3801</ele>
        <time>2013-04-15T18:54:41Z</time>
      </trkpt>
      <trkpt lat="59.9743341" lon="17.7315715">
        <ele>31.3801</ele>
        <time>2013-04-15T18:54:42Z</time>
      </trkpt>
      <trkpt lat="59.9743356" lon="17.7315261">
        <ele>30.8995</ele>
        <time>2013-04-15T18:54:43Z</time>
      </trkpt>
      <trkpt lat="59.9743398" lon="17.7314788">
        <ele>30.8995</ele>
        <time>2013-04-15T18:54:44Z</time>
      </trkpt>
      <trkpt lat="59.9743459" lon="17.7314324">
        <ele>30.4188</ele>
        <time>2013-04-15T18:54:45Z</time>
      </trkpt>
      <trkpt lat="59.9743466" lon="17.7313873">
        <ele>30.8995</ele>
        <time>2013-04-15T18:54:46Z</time>
      </trkpt>
      <trkpt lat="59.9743473" lon="17.7313377">
        <ele>30.4188</ele>
        <time>2013-04-15T18:54:47Z</time>
      </trkpt>
      <trkpt lat="59.9743594" lon="17.7313032">
        <ele>29.9381</ele>
        <time>2013-04-15T18:54:48Z</time>
      </trkpt>
      <trkpt lat="59.9743688" lon="17.7312671">
        <ele>29.9381</ele>
        <time>2013-04-15T18:54:49Z</time>
      </trkpt>
      <trkpt lat="59.9743749" lon="17.7312281">
        <ele>29.4575</ele>
        <time>2013-04-15T18:54:50Z</time>
      </trkpt>
      <trkpt lat="59.974379" lon="17.7311847">
        <ele>29.4575</ele>
        <time>2013-04-15T18:54:51Z</time>
      </trkpt>
      <trkpt lat="59.974381" lon="17.7311319">
        <ele>28.9769</ele>
        <time>2013-04-15T18:54:52Z</time>
      </trkpt>
      <trkpt lat="59.9743828" lon="17.7310779">
        <ele>28.9769</ele>
        <time>2013-04-15T18:54:53Z</time>
      </trkpt>
      <trkpt lat="59.9743854" lon="17.7310286">
        <ele>28.4962</ele>
        <time>2013-04-15T18:54:54Z</time>
      </trkpt>
      <trkpt lat="59.9743893" lon="17.7309771">
        <ele>28.0155</ele>
        <time>2013-04-15T18:54:55Z</time>
      </trkpt>
      <trkpt lat="59.9743932" lon="17.7309169">
        <ele>27.5349</ele>
        <time>2013-04-15T18:54:56Z</time>
      </trkpt>
      <trkpt lat="59.9743968" lon="17.7308595">
        <ele>27.0543</ele>
        <time>2013-04-15T18:54:57Z</time>
      </trkpt>
      <trkpt lat="59.9743986" lon="17.7308056">
        <ele>27.0543</ele>
        <time>2013-04-15T18:54:58Z</time>
      </trkpt>
      <trkpt lat="59.974405" lon="17.7307549">
        <ele>26.0929</ele>
        <time>2013-04-15T18:54:59Z</time>
      </trkpt>
      <trkpt lat="59.9744117" lon="17.730703">
        <ele>26.0929</ele>
        <time>2013-04-15T18:55:00Z</time>
      </trkpt>
      <trkpt lat="59.9744154" lon="17.7306564">
        <ele>26.0929</ele>
        <time>2013-04-15T18:55:01Z</time>
      </trkpt>
      <trkpt lat="59.9744215" lon="17.730607">
        <ele>26.0929</ele>
        <time>2013-04-15T18:55:02Z</time>
      </trkpt>
      <trkpt lat="59.9744278" lon="17.7305601">
        <ele>26.0929</ele>
        <time>2013-04-15T18:55:03Z</time>
      </trkpt>
      <trkpt lat="59.9744335" lon="17.7305093">
        <ele>25.6123</ele>
        <time>2013-04-15T18:55:04Z</time>
      </trkpt>
      <trkpt lat="59.9744392" lon="17.7304649">
        <ele>25.1317</ele>
        <time>2013-04-15T18:55:05Z</time>
      </trkpt>
      <trkpt lat="59.9744413" lon="17.7304226">
        <ele>25.1317</ele>
        <time>2013-04-15T18:55:06Z</time>
      </trkpt>
      <trkpt lat="59.9744438" lon="17.7303713">
        <ele>25.6123</ele>
        <time>2013-04-15T18:55:07Z</time>
      </trkpt>
      <trkpt lat="59.9744526" lon="17.7303202">
        <ele>25.6123</ele>
        <time>2013-04-15T18:55:08Z</time>
      </trkpt>
      <trkpt lat="59.9744593" lon="17.7302736">
        <ele>25.6123</ele>
        <time>2013-04-15T18:55:09Z</time>
      </trkpt>
      <trkpt lat="59.9744644" lon="17.7302249">
        <ele>25.1317</ele>
        <time>2013-04-15T18:55:10Z</time>
      </trkpt>
      <trkpt lat="59.9744699" lon="17.7301744">
        <ele>25.1317</ele>
        <time>2013-04-15T18:55:11Z</time>
      </trkpt>
      <trkpt lat="59.9744723" lon="17.7301279">
        <ele>25.1317</ele>
        <time>2013-04-15T18:55:12Z</time>
      </trkpt>
      <trkpt lat="59.9744746" lon="17.7300768">
        <ele>25.6123</ele>
        <time>2013-04-15T18:55:13Z</time>
      </trkpt>
      <trkpt lat="59.974478" lon="17.7300338">
        <ele>25.1317</ele>
        <time>2013-04-15T18:55:14Z</time>
      </trkpt>
      <trkpt lat="59.9744826" lon="17.7299882">
        <ele>25.1317</ele>
        <time>2013-04-15T18:55:15Z</time>
      </trkpt>
      <trkpt lat="59.9744873" lon="17.7299364">
        <ele>25.6123</ele>
        <time>2013-04-15T18:55:16Z</time>
      </trkpt>
      <trkpt lat="59.9744916" lon="17.729888">
        <ele>25.6123</ele>
        <time>2013-04-15T18:55:17Z</time>
      </trkpt>
      <trkpt lat="59.9744957" lon="17.7298405">
        <ele>25.6123</ele>
        <time>2013-04-15T18:55:18Z</time>
      </trkpt>
      <trkpt lat="59.9745001" lon="17.7297891">
        <ele>25.1317</ele>
        <time>2013-04-15T18:55:19Z</time>
      </trkpt>
      <trkpt lat="59.9745024" lon="17.729738">
        <ele>25.1317</ele>
        <time>2013-04-15T18:55:20Z</time>
      </trkpt>
      <trkpt lat="59.9745035" lon="17.7296882">
        <ele>25.1317</ele>
        <time>2013-04-15T18:55:21Z</time>
      </trkpt>
      <trkpt lat="59.9745051" lon="17.7296409">
        <ele>25.1317</ele>
        <time>2013-04-15T18:55:22Z</time>
      </trkpt>
      <trkpt lat="59.9745132" lon="17.7295933">
        <ele>25.1317</ele>
        <time>2013-04-15T18:55:23Z</time>
      </trkpt>
      <trkpt lat="59.9745195" lon="17.7295409">
        <ele>25.6123</ele>
        <time>2013-04-15T18:55:24Z</time>
      </trkpt>
      <trkpt lat="59.9745252" lon="17.7294898">
        <ele>25.6123</ele>
        <time>2013-04-15T18:55:25Z</time>
      </trkpt>
      <trkpt lat="59.9745294" lon="17.7294407">
        <ele>26.0929</ele>
        <time>2013-04-15T18:55:26Z</time>
      </trkpt>
      <trkpt lat="59.97453" lon="17.7293917">
        <ele>26.0929</ele>
        <time>2013-04-15T18:55:27Z</time>
      </trkpt>
      <trkpt lat="59.9745331" lon="17.7293465">
        <ele>26.0929</ele>
        <time>2013-04-15T18:55:28Z</time>
      </trkpt>
      <trkpt lat="59.9745346" lon="17.7293019">
        <ele>26.0929</ele>
        <time>2013-04-15T18:55:29Z</time>
      </trkpt>
      <trkpt lat="59.9745347" lon="17.7292501">
        <ele>26.0929</ele>
        <time>2013-04-15T18:55:30Z</time>
      </trkpt>
      <trkpt lat="59.9745325" lon="17.7291972">
        <ele>26.5736</ele>
        <time>2013-04-15T18:55:31Z</time>
      </trkpt>
      <trkpt lat="59.9745278" lon="17.7291454">
        <ele>27.0543</ele>
        <time>2013-04-15T18:55:32Z</time>
      </trkpt>
      <trkpt lat="59.9745238" lon="17.7290911">
        <ele>27.0543</ele>
        <time>2013-04-15T18:55:33Z</time>
      </trkpt>
      <trkpt lat="59.9745231" lon="17.7290408">
        <ele>26.5736</ele>
        <time>2013-04-15T18:55:34Z</time>
      </trkpt>
      <trkpt lat="59.9745211" lon="17.7289942">
        <ele>27.0543</ele>
        <time>2013-04-15T18:55:35Z</time>
      </trkpt>
      <trkpt lat="59.9745153" lon="17.7289438">
        <ele>27.5349</ele>
        <time>2013-04-15T18:55:36Z</time>
      </trkpt>
      <trkpt lat="59.9745098" lon="17.7288941">
        <ele>27.5349</ele>
        <time>2013-04-15T18:55:37Z</time>
      </trkpt>
      <trkpt lat="59.9745086" lon="17.7288376">
        <ele>27.0543</ele>
        <time>2013-04-15T18:55:38Z</time>
      </trkpt>
      <trkpt lat="59.9745077" lon="17.7287807">
        <ele>27.5349</ele>
        <time>2013-04-15T18:55:39Z</time>
      </trkpt>
      <trkpt lat="59.9745049" lon="17.7287367">
        <ele>27.5349</ele>
        <time>2013-04-15T18:55:40Z</time>
      </trkpt>
      <trkpt lat="59.9744988" lon="17.7286869">
        <ele>27.5349</ele>
        <time>2013-04-15T18:55:41Z</time>
      </trkpt>
      <trkpt lat="59.9744935" lon="17.7286346">
        <ele>27.5349</ele>
        <time>2013-04-15T18:55:42Z</time>
      </trkpt>
      <trkpt lat="59.9744926" lon="17.7285827">
        <ele>27.5349</ele>
        <time>2013-04-15T18:55:43Z</time>
      </trkpt>
      <trkpt lat="59.9744903" lon="17.7285335">
        <ele>28.0155</ele>
        <time>2013-04-15T18:55:44Z</time>
      </trkpt>
      <trkpt lat="59.9744852" lon="17.7284858">
        <ele>28.0155</ele>
        <time>2013-04-15T18:55:45Z</time>
      </trkpt>
      <trkpt lat="59.9744827" lon="17.7284422">
        <ele>28.0155</ele>
        <time>2013-04-15T18:55:46Z</time>
      </trkpt>
      <trkpt lat="59.9744797" lon="17.7283943">
        <ele>28.4962</ele>
        <time>2013-04-15T18:55:47Z</time>
      </trkpt>
      <trkpt lat="59.9744782" lon="17.7283443">
        <ele>28.0155</ele>
        <time>2013-04-15T18:55:48Z</time>
      </trkpt>
      <trkpt lat="59.9744754" lon="17.7282969">
        <ele>28.0155</ele>
        <time>2013-04-15T18:55:49Z</time>
      </trkpt>
      <trkpt lat="59.9744639" lon="17.728253">
        <ele>28.4962</ele>
        <time>2013-04-15T18:55:50Z</time>
      </trkpt>
      <trkpt lat="59.9744557" lon="17.728202">
        <ele>28.4962</ele>
        <time>2013-04-15T18:55:51Z</time>
      </trkpt>
      <trkpt lat="59.9744552" lon="17.7281547">
        <ele>28.4962</ele>
        <time>2013-04-15T18:55:52Z</time>
      </trkpt>
      <trkpt lat="59.9744509" lon="17.7281052">
        <ele>28.4962</ele>
        <time>2013-04-15T18:55:53Z</time>
      </trkpt>
      <trkpt lat="59.9744463" lon="17.7280524">
        <ele>28.0155</ele>
        <time>2013-04-15T18:55:54Z</time>
      </trkpt>
      <trkpt lat="59.9744417" lon="17.7279981">
        <ele>28.0155</ele>
        <time>2013-04-15T18:55:55Z</time>
      </trkpt>
      <trkpt lat="59.9744366" lon="17.7279517">
        <ele>28.0155</ele>
        <time>2013-04-15T18:55:56Z</time>
      </trkpt>
      <trkpt lat="59.9744351" lon="17.7279097">
        <ele>27.5349</ele>
        <time>2013-04-15T18:55:57Z</time>
      </trkpt>
      <trkpt lat="59.9744377" lon="17.7278721">
        <ele>27.5349</ele>
        <time>2013-04-15T18:55:58Z</time>
      </trkpt>
      <trkpt lat="59.9744382" lon="17.7278321">
        <ele>27.0543</ele>
        <time>2013-04-15T18:55:59Z</time>
      </trkpt>
      <trkpt lat="59.9744372" lon="17.7277908">
        <ele>27.0543</ele>
        <time>2013-04-15T18:56:00Z</time>
      </trkpt>
      <trkpt lat="59.9744366" lon="17.7277426">
        <ele>27.0543</ele>
        <time>2013-04-15T18:56:01Z</time>
      </trkpt>
      <trkpt lat="59.9744323" lon="17.7276925">
        <ele>27.5349</ele>
        <time>2013-04-15T18:56:02Z</time>
      </trkpt>
      <trkpt lat="59.9744289" lon="17.7276471">
        <ele>27.5349</ele>
        <time>2013-04-15T18:56:03Z</time>
      </trkpt>
      <trkpt lat="59.9744252" lon="17.727597">
        <ele>27.5349</ele>
        <time>2013-04-15T18:56:04Z</time>
      </trkpt>
      <trkpt lat="59.9744225" lon="17.7275495">
        <ele>28.0155</ele>
        <time>2013-04-15T18:56:05Z</time>
      </trkpt>
      <trkpt lat="59.9744191" lon="17.7275011">
        <ele>28.4962</ele>
        <time>2013-04-15T18:56:06Z</time>
      </trkpt>
      <trkpt lat="59.9744157" lon="17.7274459">
        <ele>28.4962</ele>
        <time>2013-04-15T18:56:07Z</time>
      </trkpt>
      <trkpt lat="59.9744138" lon="17.7273935">
        <ele>28.4962</ele>
        <time>2013-04-15T18:56:08Z</time>
      </trkpt>
      <trkpt lat="59.97441" lon="17.7273444">
        <ele>28.9769</ele>
        <time>2013-04-15T18:56:09Z</time>
      </trkpt>
      <trkpt lat="59.9744053" lon="17.7272917">
        <ele>28.9769</ele>
        <time>2013-04-15T18:56:10Z</time>
      </trkpt>
      <trkpt lat="59.9744005" lon="17.7272368">
        <ele>28.9769</ele>
        <time>2013-04-15T18:56:11Z</time>
      </trkpt>
      <trkpt lat="59.9743972" lon="17.7271824">
        <ele>28.4962</ele>
        <time>2013-04-15T18:56:12Z</time>
      </trkpt>
      <trkpt lat="59.9743961" lon="17.7271319">
        <ele>28.9769</ele>
        <time>2013-04-15T18:56:13Z</time>
      </trkpt>
      <trkpt lat="59.9743993" lon="17.7270836">
        <ele>28.4962</ele>
        <time>2013-04-15T18:56:14Z</time>
      </trkpt>
      <trkpt lat="59.9743989" lon="17.7270332">
        <ele>28.4962</ele>
        <time>2013-04-15T18:56:15Z</time>
      </trkpt>
      <trkpt lat="59.9743943" lon="17.7269837">
        <ele>28.4962</ele>
        <time>2013-04-15T18:56:16Z</time>
      </trkpt>
      <trkpt lat="59.9743921" lon="17.726935">
        <ele>28.0155</ele>
        <time>2013-04-15T18:56:17Z</time>
      </trkpt>
      <trkpt lat="59.9743916" lon="17.7268889">
        <ele>28.0155</ele>
        <time>2013-04-15T18:56:18Z</time>
      </trkpt>
      <trkpt lat="59.9743905" lon="17.7268392">
        <ele>28.0155</ele>
        <time>2013-04-15T18:56:19Z</time>
      </trkpt>
      <trkpt lat="59.9743888" lon="17.7267916">
        <ele>28.0155</ele>
        <time>2013-04-15T18:56:20Z</time>
      </trkpt>
      <trkpt lat="59.9743857" lon="17.7267426">
        <ele>28.4962</ele>
        <time>2013-04-15T18:56:21Z</time>
      </trkpt>
      <trkpt lat="59.9743854" lon="17.726692">
        <ele>28.4962</ele>
        <time>2013-04-15T18:56:22Z</time>
      </trkpt>
      <trkpt lat="59.9743874" lon="17.7266468">
        <ele>28.4962</ele>
        <time>2013-04-15T18:56:23Z</time>
      </trkpt>
      <trkpt lat="59.9743864" lon="17.7265958">
        <ele>28.4962</ele>
        <time>2013-04-15T18:56:24Z</time>
      </trkpt>
      <trkpt lat="59.9743879" lon="17.7265505">
        <ele>28.4962</ele>
        <time>2013-04-15T18:56:25Z</time>
      </trkpt>
      <trkpt lat="59.9743936" lon="17.7265098">
        <ele>28.9769</ele>
        <time>2013-04-15T18:56:26Z</time>
      </trkpt>
      <trkpt lat="59.974395" lon="17.7264651">
        <ele>28.9769</ele>
        <time>2013-04-15T18:56:27Z</time>
      </trkpt>
      <trkpt lat="59.974393" lon="17.7264132">
        <ele>28.9769</ele>
        <time>2013-04-15T18:56:28Z</time>
      </trkpt>
      <trkpt lat="59.9743903" lon="17.7263653">
        <ele>28.9769</ele>
        <time>2013-04-15T18:56:29Z</time>
      </trkpt>
      <trkpt lat="59.9743869" lon="17.7263179">
        <ele>28.9769</ele>
        <time>2013-04-15T18:56:30Z</time>
      </trkpt>
      <trkpt lat="59.9743839" lon="17.7262694">
        <ele>28.9769</ele>
        <time>2013-04-15T18:56:31Z</time>
      </trkpt>
      <trkpt lat="59.9743767" lon="17.7262093">
        <ele>29.9381</ele>
        <time>2013-04-15T18:56:32Z</time>
      </trkpt>
      <trkpt lat="59.9743738" lon="17.7261647">
        <ele>30.4188</ele>
        <time>2013-04-15T18:56:33Z</time>
      </trkpt>
      <trkpt lat="59.9743699" lon="17.7261211">
        <ele>29.9381</ele>
        <time>2013-04-15T18:56:34Z</time>
      </trkpt>
      <trkpt lat="59.9743671" lon="17.7260729">
        <ele>29.9381</ele>
        <time>2013-04-15T18:56:35Z</time>
      </trkpt>
      <trkpt lat="59.974364" lon="17.7260283">
        <ele>29.9381</ele>
        <time>2013-04-15T18:56:36Z</time>
      </trkpt>
      <trkpt lat="59.9743573" lon="17.7259772">
        <ele>29.9381</ele>
        <time>2013-04-15T18:56:37Z</time>
      </trkpt>
      <trkpt lat="59.9743517" lon="17.7259257">
        <ele>29.9381</ele>
        <time>2013-04-15T18:56:38Z</time>
      </trkpt>
      <trkpt lat="59.974347" lon="17.7258756">
        <ele>30.4188</ele>
        <time>2013-04-15T18:56:39Z</time>
      </trkpt>
      <trkpt lat="59.9743413" lon="17.7258268">
        <ele>30.4188</ele>
        <time>2013-04-15T18:56:40Z</time>
      </trkpt>
      <trkpt lat="59.9743371" lon="17.7257763">
        <ele>30.4188</ele>
        <time>2013-04-15T18:56:41Z</time>
      </trkpt>
      <trkpt lat="59.9743331" lon="17.72573">
        <ele>30.4188</ele>
        <time>2013-04-15T18:56:42Z</time>
      </trkpt>
      <trkpt lat="59.9743287" lon="17.7256841">
        <ele>30.4188</ele>
        <time>2013-04-15T18:56:43Z</time>
      </trkpt>
      <trkpt lat="59.9743257" lon="17.7256354">
        <ele>30.4188</ele>
        <time>2013-04-15T18:56:44Z</time>
      </trkpt>
      <trkpt lat="59.9743231" lon="17.7255887">
        <ele>30.4188</ele>
        <time>2013-04-15T18:56:45Z</time>
      </trkpt>
      <trkpt lat="59.9743196" lon="17.7255474">
        <ele>29.9381</ele>
        <time>2013-04-15T18:56:46Z</time>
      </trkpt>
      <trkpt lat="59.9743159" lon="17.7255017">
        <ele>29.9381</ele>
        <time>2013-04-15T18:56:47Z</time>
      </trkpt>
      <trkpt lat="59.9743113" lon="17.7254533">
        <ele>29.9381</ele>
        <time>2013-04-15T18:56:48Z</time>
      </trkpt>
      <trkpt lat="59.9743061" lon="17.7254106">
        <ele>29.9381</ele>
        <time>2013-04-15T18:56:49Z</time>
      </trkpt>
      <trkpt lat="59.9743017" lon="17.7253655">
        <ele>29.9381</ele>
        <time>2013-04-15T18:56:50Z</time>
      </trkpt>
      <trkpt lat="59.9742957" lon="17.7253161">
        <ele>29.9381</ele>
        <time>2013-04-15T18:56:51Z</time>
      </trkpt>
      <trkpt lat="59.9742896" lon="17.7252727">
        <ele>30.4188</ele>
        <time>2013-04-15T18:56:52Z</time>
      </trkpt>
      <trkpt lat="59.9742833" lon="17.7252277">
        <ele>30.4188</ele>
        <time>2013-04-15T18:56:53Z</time>
      </trkpt>
      <trkpt lat="59.9742775" lon="17.7251788">
        <ele>30.4188</ele>
        <time>2013-04-15T18:56:54Z</time>
      </trkpt>
      <trkpt lat="59.9742714" lon="17.7251344">
        <ele>30.4188</ele>
        <time>2013-04-15T18:56:55Z</time>
      </trkpt>
      <trkpt lat="59.9742643" lon="17.7250929">
        <ele>30.4188</ele>
        <time>2013-04-15T18:56:56Z</time>
      </trkpt>
      <trkpt lat="59.9742585" lon="17.7250465">
        <ele>30.8995</ele>
        <time>2013-04-15T18:56:57Z</time>
      </trkpt>
      <trkpt lat="59.9742532" lon="17.7250021">
        <ele>30.8995</ele>
        <time>2013-04-15T18:56:58Z</time>
      </trkpt>
      <trkpt lat="59.9742465" lon="17.7249561">
        <ele>30.8995</ele>
        <time>2013-04-15T18:56:59Z</time>
      </trkpt>
      <trkpt lat="59.9742401" lon="17.7249079">
        <ele>30.8995</ele>
        <time>2013-04-15T18:57:00Z</time>
      </trkpt>
      <trkpt lat="59.9742329" lon="17.7248612">
        <ele>30.8995</ele>
        <time>2013-04-15T18:57:01Z</time>
      </trkpt>
      <trkpt lat="59.9742251" lon="17.7248165">
        <ele>30.8995</ele>
        <time>2013-04-15T18:57:02Z</time>
      </trkpt>
      <trkpt lat="59.9742185" lon="17.7247695">
        <ele>30.8995</ele>
        <time>2013-04-15T18:57:03Z</time>
      </trkpt>
      <trkpt lat="59.9742128" lon="17.7247236">
        <ele>30.4188</ele>
        <time>2013-04-15T18:57:04Z</time>
      </trkpt>
      <trkpt lat="59.9742061" lon="17.7246818">
        <ele>30.4188</ele>
        <time>2013-04-15T18:57:05Z</time>
      </trkpt>
      <trkpt lat="59.9741997" lon="17.7246356">
        <ele>30.4188</ele>
        <time>2013-04-15T18:57:06Z</time>
      </trkpt>
      <trkpt lat="59.9741935" lon="17.7245895">
        <ele>30.4188</ele>
        <time>2013-04-15T18:57:07Z</time>
      </trkpt>
      <trkpt lat="59.9741873" lon="17.7245471">
        <ele>29.9381</ele>
        <time>2013-04-15T18:57:08Z</time>
      </trkpt>
      <trkpt lat="59.9741809" lon="17.7245005">
        <ele>29.9381</ele>
        <time>2013-04-15T18:57:09Z</time>
      </trkpt>
      <trkpt lat="59.9741743" lon="17.7244558">
        <ele>29.9381</ele>
        <time>2013-04-15T18:57:10Z</time>
      </trkpt>
      <trkpt lat="59.9741678" lon="17.7244132">
        <ele>29.4575</ele>
        <time>2013-04-15T18:57:11Z</time>
      </trkpt>
      <trkpt lat="59.9741612" lon="17.7243657">
        <ele>29.4575</ele>
        <time>2013-04-15T18:57:12Z</time>
      </trkpt>
      <trkpt lat="59.9741543" lon="17.7243211">
        <ele>29.4575</ele>
        <time>2013-04-15T18:57:13Z</time>
      </trkpt>
      <trkpt lat="59.9741474" lon="17.7242764">
        <ele>29.4575</ele>
        <time>2013-04-15T18:57:14Z</time>
      </trkpt>
      <trkpt lat="59.9741407" lon="17.7242278">
        <ele>29.4575</ele>
        <time>2013-04-15T18:57:15Z</time>
      </trkpt>
      <trkpt lat="59.9741341" lon="17.7241837">
        <ele>29.4575</ele>
        <time>2013-04-15T18:57:16Z</time>
      </trkpt>
      <trkpt lat="59.9741272" lon="17.7241388">
        <ele>28.9769</ele>
        <time>2013-04-15T18:57:17Z</time>
      </trkpt>
      <trkpt lat="59.9741201" lon="17.72409">
        <ele>29.4575</ele>
        <time>2013-04-15T18:57:18Z</time>
      </trkpt>
      <trkpt lat="59.9741134" lon="17.7240461">
        <ele>28.9769</ele>
        <time>2013-04-15T18:57:19Z</time>
      </trkpt>
      <trkpt lat="59.9741062" lon="17.7240006">
        <ele>28.9769</ele>
        <time>2013-04-15T18:57:20Z</time>
      </trkpt>
      <trkpt lat="59.9740994" lon="17.7239538">
        <ele>28.9769</ele>
        <time>2013-04-15T18:57:21Z</time>
      </trkpt>
      <trkpt lat="59.9740923" lon="17.7239124">
        <ele>28.9769</ele>
        <time>2013-04-15T18:57:22Z</time>
      </trkpt>
      <trkpt lat="59.9740861" lon="17.7238684">
        <ele>28.4962</ele>
        <time>2013-04-15T18:57:23Z</time>
      </trkpt>
      <trkpt lat="59.9740801" lon="17.7238203">
        <ele>28.4962</ele>
        <time>2013-04-15T18:57:24Z</time>
      </trkpt>
      <trkpt lat="59.9740725" lon="17.7237758">
        <ele>28.9769</ele>
        <time>2013-04-15T18:57:25Z</time>
      </trkpt>
      <trkpt lat="59.9740641" lon="17.7237296">
        <ele>28.9769</ele>
        <time>2013-04-15T18:57:26Z</time>
      </trkpt>
      <trkpt lat="59.9740562" lon="17.723683">
        <ele>28.4962</ele>
        <time>2013-04-15T18:57:27Z</time>
      </trkpt>
      <trkpt lat="59.9740475" lon="17.72364">
        <ele>28.9769</ele>
        <time>2013-04-15T18:57:28Z</time>
      </trkpt>
      <trkpt lat="59.9740396" lon="17.723594">
        <ele>28.4962</ele>
        <time>2013-04-15T18:57:29Z</time>
      </trkpt>
      <trkpt lat="59.9740311" lon="17.7235467">
        <ele>28.9769</ele>
        <time>2013-04-15T18:57:30Z</time>
      </trkpt>
      <trkpt lat="59.9740233" lon="17.7235058">
        <ele>28.4962</ele>
        <time>2013-04-15T18:57:31Z</time>
      </trkpt>
      <trkpt lat="59.9740155" lon="17.7234602">
        <ele>28.4962</ele>
        <time>2013-04-15T18:57:32Z</time>
      </trkpt>
      <trkpt lat="59.974008" lon="17.7234146">
        <ele>28.4962</ele>
        <time>2013-04-15T18:57:33Z</time>
      </trkpt>
      <trkpt lat="59.9740005" lon="17.7233753">
        <ele>28.4962</ele>
        <time>2013-04-15T18:57:34Z</time>
      </trkpt>
      <trkpt lat="59.9739927" lon="17.7233346">
        <ele>28.4962</ele>
        <time>2013-04-15T18:57:35Z</time>
      </trkpt>
      <trkpt lat="59.9739844" lon="17.7232903">
        <ele>28.4962</ele>
        <time>2013-04-15T18:57:36Z</time>
      </trkpt>
      <trkpt lat="59.973977" lon="17.7232519">
        <ele>28.4962</ele>
        <time>2013-04-15T18:57:37Z</time>
      </trkpt>
      <trkpt lat="59.9739684" lon="17.7232124">
        <ele>28.0155</ele>
        <time>2013-04-15T18:57:38Z</time>
      </trkpt>
      <trkpt lat="59.9739593" lon="17.7231678">
        <ele>28.4962</ele>
        <time>2013-04-15T18:57:39Z</time>
      </trkpt>
      <trkpt lat="59.9739511" lon="17.7231287">
        <ele>28.0155</ele>
        <time>2013-04-15T18:57:40Z</time>
      </trkpt>
      <trkpt lat="59.9739434" lon="17.7230914">
        <ele>28.0155</ele>
        <time>2013-04-15T18:57:41Z</time>
      </trkpt>
      <trkpt lat="59.9739348" lon="17.7230487">
        <ele>28.0155</ele>
        <time>2013-04-15T18:57:42Z</time>
      </trkpt>
      <trkpt lat="59.9739263" lon="17.7230089">
        <ele>28.0155</ele>
        <time>2013-04-15T18:57:43Z</time>
      </trkpt>
      <trkpt lat="59.9739163" lon="17.7229663">
        <ele>28.0155</ele>
        <time>2013-04-15T18:57:44Z</time>
      </trkpt>
      <trkpt lat="59.9739056" lon="17.7229189">
        <ele>28.0155</ele>
        <time>2013-04-15T18:57:45Z</time>
      </trkpt>
      <trkpt lat="59.9738934" lon="17.7228754">
        <ele>28.0155</ele>
        <time>2013-04-15T18:57:46Z</time>
      </trkpt>
      <trkpt lat="59.9738822" lon="17.7228322">
        <ele>28.0155</ele>
        <time>2013-04-15T18:57:47Z</time>
      </trkpt>
      <trkpt lat="59.9738718" lon="17.7227872">
        <ele>28.0155</ele>
        <time>2013-04-15T18:57:48Z</time>
      </trkpt>
      <trkpt lat="59.9738605" lon="17.7227477">
        <ele>28.0155</ele>
        <time>2013-04-15T18:57:49Z</time>
      </trkpt>
      <trkpt lat="59.9738483" lon="17.7227073">
        <ele>28.0155</ele>
        <time>2013-04-15T18:57:50Z</time>
      </trkpt>
      <trkpt lat="59.9738361" lon="17.7226639">
        <ele>28.0155</ele>
        <time>2013-04-15T18:57:51Z</time>
      </trkpt>
      <trkpt lat="59.9738233" lon="17.7226231">
        <ele>28.0155</ele>
        <time>2013-04-15T18:57:52Z</time>
      </trkpt>
      <trkpt lat="59.9738113" lon="17.7225817">
        <ele>28.0155</ele>
        <time>2013-04-15T18:57:53Z</time>
      </trkpt>
      <trkpt lat="59.9737994" lon="17.7225385">
        <ele>28.0155</ele>
        <time>2013-04-15T18:57:54Z</time>
      </trkpt>
      <trkpt lat="59.9737865" lon="17.7224982">
        <ele>28.0155</ele>
        <time>2013-04-15T18:57:55Z</time>
      </trkpt>
      <trkpt lat="59.9737731" lon="17.7224567">
        <ele>28.0155</ele>
        <time>2013-04-15T18:57:56Z</time>
      </trkpt>
      <trkpt lat="59.9737606" lon="17.7224117">
        <ele>28.4962</ele>
        <time>2013-04-15T18:57:57Z</time>
      </trkpt>
      <trkpt lat="59.9737478" lon="17.7223707">
        <ele>28.4962</ele>
        <time>2013-04-15T18:57:58Z</time>
      </trkpt>
      <trkpt lat="59.9737309" lon="17.7223278">
        <ele>28.4962</ele>
        <time>2013-04-15T18:57:59Z</time>
      </trkpt>
      <trkpt lat="59.9737148" lon="17.7222823">
        <ele>28.4962</ele>
        <time>2013-04-15T18:58:00Z</time>
      </trkpt>
      <trkpt lat="59.9736969" lon="17.7222419">
        <ele>28.4962</ele>
        <time>2013-04-15T18:58:01Z</time>
      </trkpt>
      <trkpt lat="59.9736786" lon="17.7221963">
        <ele>28.4962</ele>
        <time>2013-04-15T18:58:02Z</time>
      </trkpt>
      <trkpt lat="59.9736637" lon="17.7221512">
        <ele>28.4962</ele>
        <time>2013-04-15T18:58:03Z</time>
      </trkpt>
      <trkpt lat="59.9736522" lon="17.7221139">
        <ele>28.9769</ele>
        <time>2013-04-15T18:58:04Z</time>
      </trkpt>
      <trkpt lat="59.9736367" lon="17.7220756">
        <ele>28.4962</ele>
        <time>2013-04-15T18:58:05Z</time>
      </trkpt>
      <trkpt lat="59.9736227" lon="17.7220353">
        <ele>28.4962</ele>
        <time>2013-04-15T18:58:06Z</time>
      </trkpt>
      <trkpt lat="59.9736092" lon="17.721998">
        <ele>28.9769</ele>
        <time>2013-04-15T18:58:07Z</time>
      </trkpt>
      <trkpt lat="59.9735938" lon="17.7219568">
        <ele>28.4962</ele>
        <time>2013-04-15T18:58:08Z</time>
      </trkpt>
      <trkpt lat="59.9735755" lon="17.7219114">
        <ele>28.4962</ele>
        <time>2013-04-15T18:58:09Z</time>
      </trkpt>
      <trkpt lat="59.9735565" lon="17.7218714">
        <ele>28.4962</ele>
        <time>2013-04-15T18:58:10Z</time>
      </trkpt>
      <trkpt lat="59.9735361" lon="17.7218305">
        <ele>28.4962</ele>
        <time>2013-04-15T18:58:11Z</time>
      </trkpt>
      <trkpt lat="59.9735182" lon="17.7217889">
        <ele>28.9769</ele>
        <time>2013-04-15T18:58:12Z</time>
      </trkpt>
      <trkpt lat="59.973499" lon="17.7217532">
        <ele>28.4962</ele>
        <time>2013-04-15T18:58:13Z</time>
      </trkpt>
      <trkpt lat="59.9734742" lon="17.721712">
        <ele>28.4962</ele>
        <time>2013-04-15T18:58:14Z</time>
      </trkpt>
      <trkpt lat="59.9734653" lon="17.7216777">
        <ele>28.4962</ele>
        <time>2013-04-15T18:58:15Z</time>
      </trkpt>
      <trkpt lat="59.9734545" lon="17.7216481">
        <ele>28.9769</ele>
        <time>2013-04-15T18:58:16Z</time>
      </trkpt>
      <trkpt lat="59.9734395" lon="17.7216105">
        <ele>28.9769</ele>
        <time>2013-04-15T18:58:17Z</time>
      </trkpt>
      <trkpt lat="59.9734322" lon="17.7215747">
        <ele>29.4575</ele>
        <time>2013-04-15T18:58:18Z</time>
      </trkpt>
      <trkpt lat="59.9734213" lon="17.721546">
        <ele>29.4575</ele>
        <time>2013-04-15T18:58:19Z</time>
      </trkpt>
      <trkpt lat="59.9734026" lon="17.721509">
        <ele>29.4575</ele>
        <time>2013-04-15T18:58:20Z</time>
      </trkpt>
      <trkpt lat="59.9733808" lon="17.721468">
        <ele>29.4575</ele>
        <time>2013-04-15T18:58:21Z</time>
      </trkpt>
      <trkpt lat="59.9733658" lon="17.7214302">
        <ele>29.4575</ele>
        <time>2013-04-15T18:58:22Z</time>
      </trkpt>
      <trkpt lat="59.9733492" lon="17.7213923">
        <ele>29.9381</ele>
        <time>2013-04-15T18:58:23Z</time>
      </trkpt>
      <trkpt lat="59.9733313" lon="17.7213555">
        <ele>29.9381</ele>
        <time>2013-04-15T18:58:24Z</time>
      </trkpt>
      <trkpt lat="59.9733085" lon="17.7213163">
        <ele>29.9381</ele>
        <time>2013-04-15T18:58:25Z</time>
      </trkpt>
      <trkpt lat="59.9732872" lon="17.7212784">
        <ele>30.4188</ele>
        <time>2013-04-15T18:58:26Z</time>
      </trkpt>
      <trkpt lat="59.9732664" lon="17.7212453">
        <ele>29.9381</ele>
        <time>2013-04-15T18:58:27Z</time>
      </trkpt>
      <trkpt lat="59.9732374" lon="17.7212078">
        <ele>29.9381</ele>
        <time>2013-04-15T18:58:28Z</time>
      </trkpt>
      <trkpt lat="59.9732172" lon="17.7211721">
        <ele>29.9381</ele>
        <time>2013-04-15T18:58:29Z</time>
      </trkpt>
      <trkpt lat="59.9731968" lon="17.7211395">
        <ele>29.9381</ele>
        <time>2013-04-15T18:58:30Z</time>
      </trkpt>
      <trkpt lat="59.9731744" lon="17.7211047">
        <ele>29.9381</ele>
        <time>2013-04-15T18:58:31Z</time>
      </trkpt>
      <trkpt lat="59.9731565" lon="17.7210694">
        <ele>29.9381</ele>
        <time>2013-04-15T18:58:32Z</time>
      </trkpt>
      <trkpt lat="59.9731386" lon="17.721038">
        <ele>29.9381</ele>
        <time>2013-04-15T18:58:33Z</time>
      </trkpt>
      <trkpt lat="59.9731203" lon="17.7210099">
        <ele>29.9381</ele>
        <time>2013-04-15T18:58:34Z</time>
      </trkpt>
      <trkpt lat="59.9731048" lon="17.72098">
        <ele>29.9381</ele>
        <time>2013-04-15T18:58:35Z</time>
      </trkpt>
      <trkpt lat="59.9730867" lon="17.7209493">
        <ele>29.9381</ele>
        <time>2013-04-15T18:58:36Z</time>
      </trkpt>
      <trkpt lat="59.9730664" lon="17.7209181">
        <ele>29.9381</ele>
        <time>2013-04-15T18:58:37Z</time>
      </trkpt>
      <trkpt lat="59.9730484" lon="17.7208866">
        <ele>29.9381</ele>
        <time>2013-04-15T18:58:38Z</time>
      </trkpt>
      <trkpt lat="59.9730292" lon="17.7208593">
        <ele>29.9381</ele>
        <time>2013-04-15T18:58:39Z</time>
      </trkpt>
      <trkpt lat="59.9730099" lon="17.7208308">
        <ele>30.4188</ele>
        <time>2013-04-15T18:58:40Z</time>
      </trkpt>
      <trkpt lat="59.9729934" lon="17.7208044">
        <ele>29.9381</ele>
        <time>2013-04-15T18:58:41Z</time>
      </trkpt>
      <trkpt lat="59.9729772" lon="17.7207809">
        <ele>29.9381</ele>
        <time>2013-04-15T18:58:42Z</time>
      </trkpt>
      <trkpt lat="59.9729599" lon="17.7207532">
        <ele>30.4188</ele>
        <time>2013-04-15T18:58:43Z</time>
      </trkpt>
      <trkpt lat="59.9729387" lon="17.720724">
        <ele>30.4188</ele>
        <time>2013-04-15T18:58:44Z</time>
      </trkpt>
      <trkpt lat="59.972919" lon="17.7206964">
        <ele>30.4188</ele>
        <time>2013-04-15T18:58:45Z</time>
      </trkpt>
      <trkpt lat="59.9728979" lon="17.7206672">
        <ele>30.4188</ele>
        <time>2013-04-15T18:58:46Z</time>
      </trkpt>
      <trkpt lat="59.9728764" lon="17.7206408">
        <ele>29.9381</ele>
        <time>2013-04-15T18:58:47Z</time>
      </trkpt>
      <trkpt lat="59.9728565" lon="17.7206121">
        <ele>29.9381</ele>
        <time>2013-04-15T18:58:48Z</time>
      </trkpt>
      <trkpt lat="59.9728369" lon="17.7205837">
        <ele>29.9381</ele>
        <time>2013-04-15T18:58:49Z</time>
      </trkpt>
      <trkpt lat="59.9728179" lon="17.7205618">
        <ele>29.9381</ele>
        <time>2013-04-15T18:58:50Z</time>
      </trkpt>
      <trkpt lat="59.9727966" lon="17.7205376">
        <ele>29.9381</ele>
        <time>2013-04-15T18:58:51Z</time>
      </trkpt>
      <trkpt lat="59.9727729" lon="17.7205123">
        <ele>29.9381</ele>
        <time>2013-04-15T18:58:52Z</time>
      </trkpt>
      <trkpt lat="59.9727516" lon="17.720491">
        <ele>29.9381</ele>
        <time>2013-04-15T18:58:53Z</time>
      </trkpt>
      <trkpt lat="59.9727308" lon="17.7204666">
        <ele>29.9381</ele>
        <time>2013-04-15T18:58:54Z</time>
      </trkpt>
      <trkpt lat="59.9727194" lon="17.720448">
        <ele>30.4188</ele>
        <time>2013-04-15T18:58:55Z</time>
      </trkpt>
      <trkpt lat="59.9727037" lon="17.7204269">
        <ele>30.4188</ele>
        <time>2013-04-15T18:58:56Z</time>
      </trkpt>
      <trkpt lat="59.9726902" lon="17.720408">
        <ele>30.4188</ele>
        <time>2013-04-15T18:58:57Z</time>
      </trkpt>
      <trkpt lat="59.9726737" lon="17.7203882">
        <ele>30.4188</ele>
        <time>2013-04-15T18:58:58Z</time>
      </trkpt>
      <trkpt lat="59.9726538" lon="17.7203703">
        <ele>30.4188</ele>
        <time>2013-04-15T18:58:59Z</time>
      </trkpt>
      <trkpt lat="59.9726376" lon="17.720352">
        <ele>30.4188</ele>
        <time>2013-04-15T18:59:00Z</time>
      </trkpt>
      <trkpt lat="59.9726216" lon="17.720334">
        <ele>30.4188</ele>
        <time>2013-04-15T18:59:01Z</time>
      </trkpt>
      <trkpt lat="59.9726029" lon="17.7203169">
        <ele>30.8995</ele>
        <time>2013-04-15T18:59:02Z</time>
      </trkpt>
      <trkpt lat="59.9725846" lon="17.7202977">
        <ele>30.8995</ele>
        <time>2013-04-15T18:59:03Z</time>
      </trkpt>
      <trkpt lat="59.972564" lon="17.7202816">
        <ele>30.8995</ele>
        <time>2013-04-15T18:59:04Z</time>
      </trkpt>
      <trkpt lat="59.9725407" lon="17.7202654">
        <ele>30.8995</ele>
        <time>2013-04-15T18:59:05Z</time>
      </trkpt>
      <trkpt lat="59.9725195" lon="17.7202461">
        <ele>30.8995</ele>
        <time>2013-04-15T18:59:06Z</time>
      </trkpt>
      <trkpt lat="59.9724992" lon="17.7202278">
        <ele>30.8995</ele>
        <time>2013-04-15T18:59:07Z</time>
      </trkpt>
      <trkpt lat="59.972478" lon="17.72021">
        <ele>30.8995</ele>
        <time>2013-04-15T18:59:08Z</time>
      </trkpt>
      <trkpt lat="59.9724615" lon="17.7201916">
        <ele>30.8995</ele>
        <time>2013-04-15T18:59:09Z</time>
      </trkpt>
      <trkpt lat="59.9724413" lon="17.7201717">
        <ele>30.8995</ele>
        <time>2013-04-15T18:59:10Z</time>
      </trkpt>
      <trkpt lat="59.97242" lon="17.7201511">
        <ele>30.8995</ele>
        <time>2013-04-15T18:59:11Z</time>
      </trkpt>
      <trkpt lat="59.9723966" lon="17.7201287">
        <ele>30.8995</ele>
        <time>2013-04-15T18:59:12Z</time>
      </trkpt>
      <trkpt lat="59.9723744" lon="17.7201109">
        <ele>31.3801</ele>
        <time>2013-04-15T18:59:13Z</time>
      </trkpt>
      <trkpt lat="59.9723553" lon="17.7200927">
        <ele>31.3801</ele>
        <time>2013-04-15T18:59:14Z</time>
      </trkpt>
      <trkpt lat="59.9723366" lon="17.7200736">
        <ele>31.3801</ele>
        <time>2013-04-15T18:59:15Z</time>
      </trkpt>
      <trkpt lat="59.9723134" lon="17.7200533">
        <ele>31.3801</ele>
        <time>2013-04-15T18:59:16Z</time>
      </trkpt>
      <trkpt lat="59.9722925" lon="17.720032">
        <ele>31.3801</ele>
        <time>2013-04-15T18:59:17Z</time>
      </trkpt>
      <trkpt lat="59.9722743" lon="17.7200118">
        <ele>31.3801</ele>
        <time>2013-04-15T18:59:18Z</time>
      </trkpt>
      <trkpt lat="59.9722542" lon="17.7199937">
        <ele>31.3801</ele>
        <time>2013-04-15T18:59:19Z</time>
      </trkpt>
      <trkpt lat="59.972233" lon="17.719975">
        <ele>31.3801</ele>
        <time>2013-04-15T18:59:20Z</time>
      </trkpt>
      <trkpt lat="59.9722065" lon="17.7199537">
        <ele>31.3801</ele>
        <time>2013-04-15T18:59:21Z</time>
      </trkpt>
      <trkpt lat="59.9721839" lon="17.7199388">
        <ele>31.8607</ele>
        <time>2013-04-15T18:59:22Z</time>
      </trkpt>
      <trkpt lat="59.972166" lon="17.7199218">
        <ele>31.8607</ele>
        <time>2013-04-15T18:59:23Z</time>
      </trkpt>
      <trkpt lat="59.972145" lon="17.7199004">
        <ele>31.8607</ele>
        <time>2013-04-15T18:59:24Z</time>
      </trkpt>
      <trkpt lat="59.9721223" lon="17.7198829">
        <ele>31.8607</ele>
        <time>2013-04-15T18:59:25Z</time>
      </trkpt>
      <trkpt lat="59.9721" lon="17.7198636">
        <ele>32.3416</ele>
        <time>2013-04-15T18:59:26Z</time>
      </trkpt>
      <trkpt lat="59.972079" lon="17.7198424">
        <ele>32.3416</ele>
        <time>2013-04-15T18:59:27Z</time>
      </trkpt>
      <trkpt lat="59.9720563" lon="17.7198231">
        <ele>32.3416</ele>
        <time>2013-04-15T18:59:28Z</time>
      </trkpt>
      <trkpt lat="59.9720306" lon="17.7197974">
        <ele>32.3416</ele>
        <time>2013-04-15T18:59:29Z</time>
      </trkpt>
      <trkpt lat="59.9720088" lon="17.7197755">
        <ele>32.3416</ele>
        <time>2013-04-15T18:59:30Z</time>
      </trkpt>
      <trkpt lat="59.9719912" lon="17.7197616">
        <ele>32.3416</ele>
        <time>2013-04-15T18:59:31Z</time>
      </trkpt>
      <trkpt lat="59.9719738" lon="17.7197456">
        <ele>32.3416</ele>
        <time>2013-04-15T18:59:32Z</time>
      </trkpt>
      <trkpt lat="59.9719569" lon="17.7197296">
        <ele>32.3416</ele>
        <time>2013-04-15T18:59:33Z</time>
      </trkpt>
      <trkpt lat="59.9719372" lon="17.719714">
        <ele>32.3416</ele>
        <time>2013-04-15T18:59:34Z</time>
      </trkpt>
      <trkpt lat="59.9719203" lon="17.7196987">
        <ele>32.3416</ele>
        <time>2013-04-15T18:59:35Z</time>
      </trkpt>
      <trkpt lat="59.9719067" lon="17.719682">
        <ele>32.3416</ele>
        <time>2013-04-15T18:59:36Z</time>
      </trkpt>
      <trkpt lat="59.9718878" lon="17.7196646">
        <ele>32.3416</ele>
        <time>2013-04-15T18:59:37Z</time>
      </trkpt>
      <trkpt lat="59.9718667" lon="17.7196469">
        <ele>32.3416</ele>
        <time>2013-04-15T18:59:38Z</time>
      </trkpt>
      <trkpt lat="59.9718462" lon="17.7196268">
        <ele>32.8223</ele>
        <time>2013-04-15T18:59:39Z</time>
      </trkpt>
      <trkpt lat="59.9718274" lon="17.7196078">
        <ele>32.8223</ele>
        <time>2013-04-15T18:59:40Z</time>
      </trkpt>
      <trkpt lat="59.971808" lon="17.7195865">
        <ele>32.8223</ele>
        <time>2013-04-15T18:59:41Z</time>
      </trkpt>
      <trkpt lat="59.9717875" lon="17.7195637">
        <ele>32.3416</ele>
        <time>2013-04-15T18:59:42Z</time>
      </trkpt>
      <trkpt lat="59.9717698" lon="17.7195491">
        <ele>32.8223</ele>
        <time>2013-04-15T18:59:43Z</time>
      </trkpt>
      <trkpt lat="59.97175" lon="17.7195346">
        <ele>32.8223</ele>
        <time>2013-04-15T18:59:44Z</time>
      </trkpt>
      <trkpt lat="59.9717316" lon="17.7195166">
        <ele>32.8223</ele>
        <time>2013-04-15T18:59:45Z</time>
      </trkpt>
      <trkpt lat="59.9717117" lon="17.7194999">
        <ele>32.8223</ele>
        <time>2013-04-15T18:59:46Z</time>
      </trkpt>
      <trkpt lat="59.9716901" lon="17.7194813">
        <ele>32.8223</ele>
        <time>2013-04-15T18:59:47Z</time>
      </trkpt>
      <trkpt lat="59.971668" lon="17.719458">
        <ele>32.8223</ele>
        <time>2013-04-15T18:59:48Z</time>
      </trkpt>
      <trkpt lat="59.9716501" lon="17.7194415">
        <ele>32.8223</ele>
        <time>2013-04-15T18:59:49Z</time>
      </trkpt>
      <trkpt lat="59.9716324" lon="17.7194273">
        <ele>33.3029</ele>
        <time>2013-04-15T18:59:50Z</time>
      </trkpt>
      <trkpt lat="59.971612" lon="17.7194058">
        <ele>33.3029</ele>
        <time>2013-04-15T18:59:51Z</time>
      </trkpt>
      <trkpt lat="59.9715902" lon="17.7193859">
        <ele>33.3029</ele>
        <time>2013-04-15T18:59:52Z</time>
      </trkpt>
      <trkpt lat="59.971567" lon="17.7193703">
        <ele>33.3029</ele>
        <time>2013-04-15T18:59:53Z</time>
      </trkpt>
      <trkpt lat="59.9715449" lon="17.7193511">
        <ele>33.3029</ele>
        <time>2013-04-15T18:59:54Z</time>
      </trkpt>
      <trkpt lat="59.9715247" lon="17.7193351">
        <ele>33.3029</ele>
        <time>2013-04-15T18:59:55Z</time>
      </trkpt>
      <trkpt lat="59.971509" lon="17.7193213">
        <ele>33.3029</ele>
        <time>2013-04-15T18:59:56Z</time>
      </trkpt>
      <trkpt lat="59.9714941" lon="17.7193047">
        <ele>33.7834</ele>
        <time>2013-04-15T18:59:57Z</time>
      </trkpt>
      <trkpt lat="59.9714783" lon="17.7192882">
        <ele>33.7834</ele>
        <time>2013-04-15T18:59:58Z</time>
      </trkpt>
      <trkpt lat="59.9714628" lon="17.7192742">
        <ele>34.2642</ele>
        <time>2013-04-15T18:59:59Z</time>
      </trkpt>
      <trkpt lat="59.9714425" lon="17.7192551">
        <ele>33.7834</ele>
        <time>2013-04-15T19:00:00Z</time>
      </trkpt>
      <trkpt lat="59.971418" lon="17.7192333">
        <ele>34.2642</ele>
        <time>2013-04-15T19:00:01Z</time>
      </trkpt>
      <trkpt lat="59.971394" lon="17.7192129">
        <ele>34.2642</ele>
        <time>2013-04-15T19:00:02Z</time>
      </trkpt>
      <trkpt lat="59.9713743" lon="17.7191917">
        <ele>34.2642</ele>
        <time>2013-04-15T19:00:03Z</time>
      </trkpt>
      <trkpt lat="59.971356" lon="17.7191732">
        <ele>34.7449</ele>
        <time>2013-04-15T19:00:04Z</time>
      </trkpt>
      <trkpt lat="59.9713336" lon="17.7191549">
        <ele>35.2255</ele>
        <time>2013-04-15T19:00:05Z</time>
      </trkpt>
      <trkpt lat="59.971312" lon="17.7191382">
        <ele>35.7061</ele>
        <time>2013-04-15T19:00:06Z</time>
      </trkpt>
      <trkpt lat="59.971285" lon="17.7191193">
        <ele>35.7061</ele>
        <time>2013-04-15T19:00:07Z</time>
      </trkpt>
      <trkpt lat="59.9712606" lon="17.7190981">
        <ele>36.1868</ele>
        <time>2013-04-15T19:00:08Z</time>
      </trkpt>
      <trkpt lat="59.9712393" lon="17.7190784">
        <ele>36.1868</ele>
        <time>2013-04-15T19:00:09Z</time>
      </trkpt>
      <trkpt lat="59.9712151" lon="17.7190586">
        <ele>36.1868</ele>
        <time>2013-04-15T19:00:10Z</time>
      </trkpt>
      <trkpt lat="59.9711923" lon="17.7190398">
        <ele>36.1868</ele>
        <time>2013-04-15T19:00:11Z</time>
      </trkpt>
      <trkpt lat="59.9711714" lon="17.7190256">
        <ele>36.1868</ele>
        <time>2013-04-15T19:00:12Z</time>
      </trkpt>
      <trkpt lat="59.9711474" lon="17.7190103">
        <ele>36.1868</ele>
        <time>2013-04-15T19:00:13Z</time>
      </trkpt>
      <trkpt lat="59.9711261" lon="17.7189919">
        <ele>36.1868</ele>
        <time>2013-04-15T19:00:14Z</time>
      </trkpt>
      <trkpt lat="59.9711015" lon="17.7189731">
        <ele>36.1868</ele>
        <time>2013-04-15T19:00:15Z</time>
      </trkpt>
      <trkpt lat="59.9710747" lon="17.7189538">
        <ele>36.1868</ele>
        <time>2013-04-15T19:00:16Z</time>
      </trkpt>
      <trkpt lat="59.9710515" lon="17.7189352">
        <ele>36.1868</ele>
        <time>2013-04-15T19:00:17Z</time>
      </trkpt>
      <trkpt lat="59.9710284" lon="17.7189145">
        <ele>36.1868</ele>
        <time>2013-04-15T19:00:18Z</time>
      </trkpt>
      <trkpt lat="59.9710028" lon="17.7188924">
        <ele>36.1868</ele>
        <time>2013-04-15T19:00:19Z</time>
      </trkpt>
      <trkpt lat="59.9709783" lon="17.7188678">
        <ele>36.1868</ele>
        <time>2013-04-15T19:00:20Z</time>
      </trkpt>
      <trkpt lat="59.9709556" lon="17.7188463">
        <ele>36.1868</ele>
        <time>2013-04-15T19:00:21Z</time>
      </trkpt>
      <trkpt lat="59.9709391" lon="17.7188334">
        <ele>36.6675</ele>
        <time>2013-04-15T19:00:22Z</time>
      </trkpt>
      <trkpt lat="59.970936" lon="17.7188256">
        <ele>36.6675</ele>
        <time>2013-04-15T19:00:23Z</time>
      </trkpt>
      <trkpt lat="59.9709151" lon="17.7188079">
        <ele>37.1481</ele>
        <time>2013-04-15T19:00:24Z</time>
      </trkpt>
      <trkpt lat="59.9708893" lon="17.7187862">
        <ele>38.1094</ele>
        <time>2013-04-15T19:00:25Z</time>
      </trkpt>
      <trkpt lat="59.9708684" lon="17.7187619">
        <ele>38.1094</ele>
        <time>2013-04-15T19:00:26Z</time>
      </trkpt>
      <trkpt lat="59.9708463" lon="17.7187391">
        <ele>38.1094</ele>
        <time>2013-04-15T19:00:27Z</time>
      </trkpt>
      <trkpt lat="59.9708208" lon="17.7187168">
        <ele>38.1094</ele>
        <time>2013-04-15T19:00:28Z</time>
      </trkpt>
      <trkpt lat="59.9707957" lon="17.7186919">
        <ele>38.1094</ele>
        <time>2013-04-15T19:00:29Z</time>
      </trkpt>
      <trkpt lat="59.9707743" lon="17.718669">
        <ele>38.5901</ele>
        <time>2013-04-15T19:00:30Z</time>
      </trkpt>
      <trkpt lat="59.9707487" lon="17.7186459">
        <ele>38.5901</ele>
        <time>2013-04-15T19:00:31Z</time>
      </trkpt>
      <trkpt lat="59.9707202" lon="17.7186204">
        <ele>38.1094</ele>
        <time>2013-04-15T19:00:32Z</time>
      </trkpt>
      <trkpt lat="59.9706995" lon="17.7185957">
        <ele>38.5901</ele>
        <time>2013-04-15T19:00:33Z</time>
      </trkpt>
      <trkpt lat="59.9706753" lon="17.7185724">
        <ele>38.1094</ele>
        <time>2013-04-15T19:00:34Z</time>
      </trkpt>
      <trkpt lat="59.9706546" lon="17.7185544">
        <ele>38.1094</ele>
        <time>2013-04-15T19:00:35Z</time>
      </trkpt>
      <trkpt lat="59.9706324" lon="17.7185365">
        <ele>38.1094</ele>
        <time>2013-04-15T19:00:36Z</time>
      </trkpt>
      <trkpt lat="59.9706091" lon="17.7185166">
        <ele>38.1094</ele>
        <time>2013-04-15T19:00:37Z</time>
      </trkpt>
      <trkpt lat="59.9705806" lon="17.718495">
        <ele>38.1094</ele>
        <time>2013-04-15T19:00:38Z</time>
      </trkpt>
      <trkpt lat="59.9705556" lon="17.7184738">
        <ele>38.1094</ele>
        <time>2013-04-15T19:00:39Z</time>
      </trkpt>
      <trkpt lat="59.9705328" lon="17.7184511">
        <ele>38.1094</ele>
        <time>2013-04-15T19:00:40Z</time>
      </trkpt>
      <trkpt lat="59.9705108" lon="17.7184318">
        <ele>38.1094</ele>
        <time>2013-04-15T19:00:41Z</time>
      </trkpt>
      <trkpt lat="59.9704899" lon="17.7184122">
        <ele>38.1094</ele>
        <time>2013-04-15T19:00:42Z</time>
      </trkpt>
      <trkpt lat="59.9704755" lon="17.7183925">
        <ele>38.5901</ele>
        <time>2013-04-15T19:00:43Z</time>
      </trkpt>
      <trkpt lat="59.9704563" lon="17.718375">
        <ele>38.5901</ele>
        <time>2013-04-15T19:00:44Z</time>
      </trkpt>
      <trkpt lat="59.9704392" lon="17.7183546">
        <ele>39.0707</ele>
        <time>2013-04-15T19:00:45Z</time>
      </trkpt>
      <trkpt lat="59.9704278" lon="17.7183354">
        <ele>39.0707</ele>
        <time>2013-04-15T19:00:46Z</time>
      </trkpt>
      <trkpt lat="59.9704015" lon="17.7183149">
        <ele>39.0707</ele>
        <time>2013-04-15T19:00:47Z</time>
      </trkpt>
      <trkpt lat="59.9703734" lon="17.7182914">
        <ele>39.0707</ele>
        <time>2013-04-15T19:00:48Z</time>
      </trkpt>
      <trkpt lat="59.970352" lon="17.7182706">
        <ele>39.0707</ele>
        <time>2013-04-15T19:00:49Z</time>
      </trkpt>
      <trkpt lat="59.9703334" lon="17.7182512">
        <ele>39.5513</ele>
        <time>2013-04-15T19:00:50Z</time>
      </trkpt>
      <trkpt lat="59.9703107" lon="17.7182325">
        <ele>39.0707</ele>
        <time>2013-04-15T19:00:51Z</time>
      </trkpt>
      <trkpt lat="59.9702884" lon="17.7182167">
        <ele>39.0707</ele>
        <time>2013-04-15T19:00:52Z</time>
      </trkpt>
      <trkpt lat="59.9702661" lon="17.7181986">
        <ele>38.5901</ele>
        <time>2013-04-15T19:00:53Z</time>
      </trkpt>
      <trkpt lat="59.9702476" lon="17.7181779">
        <ele>39.0707</ele>
        <time>2013-04-15T19:00:54Z</time>
      </trkpt>
      <trkpt lat="59.9702263" lon="17.7181598">
        <ele>39.0707</ele>
        <time>2013-04-15T19:00:55Z</time>
      </trkpt>
      <trkpt lat="59.9702045" lon="17.7181413">
        <ele>39.0707</ele>
        <time>2013-04-15T19:00:56Z</time>
      </trkpt>
      <trkpt lat="59.9701833" lon="17.718119">
        <ele>39.5513</ele>
        <time>2013-04-15T19:00:57Z</time>
      </trkpt>
      <trkpt lat="59.9701594" lon="17.7180991">
        <ele>39.5513</ele>
        <time>2013-04-15T19:00:58Z</time>
      </trkpt>
      <trkpt lat="59.9701369" lon="17.7180782">
        <ele>39.5513</ele>
        <time>2013-04-15T19:00:59Z</time>
      </trkpt>
      <trkpt lat="59.9701142" lon="17.7180574">
        <ele>39.5513</ele>
        <time>2013-04-15T19:01:00Z</time>
      </trkpt>
      <trkpt lat="59.9700929" lon="17.718039">
        <ele>39.5513</ele>
        <time>2013-04-15T19:01:01Z</time>
      </trkpt>
      <trkpt lat="59.9700699" lon="17.718017">
        <ele>39.5513</ele>
        <time>2013-04-15T19:01:02Z</time>
      </trkpt>
      <trkpt lat="59.9700487" lon="17.7179972">
        <ele>39.5513</ele>
        <time>2013-04-15T19:01:03Z</time>
      </trkpt>
      <trkpt lat="59.9700261" lon="17.7179797">
        <ele>39.5513</ele>
        <time>2013-04-15T19:01:04Z</time>
      </trkpt>
      <trkpt lat="59.9700056" lon="17.7179608">
        <ele>39.5513</ele>
        <time>2013-04-15T19:01:05Z</time>
      </trkpt>
      <trkpt lat="59.9699857" lon="17.7179433">
        <ele>39.5513</ele>
        <time>2013-04-15T19:01:06Z</time>
      </trkpt>
      <trkpt lat="59.9699647" lon="17.7179254">
        <ele>39.5513</ele>
        <time>2013-04-15T19:01:07Z</time>
      </trkpt>
      <trkpt lat="59.9699443" lon="17.7179051">
        <ele>39.5513</ele>
        <time>2013-04-15T19:01:08Z</time>
      </trkpt>
      <trkpt lat="59.9699266" lon="17.7178886">
        <ele>39.5513</ele>
        <time>2013-04-15T19:01:09Z</time>
      </trkpt>
      <trkpt lat="59.9699086" lon="17.7178723">
        <ele>39.5513</ele>
        <time>2013-04-15T19:01:10Z</time>
      </trkpt>
      <trkpt lat="59.9698826" lon="17.7178507">
        <ele>39.5513</ele>
        <time>2013-04-15T19:01:11Z</time>
      </trkpt>
      <trkpt lat="59.9698553" lon="17.7178308">
        <ele>39.5513</ele>
        <time>2013-04-15T19:01:12Z</time>
      </trkpt>
      <trkpt lat="59.9698305" lon="17.7178108">
        <ele>39.5513</ele>
        <time>2013-04-15T19:01:13Z</time>
      </trkpt>
      <trkpt lat="59.9698094" lon="17.7177931">
        <ele>39.5513</ele>
        <time>2013-04-15T19:01:14Z</time>
      </trkpt>
      <trkpt lat="59.969788" lon="17.7177754">
        <ele>39.5513</ele>
        <time>2013-04-15T19:01:15Z</time>
      </trkpt>
      <trkpt lat="59.9697653" lon="17.7177558">
        <ele>39.5513</ele>
        <time>2013-04-15T19:01:16Z</time>
      </trkpt>
      <trkpt lat="59.9697475" lon="17.7177402">
        <ele>39.5513</ele>
        <time>2013-04-15T19:01:17Z</time>
      </trkpt>
      <trkpt lat="59.9697273" lon="17.7177248">
        <ele>39.5513</ele>
        <time>2013-04-15T19:01:18Z</time>
      </trkpt>
      <trkpt lat="59.9697023" lon="17.7177065">
        <ele>40.0321</ele>
        <time>2013-04-15T19:01:19Z</time>
      </trkpt>
      <trkpt lat="59.9696791" lon="17.7176887">
        <ele>40.0321</ele>
        <time>2013-04-15T19:01:20Z</time>
      </trkpt>
      <trkpt lat="59.9696537" lon="17.7176731">
        <ele>40.0321</ele>
        <time>2013-04-15T19:01:21Z</time>
      </trkpt>
      <trkpt lat="59.9696295" lon="17.7176563">
        <ele>40.0321</ele>
        <time>2013-04-15T19:01:22Z</time>
      </trkpt>
      <trkpt lat="59.9696075" lon="17.7176413">
        <ele>40.0321</ele>
        <time>2013-04-15T19:01:23Z</time>
      </trkpt>
      <trkpt lat="59.9695861" lon="17.7176279">
        <ele>40.0321</ele>
        <time>2013-04-15T19:01:24Z</time>
      </trkpt>
      <trkpt lat="59.9695647" lon="17.7176125">
        <ele>40.0321</ele>
        <time>2013-04-15T19:01:25Z</time>
      </trkpt>
      <trkpt lat="59.9695383" lon="17.7175966">
        <ele>40.0321</ele>
        <time>2013-04-15T19:01:26Z</time>
      </trkpt>
      <trkpt lat="59.9695114" lon="17.7175832">
        <ele>39.5513</ele>
        <time>2013-04-15T19:01:27Z</time>
      </trkpt>
      <trkpt lat="59.9694902" lon="17.71757">
        <ele>39.5513</ele>
        <time>2013-04-15T19:01:28Z</time>
      </trkpt>
      <trkpt lat="59.9694701" lon="17.7175575">
        <ele>39.5513</ele>
        <time>2013-04-15T19:01:29Z</time>
      </trkpt>
      <trkpt lat="59.9694464" lon="17.7175459">
        <ele>39.5513</ele>
        <time>2013-04-15T19:01:30Z</time>
      </trkpt>
      <trkpt lat="59.9694217" lon="17.717533">
        <ele>39.5513</ele>
        <time>2013-04-15T19:01:31Z</time>
      </trkpt>
      <trkpt lat="59.9693995" lon="17.7175232">
        <ele>39.5513</ele>
        <time>2013-04-15T19:01:32Z</time>
      </trkpt>
      <trkpt lat="59.9693766" lon="17.7175104">
        <ele>39.5513</ele>
        <time>2013-04-15T19:01:33Z</time>
      </trkpt>
      <trkpt lat="59.9693519" lon="17.7174965">
        <ele>39.5513</ele>
        <time>2013-04-15T19:01:34Z</time>
      </trkpt>
      <trkpt lat="59.969328" lon="17.7174877">
        <ele>40.0321</ele>
        <time>2013-04-15T19:01:35Z</time>
      </trkpt>
      <trkpt lat="59.9693048" lon="17.7174761">
        <ele>40.0321</ele>
        <time>2013-04-15T19:01:36Z</time>
      </trkpt>
      <trkpt lat="59.9692809" lon="17.7174667">
        <ele>40.0321</ele>
        <time>2013-04-15T19:01:37Z</time>
      </trkpt>
      <trkpt lat="59.9692556" lon="17.7174568">
        <ele>40.0321</ele>
        <time>2013-04-15T19:01:38Z</time>
      </trkpt>
      <trkpt lat="59.9692313" lon="17.717444">
        <ele>40.5128</ele>
        <time>2013-04-15T19:01:39Z</time>
      </trkpt>
      <trkpt lat="59.9692077" lon="17.7174363">
        <ele>40.5128</ele>
        <time>2013-04-15T19:01:40Z</time>
      </trkpt>
      <trkpt lat="59.9691844" lon="17.7174269">
        <ele>40.5128</ele>
        <time>2013-04-15T19:01:41Z</time>
      </trkpt>
      <trkpt lat="59.9691639" lon="17.7174107">
        <ele>40.5128</ele>
        <time>2013-04-15T19:01:42Z</time>
      </trkpt>
      <trkpt lat="59.9691444" lon="17.7173985">
        <ele>40.5128</ele>
        <time>2013-04-15T19:01:43Z</time>
      </trkpt>
      <trkpt lat="59.9691208" lon="17.7173933">
        <ele>40.5128</ele>
        <time>2013-04-15T19:01:44Z</time>
      </trkpt>
      <trkpt lat="59.9690939" lon="17.7173865">
        <ele>40.5128</ele>
        <time>2013-04-15T19:01:45Z</time>
      </trkpt>
      <trkpt lat="59.9690695" lon="17.7173817">
        <ele>40.5128</ele>
        <time>2013-04-15T19:01:46Z</time>
      </trkpt>
      <trkpt lat="59.9690461" lon="17.7173749">
        <ele>40.5128</ele>
        <time>2013-04-15T19:01:47Z</time>
      </trkpt>
      <trkpt lat="59.9690218" lon="17.7173668">
        <ele>40.5128</ele>
        <time>2013-04-15T19:01:48Z</time>
      </trkpt>
      <trkpt lat="59.9689855" lon="17.7172419">
        <ele>36.6675</ele>
        <time>2013-04-15T19:02:08Z</time>
      </trkpt>
      <trkpt lat="59.9689971" lon="17.7172456">
        <ele>36.1868</ele>
        <time>2013-04-15T19:02:09Z</time>
      </trkpt>
      <trkpt lat="59.9690079" lon="17.7172447">
        <ele>35.7061</ele>
        <time>2013-04-15T19:02:10Z</time>
      </trkpt>
      <trkpt lat="59.969024" lon="17.7172504">
        <ele>35.7061</ele>
        <time>2013-04-15T19:02:11Z</time>
      </trkpt>
      <trkpt lat="59.9690447" lon="17.7172653">
        <ele>35.2255</ele>
        <time>2013-04-15T19:02:12Z</time>
      </trkpt>
      <trkpt lat="59.9690647" lon="17.7172781">
        <ele>34.7449</ele>
        <time>2013-04-15T19:02:13Z</time>
      </trkpt>
      <trkpt lat="59.9690851" lon="17.7172871">
        <ele>34.2642</ele>
        <time>2013-04-15T19:02:14Z</time>
      </trkpt>
      <trkpt lat="59.9691089" lon="17.7172985">
        <ele>33.7834</ele>
        <time>2013-04-15T19:02:15Z</time>
      </trkpt>
      <trkpt lat="59.9691301" lon="17.7173057">
        <ele>33.7834</ele>
        <time>2013-04-15T19:02:16Z</time>
      </trkpt>
      <trkpt lat="59.9691493" lon="17.717312">
        <ele>33.3029</ele>
        <time>2013-04-15T19:02:17Z</time>
      </trkpt>
      <trkpt lat="59.9691709" lon="17.7173213">
        <ele>33.3029</ele>
        <time>2013-04-15T19:02:18Z</time>
      </trkpt>
      <trkpt lat="59.9691934" lon="17.7173316">
        <ele>33.3029</ele>
        <time>2013-04-15T19:02:19Z</time>
      </trkpt>
      <trkpt lat="59.9692141" lon="17.7173442">
        <ele>33.7834</ele>
        <time>2013-04-15T19:02:20Z</time>
      </trkpt>
      <trkpt lat="59.9692328" lon="17.7173575">
        <ele>33.3029</ele>
        <time>2013-04-15T19:02:21Z</time>
      </trkpt>
      <trkpt lat="59.9692524" lon="17.71737">
        <ele>32.8223</ele>
        <time>2013-04-15T19:02:22Z</time>
      </trkpt>
      <trkpt lat="59.9692736" lon="17.7173819">
        <ele>32.8223</ele>
        <time>2013-04-15T19:02:23Z</time>
      </trkpt>
      <trkpt lat="59.9692964" lon="17.7173928">
        <ele>32.8223</ele>
        <time>2013-04-15T19:02:24Z</time>
      </trkpt>
      <trkpt lat="59.9693176" lon="17.7174019">
        <ele>32.3416</ele>
        <time>2013-04-15T19:02:25Z</time>
      </trkpt>
      <trkpt lat="59.9693382" lon="17.7174164">
        <ele>32.8223</ele>
        <time>2013-04-15T19:02:26Z</time>
      </trkpt>
      <trkpt lat="59.9693587" lon="17.7174285">
        <ele>32.3416</ele>
        <time>2013-04-15T19:02:27Z</time>
      </trkpt>
      <trkpt lat="59.9693775" lon="17.7174361">
        <ele>31.8607</ele>
        <time>2013-04-15T19:02:28Z</time>
      </trkpt>
      <trkpt lat="59.969399" lon="17.7174528">
        <ele>31.8607</ele>
        <time>2013-04-15T19:02:29Z</time>
      </trkpt>
      <trkpt lat="59.9694231" lon="17.7174703">
        <ele>31.8607</ele>
        <time>2013-04-15T19:02:30Z</time>
      </trkpt>
      <trkpt lat="59.9694468" lon="17.7174814">
        <ele>31.8607</ele>
        <time>2013-04-15T19:02:31Z</time>
      </trkpt>
      <trkpt lat="59.9694684" lon="17.7175021">
        <ele>31.8607</ele>
        <time>2013-04-15T19:02:32Z</time>
      </trkpt>
      <trkpt lat="59.9694892" lon="17.7175249">
        <ele>31.8607</ele>
        <time>2013-04-15T19:02:33Z</time>
      </trkpt>
      <trkpt lat="59.9695165" lon="17.7175433">
        <ele>31.3801</ele>
        <time>2013-04-15T19:02:34Z</time>
      </trkpt>
      <trkpt lat="59.9695399" lon="17.717558">
        <ele>30.4188</ele>
        <time>2013-04-15T19:02:35Z</time>
      </trkpt>
      <trkpt lat="59.9695623" lon="17.7175733">
        <ele>29.9381</ele>
        <time>2013-04-15T19:02:36Z</time>
      </trkpt>
      <trkpt lat="59.9695835" lon="17.7175936">
        <ele>29.9381</ele>
        <time>2013-04-15T19:02:37Z</time>
      </trkpt>
      <trkpt lat="59.9696046" lon="17.7176065">
        <ele>29.4575</ele>
        <time>2013-04-15T19:02:38Z</time>
      </trkpt>
      <trkpt lat="59.9696288" lon="17.7176228">
        <ele>29.4575</ele>
        <time>2013-04-15T19:02:39Z</time>
      </trkpt>
      <trkpt lat="59.9696534" lon="17.7176435">
        <ele>28.4962</ele>
        <time>2013-04-15T19:02:40Z</time>
      </trkpt>
      <trkpt lat="59.9696783" lon="17.7176633">
        <ele>28.0155</ele>
        <time>2013-04-15T19:02:41Z</time>
      </trkpt>
      <trkpt lat="59.9696979" lon="17.7176788">
        <ele>27.5349</ele>
        <time>2013-04-15T19:02:42Z</time>
      </trkpt>
      <trkpt lat="59.9697182" lon="17.7176907">
        <ele>27.5349</ele>
        <time>2013-04-15T19:02:43Z</time>
      </trkpt>
      <trkpt lat="59.9697404" lon="17.7177035">
        <ele>27.5349</ele>
        <time>2013-04-15T19:02:44Z</time>
      </trkpt>
      <trkpt lat="59.9697648" lon="17.7177169">
        <ele>28.0155</ele>
        <time>2013-04-15T19:02:45Z</time>
      </trkpt>
      <trkpt lat="59.9697943" lon="17.7177268">
        <ele>27.5349</ele>
        <time>2013-04-15T19:02:46Z</time>
      </trkpt>
      <trkpt lat="59.9698252" lon="17.7177435">
        <ele>28.0155</ele>
        <time>2013-04-15T19:02:47Z</time>
      </trkpt>
      <trkpt lat="59.9698512" lon="17.7177673">
        <ele>27.5349</ele>
        <time>2013-04-15T19:02:48Z</time>
      </trkpt>
      <trkpt lat="59.9698746" lon="17.7177916">
        <ele>28.0155</ele>
        <time>2013-04-15T19:02:49Z</time>
      </trkpt>
      <trkpt lat="59.9698998" lon="17.7178077">
        <ele>28.0155</ele>
        <time>2013-04-15T19:02:50Z</time>
      </trkpt>
      <trkpt lat="59.9699228" lon="17.7178249">
        <ele>27.5349</ele>
        <time>2013-04-15T19:02:51Z</time>
      </trkpt>
      <trkpt lat="59.9699434" lon="17.7178474">
        <ele>27.5349</ele>
        <time>2013-04-15T19:02:52Z</time>
      </trkpt>
      <trkpt lat="59.9699622" lon="17.7178727">
        <ele>27.5349</ele>
        <time>2013-04-15T19:02:53Z</time>
      </trkpt>
      <trkpt lat="59.9699839" lon="17.7178947">
        <ele>27.5349</ele>
        <time>2013-04-15T19:02:54Z</time>
      </trkpt>
      <trkpt lat="59.9700189" lon="17.7179277">
        <ele>27.0543</ele>
        <time>2013-04-15T19:02:55Z</time>
      </trkpt>
      <trkpt lat="59.9700403" lon="17.7179461">
        <ele>26.5736</ele>
        <time>2013-04-15T19:02:56Z</time>
      </trkpt>
      <trkpt lat="59.9700645" lon="17.7179647">
        <ele>26.5736</ele>
        <time>2013-04-15T19:02:57Z</time>
      </trkpt>
      <trkpt lat="59.9700872" lon="17.7179817">
        <ele>26.5736</ele>
        <time>2013-04-15T19:02:58Z</time>
      </trkpt>
      <trkpt lat="59.9701107" lon="17.7179991">
        <ele>27.0543</ele>
        <time>2013-04-15T19:02:59Z</time>
      </trkpt>
      <trkpt lat="59.9701335" lon="17.7180201">
        <ele>27.0543</ele>
        <time>2013-04-15T19:03:00Z</time>
      </trkpt>
      <trkpt lat="59.9701569" lon="17.7180371">
        <ele>27.5349</ele>
        <time>2013-04-15T19:03:01Z</time>
      </trkpt>
      <trkpt lat="59.9701801" lon="17.7180542">
        <ele>27.5349</ele>
        <time>2013-04-15T19:03:02Z</time>
      </trkpt>
      <trkpt lat="59.9702046" lon="17.718074">
        <ele>28.0155</ele>
        <time>2013-04-15T19:03:03Z</time>
      </trkpt>
      <trkpt lat="59.9702299" lon="17.718093">
        <ele>28.4962</ele>
        <time>2013-04-15T19:03:04Z</time>
      </trkpt>
      <trkpt lat="59.9702522" lon="17.7181183">
        <ele>29.4575</ele>
        <time>2013-04-15T19:03:05Z</time>
      </trkpt>
      <trkpt lat="59.9702759" lon="17.7181438">
        <ele>29.9381</ele>
        <time>2013-04-15T19:03:06Z</time>
      </trkpt>
      <trkpt lat="59.9702999" lon="17.7181642">
        <ele>29.9381</ele>
        <time>2013-04-15T19:03:07Z</time>
      </trkpt>
      <trkpt lat="59.9703242" lon="17.7181898">
        <ele>30.4188</ele>
        <time>2013-04-15T19:03:08Z</time>
      </trkpt>
      <trkpt lat="59.9703471" lon="17.7182148">
        <ele>30.4188</ele>
        <time>2013-04-15T19:03:09Z</time>
      </trkpt>
      <trkpt lat="59.9703687" lon="17.7182417">
        <ele>31.3801</ele>
        <time>2013-04-15T19:03:10Z</time>
      </trkpt>
      <trkpt lat="59.9703905" lon="17.7182678">
        <ele>31.8607</ele>
        <time>2013-04-15T19:03:11Z</time>
      </trkpt>
      <trkpt lat="59.9704122" lon="17.7182965">
        <ele>31.8607</ele>
        <time>2013-04-15T19:03:12Z</time>
      </trkpt>
      <trkpt lat="59.9704315" lon="17.7183198">
        <ele>31.8607</ele>
        <time>2013-04-15T19:03:13Z</time>
      </trkpt>
      <trkpt lat="59.9704524" lon="17.7183397">
        <ele>32.3416</ele>
        <time>2013-04-15T19:03:14Z</time>
      </trkpt>
      <trkpt lat="59.9704749" lon="17.718364">
        <ele>32.3416</ele>
        <time>2013-04-15T19:03:15Z</time>
      </trkpt>
      <trkpt lat="59.9704982" lon="17.7183854">
        <ele>32.3416</ele>
        <time>2013-04-15T19:03:16Z</time>
      </trkpt>
      <trkpt lat="59.9705205" lon="17.718405">
        <ele>32.8223</ele>
        <time>2013-04-15T19:03:17Z</time>
      </trkpt>
      <trkpt lat="59.9705403" lon="17.7184287">
        <ele>32.8223</ele>
        <time>2013-04-15T19:03:18Z</time>
      </trkpt>
      <trkpt lat="59.9705587" lon="17.7184511">
        <ele>32.8223</ele>
        <time>2013-04-15T19:03:19Z</time>
      </trkpt>
      <trkpt lat="59.9705795" lon="17.7184738">
        <ele>32.8223</ele>
        <time>2013-04-15T19:03:20Z</time>
      </trkpt>
      <trkpt lat="59.9706026" lon="17.718489">
        <ele>32.3416</ele>
        <time>2013-04-15T19:03:21Z</time>
      </trkpt>
      <trkpt lat="59.9706247" lon="17.7185003">
        <ele>32.8223</ele>
        <time>2013-04-15T19:03:22Z</time>
      </trkpt>
      <trkpt lat="59.9706469" lon="17.7185204">
        <ele>32.3416</ele>
        <time>2013-04-15T19:03:23Z</time>
      </trkpt>
      <trkpt lat="59.9706695" lon="17.7185441">
        <ele>32.3416</ele>
        <time>2013-04-15T19:03:24Z</time>
      </trkpt>
      <trkpt lat="59.9706892" lon="17.7185592">
        <ele>31.8607</ele>
        <time>2013-04-15T19:03:25Z</time>
      </trkpt>
      <trkpt lat="59.9707107" lon="17.7185758">
        <ele>31.3801</ele>
        <time>2013-04-15T19:03:26Z</time>
      </trkpt>
      <trkpt lat="59.9707319" lon="17.7185903">
        <ele>31.3801</ele>
        <time>2013-04-15T19:03:27Z</time>
      </trkpt>
      <trkpt lat="59.9707542" lon="17.7186059">
        <ele>31.3801</ele>
        <time>2013-04-15T19:03:28Z</time>
      </trkpt>
      <trkpt lat="59.9707741" lon="17.7186294">
        <ele>31.3801</ele>
        <time>2013-04-15T19:03:29Z</time>
      </trkpt>
      <trkpt lat="59.9707965" lon="17.718651">
        <ele>31.3801</ele>
        <time>2013-04-15T19:03:30Z</time>
      </trkpt>
      <trkpt lat="59.9708212" lon="17.7186674">
        <ele>31.3801</ele>
        <time>2013-04-15T19:03:31Z</time>
      </trkpt>
      <trkpt lat="59.9708443" lon="17.7186899">
        <ele>31.3801</ele>
        <time>2013-04-15T19:03:32Z</time>
      </trkpt>
      <trkpt lat="59.9708686" lon="17.7187194">
        <ele>31.3801</ele>
        <time>2013-04-15T19:03:33Z</time>
      </trkpt>
      <trkpt lat="59.9708914" lon="17.7187418">
        <ele>31.3801</ele>
        <time>2013-04-15T19:03:34Z</time>
      </trkpt>
      <trkpt lat="59.9709135" lon="17.7187556">
        <ele>31.3801</ele>
        <time>2013-04-15T19:03:35Z</time>
      </trkpt>
      <trkpt lat="59.9709364" lon="17.71877">
        <ele>30.8995</ele>
        <time>2013-04-15T19:03:36Z</time>
      </trkpt>
      <trkpt lat="59.9709565" lon="17.7187827">
        <ele>30.4188</ele>
        <time>2013-04-15T19:03:37Z</time>
      </trkpt>
      <trkpt lat="59.9709784" lon="17.7187982">
        <ele>30.4188</ele>
        <time>2013-04-15T19:03:38Z</time>
      </trkpt>
      <trkpt lat="59.9710002" lon="17.7188164">
        <ele>29.9381</ele>
        <time>2013-04-15T19:03:39Z</time>
      </trkpt>
      <trkpt lat="59.9710233" lon="17.7188354">
        <ele>29.9381</ele>
        <time>2013-04-15T19:03:40Z</time>
      </trkpt>
      <trkpt lat="59.9710468" lon="17.7188555">
        <ele>29.9381</ele>
        <time>2013-04-15T19:03:41Z</time>
      </trkpt>
      <trkpt lat="59.9710696" lon="17.7188748">
        <ele>29.9381</ele>
        <time>2013-04-15T19:03:42Z</time>
      </trkpt>
      <trkpt lat="59.9710914" lon="17.7188927">
        <ele>29.9381</ele>
        <time>2013-04-15T19:03:43Z</time>
      </trkpt>
      <trkpt lat="59.9711124" lon="17.7189121">
        <ele>30.4188</ele>
        <time>2013-04-15T19:03:44Z</time>
      </trkpt>
      <trkpt lat="59.9711317" lon="17.718934">
        <ele>29.9381</ele>
        <time>2013-04-15T19:03:45Z</time>
      </trkpt>
      <trkpt lat="59.9711493" lon="17.7189575">
        <ele>29.9381</ele>
        <time>2013-04-15T19:03:46Z</time>
      </trkpt>
      <trkpt lat="59.9711693" lon="17.7189815">
        <ele>30.4188</ele>
        <time>2013-04-15T19:03:47Z</time>
      </trkpt>
      <trkpt lat="59.9711901" lon="17.7190017">
        <ele>30.4188</ele>
        <time>2013-04-15T19:03:48Z</time>
      </trkpt>
      <trkpt lat="59.9712104" lon="17.7190182">
        <ele>30.4188</ele>
        <time>2013-04-15T19:03:49Z</time>
      </trkpt>
      <trkpt lat="59.9712295" lon="17.7190372">
        <ele>30.8995</ele>
        <time>2013-04-15T19:03:50Z</time>
      </trkpt>
      <trkpt lat="59.9712498" lon="17.7190571">
        <ele>30.8995</ele>
        <time>2013-04-15T19:03:51Z</time>
      </trkpt>
      <trkpt lat="59.971269" lon="17.7190732">
        <ele>30.4188</ele>
        <time>2013-04-15T19:03:52Z</time>
      </trkpt>
      <trkpt lat="59.9712895" lon="17.7190922">
        <ele>30.8995</ele>
        <time>2013-04-15T19:03:53Z</time>
      </trkpt>
      <trkpt lat="59.9713104" lon="17.7191139">
        <ele>30.8995</ele>
        <time>2013-04-15T19:03:54Z</time>
      </trkpt>
      <trkpt lat="59.9713321" lon="17.7191331">
        <ele>30.8995</ele>
        <time>2013-04-15T19:03:55Z</time>
      </trkpt>
      <trkpt lat="59.971355" lon="17.7191493">
        <ele>30.8995</ele>
        <time>2013-04-15T19:03:56Z</time>
      </trkpt>
      <trkpt lat="59.9713794" lon="17.7191704">
        <ele>30.8995</ele>
        <time>2013-04-15T19:03:57Z</time>
      </trkpt>
      <trkpt lat="59.9714035" lon="17.7191924">
        <ele>30.8995</ele>
        <time>2013-04-15T19:03:58Z</time>
      </trkpt>
      <trkpt lat="59.9714278" lon="17.7192167">
        <ele>30.8995</ele>
        <time>2013-04-15T19:03:59Z</time>
      </trkpt>
      <trkpt lat="59.9714519" lon="17.7192429">
        <ele>30.8995</ele>
        <time>2013-04-15T19:04:00Z</time>
      </trkpt>
      <trkpt lat="59.9714758" lon="17.7192643">
        <ele>30.8995</ele>
        <time>2013-04-15T19:04:01Z</time>
      </trkpt>
      <trkpt lat="59.971499" lon="17.7192867">
        <ele>30.8995</ele>
        <time>2013-04-15T19:04:02Z</time>
      </trkpt>
      <trkpt lat="59.9715223" lon="17.7193073">
        <ele>30.4188</ele>
        <time>2013-04-15T19:04:03Z</time>
      </trkpt>
      <trkpt lat="59.9715461" lon="17.7193286">
        <ele>30.4188</ele>
        <time>2013-04-15T19:04:04Z</time>
      </trkpt>
      <trkpt lat="59.9715674" lon="17.7193465">
        <ele>29.9381</ele>
        <time>2013-04-15T19:04:05Z</time>
      </trkpt>
      <trkpt lat="59.9715884" lon="17.7193649">
        <ele>29.9381</ele>
        <time>2013-04-15T19:04:06Z</time>
      </trkpt>
      <trkpt lat="59.9716099" lon="17.7193879">
        <ele>29.9381</ele>
        <time>2013-04-15T19:04:07Z</time>
      </trkpt>
      <trkpt lat="59.9716302" lon="17.7194066">
        <ele>30.4188</ele>
        <time>2013-04-15T19:04:08Z</time>
      </trkpt>
      <trkpt lat="59.9716485" lon="17.7194186">
        <ele>29.9381</ele>
        <time>2013-04-15T19:04:09Z</time>
      </trkpt>
      <trkpt lat="59.9716689" lon="17.7194328">
        <ele>29.9381</ele>
        <time>2013-04-15T19:04:10Z</time>
      </trkpt>
      <trkpt lat="59.9716911" lon="17.7194516">
        <ele>29.4575</ele>
        <time>2013-04-15T19:04:11Z</time>
      </trkpt>
      <trkpt lat="59.9717114" lon="17.7194693">
        <ele>29.4575</ele>
        <time>2013-04-15T19:04:12Z</time>
      </trkpt>
      <trkpt lat="59.9717329" lon="17.7194881">
        <ele>29.9381</ele>
        <time>2013-04-15T19:04:13Z</time>
      </trkpt>
      <trkpt lat="59.9717564" lon="17.7195129">
        <ele>29.9381</ele>
        <time>2013-04-15T19:04:14Z</time>
      </trkpt>
      <trkpt lat="59.9717783" lon="17.719532">
        <ele>29.9381</ele>
        <time>2013-04-15T19:04:15Z</time>
      </trkpt>
      <trkpt lat="59.9718003" lon="17.7195523">
        <ele>30.4188</ele>
        <time>2013-04-15T19:04:16Z</time>
      </trkpt>
      <trkpt lat="59.9718242" lon="17.7195757">
        <ele>30.4188</ele>
        <time>2013-04-15T19:04:17Z</time>
      </trkpt>
      <trkpt lat="59.9718466" lon="17.7195947">
        <ele>30.4188</ele>
        <time>2013-04-15T19:04:18Z</time>
      </trkpt>
      <trkpt lat="59.971869" lon="17.7196166">
        <ele>30.4188</ele>
        <time>2013-04-15T19:04:19Z</time>
      </trkpt>
      <trkpt lat="59.9718915" lon="17.7196347">
        <ele>30.4188</ele>
        <time>2013-04-15T19:04:20Z</time>
      </trkpt>
      <trkpt lat="59.9719129" lon="17.7196485">
        <ele>30.4188</ele>
        <time>2013-04-15T19:04:21Z</time>
      </trkpt>
      <trkpt lat="59.9719326" lon="17.7196668">
        <ele>30.4188</ele>
        <time>2013-04-15T19:04:22Z</time>
      </trkpt>
      <trkpt lat="59.9719652" lon="17.7196995">
        <ele>30.4188</ele>
        <time>2013-04-15T19:04:24Z</time>
      </trkpt>
      <trkpt lat="59.9719823" lon="17.7197136">
        <ele>30.4188</ele>
        <time>2013-04-15T19:04:25Z</time>
      </trkpt>
      <trkpt lat="59.9720013" lon="17.7197332">
        <ele>30.4188</ele>
        <time>2013-04-15T19:04:26Z</time>
      </trkpt>
      <trkpt lat="59.9720222" lon="17.7197538">
        <ele>30.8995</ele>
        <time>2013-04-15T19:04:27Z</time>
      </trkpt>
      <trkpt lat="59.9720458" lon="17.719772">
        <ele>30.8995</ele>
        <time>2013-04-15T19:04:28Z</time>
      </trkpt>
      <trkpt lat="59.9720674" lon="17.7197909">
        <ele>30.8995</ele>
        <time>2013-04-15T19:04:29Z</time>
      </trkpt>
      <trkpt lat="59.9720865" lon="17.7198084">
        <ele>30.8995</ele>
        <time>2013-04-15T19:04:30Z</time>
      </trkpt>
      <trkpt lat="59.9721071" lon="17.719831">
        <ele>31.3801</ele>
        <time>2013-04-15T19:04:31Z</time>
      </trkpt>
      <trkpt lat="59.972132" lon="17.7198523">
        <ele>32.3416</ele>
        <time>2013-04-15T19:04:32Z</time>
      </trkpt>
      <trkpt lat="59.9721551" lon="17.719869">
        <ele>32.8223</ele>
        <time>2013-04-15T19:04:33Z</time>
      </trkpt>
      <trkpt lat="59.9721729" lon="17.7198859">
        <ele>32.8223</ele>
        <time>2013-04-15T19:04:34Z</time>
      </trkpt>
      <trkpt lat="59.9721917" lon="17.7199051">
        <ele>32.8223</ele>
        <time>2013-04-15T19:04:35Z</time>
      </trkpt>
      <trkpt lat="59.9722114" lon="17.7199208">
        <ele>32.8223</ele>
        <time>2013-04-15T19:04:36Z</time>
      </trkpt>
      <trkpt lat="59.9722303" lon="17.7199327">
        <ele>32.8223</ele>
        <time>2013-04-15T19:04:37Z</time>
      </trkpt>
      <trkpt lat="59.9722497" lon="17.7199512">
        <ele>32.8223</ele>
        <time>2013-04-15T19:04:38Z</time>
      </trkpt>
      <trkpt lat="59.9722691" lon="17.7199703">
        <ele>32.8223</ele>
        <time>2013-04-15T19:04:39Z</time>
      </trkpt>
      <trkpt lat="59.9722872" lon="17.7199849">
        <ele>32.8223</ele>
        <time>2013-04-15T19:04:40Z</time>
      </trkpt>
      <trkpt lat="59.9723049" lon="17.7199994">
        <ele>32.8223</ele>
        <time>2013-04-15T19:04:41Z</time>
      </trkpt>
      <trkpt lat="59.9723247" lon="17.7200153">
        <ele>32.8223</ele>
        <time>2013-04-15T19:04:42Z</time>
      </trkpt>
      <trkpt lat="59.9723426" lon="17.7200308">
        <ele>32.8223</ele>
        <time>2013-04-15T19:04:43Z</time>
      </trkpt>
      <trkpt lat="59.9723623" lon="17.7200541">
        <ele>32.8223</ele>
        <time>2013-04-15T19:04:44Z</time>
      </trkpt>
      <trkpt lat="59.9723817" lon="17.7200786">
        <ele>32.8223</ele>
        <time>2013-04-15T19:04:45Z</time>
      </trkpt>
      <trkpt lat="59.9724018" lon="17.7200947">
        <ele>32.8223</ele>
        <time>2013-04-15T19:04:46Z</time>
      </trkpt>
      <trkpt lat="59.9724216" lon="17.7201088">
        <ele>32.8223</ele>
        <time>2013-04-15T19:04:47Z</time>
      </trkpt>
      <trkpt lat="59.97244" lon="17.720123">
        <ele>32.8223</ele>
        <time>2013-04-15T19:04:48Z</time>
      </trkpt>
      <trkpt lat="59.9724574" lon="17.7201318">
        <ele>32.8223</ele>
        <time>2013-04-15T19:04:49Z</time>
      </trkpt>
      <trkpt lat="59.972476" lon="17.7201424">
        <ele>32.8223</ele>
        <time>2013-04-15T19:04:50Z</time>
      </trkpt>
      <trkpt lat="59.9724944" lon="17.7201579">
        <ele>32.3416</ele>
        <time>2013-04-15T19:04:51Z</time>
      </trkpt>
      <trkpt lat="59.9725132" lon="17.7201737">
        <ele>32.3416</ele>
        <time>2013-04-15T19:04:52Z</time>
      </trkpt>
      <trkpt lat="59.9725338" lon="17.7201924">
        <ele>32.3416</ele>
        <time>2013-04-15T19:04:53Z</time>
      </trkpt>
      <trkpt lat="59.9725537" lon="17.7202118">
        <ele>32.3416</ele>
        <time>2013-04-15T19:04:54Z</time>
      </trkpt>
      <trkpt lat="59.9725744" lon="17.7202324">
        <ele>32.3416</ele>
        <time>2013-04-15T19:04:55Z</time>
      </trkpt>
      <trkpt lat="59.9725967" lon="17.7202526">
        <ele>31.8607</ele>
        <time>2013-04-15T19:04:56Z</time>
      </trkpt>
      <trkpt lat="59.9726179" lon="17.7202724">
        <ele>31.3801</ele>
        <time>2013-04-15T19:04:57Z</time>
      </trkpt>
      <trkpt lat="59.9726406" lon="17.7202916">
        <ele>31.3801</ele>
        <time>2013-04-15T19:04:58Z</time>
      </trkpt>
      <trkpt lat="59.9726626" lon="17.7203111">
        <ele>31.3801</ele>
        <time>2013-04-15T19:04:59Z</time>
      </trkpt>
      <trkpt lat="59.9726826" lon="17.7203272">
        <ele>30.8995</ele>
        <time>2013-04-15T19:05:00Z</time>
      </trkpt>
      <trkpt lat="59.9727047" lon="17.7203476">
        <ele>31.3801</ele>
        <time>2013-04-15T19:05:01Z</time>
      </trkpt>
      <trkpt lat="59.9727256" lon="17.7203664">
        <ele>31.3801</ele>
        <time>2013-04-15T19:05:02Z</time>
      </trkpt>
      <trkpt lat="59.9727465" lon="17.7203832">
        <ele>30.8995</ele>
        <time>2013-04-15T19:05:03Z</time>
      </trkpt>
      <trkpt lat="59.9727676" lon="17.7204076">
        <ele>31.3801</ele>
        <time>2013-04-15T19:05:04Z</time>
      </trkpt>
      <trkpt lat="59.9727888" lon="17.7204336">
        <ele>31.3801</ele>
        <time>2013-04-15T19:05:05Z</time>
      </trkpt>
      <trkpt lat="59.9728095" lon="17.7204547">
        <ele>31.3801</ele>
        <time>2013-04-15T19:05:06Z</time>
      </trkpt>
      <trkpt lat="59.9728301" lon="17.7204769">
        <ele>31.3801</ele>
        <time>2013-04-15T19:05:07Z</time>
      </trkpt>
      <trkpt lat="59.9728503" lon="17.7204998">
        <ele>31.3801</ele>
        <time>2013-04-15T19:05:08Z</time>
      </trkpt>
      <trkpt lat="59.9728707" lon="17.7205194">
        <ele>31.3801</ele>
        <time>2013-04-15T19:05:09Z</time>
      </trkpt>
      <trkpt lat="59.9728913" lon="17.7205412">
        <ele>31.3801</ele>
        <time>2013-04-15T19:05:10Z</time>
      </trkpt>
      <trkpt lat="59.9729102" lon="17.7205664">
        <ele>31.3801</ele>
        <time>2013-04-15T19:05:11Z</time>
      </trkpt>
      <trkpt lat="59.9729288" lon="17.7205898">
        <ele>31.3801</ele>
        <time>2013-04-15T19:05:12Z</time>
      </trkpt>
      <trkpt lat="59.9729473" lon="17.7206189">
        <ele>31.8607</ele>
        <time>2013-04-15T19:05:13Z</time>
      </trkpt>
      <trkpt lat="59.9729642" lon="17.7206468">
        <ele>31.8607</ele>
        <time>2013-04-15T19:05:14Z</time>
      </trkpt>
      <trkpt lat="59.9729822" lon="17.7206692">
        <ele>31.3801</ele>
        <time>2013-04-15T19:05:15Z</time>
      </trkpt>
      <trkpt lat="59.9730018" lon="17.7206918">
        <ele>31.3801</ele>
        <time>2013-04-15T19:05:16Z</time>
      </trkpt>
      <trkpt lat="59.9730209" lon="17.7207173">
        <ele>30.8995</ele>
        <time>2013-04-15T19:05:17Z</time>
      </trkpt>
      <trkpt lat="59.9730374" lon="17.7207453">
        <ele>30.8995</ele>
        <time>2013-04-15T19:05:18Z</time>
      </trkpt>
      <trkpt lat="59.9730554" lon="17.7207716">
        <ele>30.8995</ele>
        <time>2013-04-15T19:05:19Z</time>
      </trkpt>
      <trkpt lat="59.973073" lon="17.7207964">
        <ele>30.8995</ele>
        <time>2013-04-15T19:05:20Z</time>
      </trkpt>
      <trkpt lat="59.9730886" lon="17.7208251">
        <ele>30.8995</ele>
        <time>2013-04-15T19:05:21Z</time>
      </trkpt>
      <trkpt lat="59.9731053" lon="17.720857">
        <ele>30.8995</ele>
        <time>2013-04-15T19:05:22Z</time>
      </trkpt>
      <trkpt lat="59.9731236" lon="17.7208902">
        <ele>30.8995</ele>
        <time>2013-04-15T19:05:23Z</time>
      </trkpt>
      <trkpt lat="59.9731406" lon="17.7209233">
        <ele>30.8995</ele>
        <time>2013-04-15T19:05:24Z</time>
      </trkpt>
      <trkpt lat="59.9731578" lon="17.7209462">
        <ele>30.8995</ele>
        <time>2013-04-15T19:05:25Z</time>
      </trkpt>
      <trkpt lat="59.9731751" lon="17.7209679">
        <ele>30.4188</ele>
        <time>2013-04-15T19:05:26Z</time>
      </trkpt>
      <trkpt lat="59.9731927" lon="17.720995">
        <ele>30.4188</ele>
        <time>2013-04-15T19:05:27Z</time>
      </trkpt>
      <trkpt lat="59.9732087" lon="17.7210218">
        <ele>30.4188</ele>
        <time>2013-04-15T19:05:28Z</time>
      </trkpt>
      <trkpt lat="59.9732271" lon="17.7210493">
        <ele>30.4188</ele>
        <time>2013-04-15T19:05:29Z</time>
      </trkpt>
      <trkpt lat="59.9732472" lon="17.7210811">
        <ele>30.4188</ele>
        <time>2013-04-15T19:05:30Z</time>
      </trkpt>
      <trkpt lat="59.9732644" lon="17.7211069">
        <ele>29.9381</ele>
        <time>2013-04-15T19:05:31Z</time>
      </trkpt>
      <trkpt lat="59.9732811" lon="17.7211343">
        <ele>29.9381</ele>
        <time>2013-04-15T19:05:32Z</time>
      </trkpt>
      <trkpt lat="59.9732982" lon="17.7211613">
        <ele>29.4575</ele>
        <time>2013-04-15T19:05:33Z</time>
      </trkpt>
      <trkpt lat="59.9733176" lon="17.7211899">
        <ele>29.9381</ele>
        <time>2013-04-15T19:05:34Z</time>
      </trkpt>
      <trkpt lat="59.9733383" lon="17.721222">
        <ele>30.4188</ele>
        <time>2013-04-15T19:05:35Z</time>
      </trkpt>
      <trkpt lat="59.9733601" lon="17.7212571">
        <ele>30.8995</ele>
        <time>2013-04-15T19:05:36Z</time>
      </trkpt>
      <trkpt lat="59.9733809" lon="17.721289">
        <ele>31.3801</ele>
        <time>2013-04-15T19:05:37Z</time>
      </trkpt>
      <trkpt lat="59.9734012" lon="17.7213172">
        <ele>31.3801</ele>
        <time>2013-04-15T19:05:38Z</time>
      </trkpt>
      <trkpt lat="59.9734239" lon="17.7213517">
        <ele>31.8607</ele>
        <time>2013-04-15T19:05:39Z</time>
      </trkpt>
      <trkpt lat="59.9734444" lon="17.7213871">
        <ele>31.8607</ele>
        <time>2013-04-15T19:05:40Z</time>
      </trkpt>
      <trkpt lat="59.9734607" lon="17.7214178">
        <ele>31.3801</ele>
        <time>2013-04-15T19:05:41Z</time>
      </trkpt>
      <trkpt lat="59.9734756" lon="17.7214493">
        <ele>31.3801</ele>
        <time>2013-04-15T19:05:42Z</time>
      </trkpt>
      <trkpt lat="59.9734913" lon="17.7214802">
        <ele>31.3801</ele>
        <time>2013-04-15T19:05:43Z</time>
      </trkpt>
      <trkpt lat="59.9735089" lon="17.7215157">
        <ele>31.8607</ele>
        <time>2013-04-15T19:05:44Z</time>
      </trkpt>
      <trkpt lat="59.9735278" lon="17.7215529">
        <ele>31.8607</ele>
        <time>2013-04-15T19:05:45Z</time>
      </trkpt>
      <trkpt lat="59.9735462" lon="17.7215886">
        <ele>32.3416</ele>
        <time>2013-04-15T19:05:46Z</time>
      </trkpt>
      <trkpt lat="59.9735623" lon="17.7216249">
        <ele>32.8223</ele>
        <time>2013-04-15T19:05:47Z</time>
      </trkpt>
      <trkpt lat="59.9735773" lon="17.7216627">
        <ele>32.8223</ele>
        <time>2013-04-15T19:05:48Z</time>
      </trkpt>
      <trkpt lat="59.9735924" lon="17.721699">
        <ele>32.3416</ele>
        <time>2013-04-15T19:05:49Z</time>
      </trkpt>
      <trkpt lat="59.9736125" lon="17.7217352">
        <ele>32.8223</ele>
        <time>2013-04-15T19:05:50Z</time>
      </trkpt>
      <trkpt lat="59.9736368" lon="17.7217718">
        <ele>33.7834</ele>
        <time>2013-04-15T19:05:51Z</time>
      </trkpt>
      <trkpt lat="59.9736576" lon="17.7218047">
        <ele>33.3029</ele>
        <time>2013-04-15T19:05:52Z</time>
      </trkpt>
      <trkpt lat="59.9736747" lon="17.7218417">
        <ele>34.2642</ele>
        <time>2013-04-15T19:05:53Z</time>
      </trkpt>
      <trkpt lat="59.9736916" lon="17.7218783">
        <ele>34.2642</ele>
        <time>2013-04-15T19:05:54Z</time>
      </trkpt>
      <trkpt lat="59.9737064" lon="17.7219182">
        <ele>34.7449</ele>
        <time>2013-04-15T19:05:55Z</time>
      </trkpt>
      <trkpt lat="59.9737187" lon="17.7219564">
        <ele>35.2255</ele>
        <time>2013-04-15T19:05:56Z</time>
      </trkpt>
      <trkpt lat="59.9737309" lon="17.7219983">
        <ele>35.2255</ele>
        <time>2013-04-15T19:05:57Z</time>
      </trkpt>
      <trkpt lat="59.9737424" lon="17.7220391">
        <ele>35.7061</ele>
        <time>2013-04-15T19:05:58Z</time>
      </trkpt>
      <trkpt lat="59.973756" lon="17.722079">
        <ele>36.1868</ele>
        <time>2013-04-15T19:05:59Z</time>
      </trkpt>
      <trkpt lat="59.9737726" lon="17.7221218">
        <ele>36.6675</ele>
        <time>2013-04-15T19:06:00Z</time>
      </trkpt>
      <trkpt lat="59.9737881" lon="17.7221655">
        <ele>37.1481</ele>
        <time>2013-04-15T19:06:01Z</time>
      </trkpt>
      <trkpt lat="59.9738014" lon="17.7222051">
        <ele>37.6287</ele>
        <time>2013-04-15T19:06:02Z</time>
      </trkpt>
      <trkpt lat="59.9738144" lon="17.722246">
        <ele>37.6287</ele>
        <time>2013-04-15T19:06:03Z</time>
      </trkpt>
      <trkpt lat="59.9738269" lon="17.7222843">
        <ele>37.6287</ele>
        <time>2013-04-15T19:06:04Z</time>
      </trkpt>
      <trkpt lat="59.9738395" lon="17.7223247">
        <ele>38.1094</ele>
        <time>2013-04-15T19:06:05Z</time>
      </trkpt>
      <trkpt lat="59.9738518" lon="17.7223665">
        <ele>38.1094</ele>
        <time>2013-04-15T19:06:06Z</time>
      </trkpt>
      <trkpt lat="59.9738601" lon="17.7224018">
        <ele>38.1094</ele>
        <time>2013-04-15T19:06:07Z</time>
      </trkpt>
      <trkpt lat="59.9738705" lon="17.7224433">
        <ele>38.5901</ele>
        <time>2013-04-15T19:06:08Z</time>
      </trkpt>
      <trkpt lat="59.9738791" lon="17.7224827">
        <ele>38.5901</ele>
        <time>2013-04-15T19:06:09Z</time>
      </trkpt>
      <trkpt lat="59.9738825" lon="17.7225117">
        <ele>38.5901</ele>
        <time>2013-04-15T19:06:10Z</time>
      </trkpt>
      <trkpt lat="59.9738897" lon="17.722544">
        <ele>38.5901</ele>
        <time>2013-04-15T19:06:11Z</time>
      </trkpt>
      <trkpt lat="59.9739008" lon="17.7225813">
        <ele>38.5901</ele>
        <time>2013-04-15T19:06:12Z</time>
      </trkpt>
      <trkpt lat="59.9739119" lon="17.72262">
        <ele>38.5901</ele>
        <time>2013-04-15T19:06:13Z</time>
      </trkpt>
      <trkpt lat="59.973919" lon="17.7226581">
        <ele>38.5901</ele>
        <time>2013-04-15T19:06:14Z</time>
      </trkpt>
      <trkpt lat="59.9739262" lon="17.7227002">
        <ele>38.5901</ele>
        <time>2013-04-15T19:06:15Z</time>
      </trkpt>
      <trkpt lat="59.9739341" lon="17.7227426">
        <ele>38.1094</ele>
        <time>2013-04-15T19:06:16Z</time>
      </trkpt>
      <trkpt lat="59.9739425" lon="17.722785">
        <ele>38.1094</ele>
        <time>2013-04-15T19:06:17Z</time>
      </trkpt>
      <trkpt lat="59.9739538" lon="17.7228283">
        <ele>37.6287</ele>
        <time>2013-04-15T19:06:18Z</time>
      </trkpt>
      <trkpt lat="59.9739677" lon="17.7228703">
        <ele>37.6287</ele>
        <time>2013-04-15T19:06:19Z</time>
      </trkpt>
      <trkpt lat="59.9739797" lon="17.7229106">
        <ele>37.6287</ele>
        <time>2013-04-15T19:06:20Z</time>
      </trkpt>
      <trkpt lat="59.9739875" lon="17.7229534">
        <ele>37.1481</ele>
        <time>2013-04-15T19:06:21Z</time>
      </trkpt>
      <trkpt lat="59.9739953" lon="17.7229969">
        <ele>37.1481</ele>
        <time>2013-04-15T19:06:22Z</time>
      </trkpt>
      <trkpt lat="59.974002" lon="17.7230397">
        <ele>36.6675</ele>
        <time>2013-04-15T19:06:23Z</time>
      </trkpt>
      <trkpt lat="59.9740094" lon="17.723086">
        <ele>36.6675</ele>
        <time>2013-04-15T19:06:24Z</time>
      </trkpt>
      <trkpt lat="59.9740165" lon="17.7231255">
        <ele>36.1868</ele>
        <time>2013-04-15T19:06:25Z</time>
      </trkpt>
      <trkpt lat="59.9740244" lon="17.7231673">
        <ele>35.7061</ele>
        <time>2013-04-15T19:06:26Z</time>
      </trkpt>
      <trkpt lat="59.974031" lon="17.7232069">
        <ele>35.2255</ele>
        <time>2013-04-15T19:06:27Z</time>
      </trkpt>
      <trkpt lat="59.9740358" lon="17.7232415">
        <ele>34.2642</ele>
        <time>2013-04-15T19:06:28Z</time>
      </trkpt>
      <trkpt lat="59.9740408" lon="17.7232803">
        <ele>33.7834</ele>
        <time>2013-04-15T19:06:29Z</time>
      </trkpt>
      <trkpt lat="59.9740472" lon="17.7233249">
        <ele>33.3029</ele>
        <time>2013-04-15T19:06:30Z</time>
      </trkpt>
      <trkpt lat="59.9740486" lon="17.7233602">
        <ele>32.3416</ele>
        <time>2013-04-15T19:06:31Z</time>
      </trkpt>
      <trkpt lat="59.9740508" lon="17.7233934">
        <ele>31.3801</ele>
        <time>2013-04-15T19:06:32Z</time>
      </trkpt>
      <trkpt lat="59.9740564" lon="17.7234343">
        <ele>31.3801</ele>
        <time>2013-04-15T19:06:33Z</time>
      </trkpt>
      <trkpt lat="59.9740616" lon="17.7234685">
        <ele>30.4188</ele>
        <time>2013-04-15T19:06:34Z</time>
      </trkpt>
      <trkpt lat="59.9740668" lon="17.7235037">
        <ele>30.4188</ele>
        <time>2013-04-15T19:06:35Z</time>
      </trkpt>
      <trkpt lat="59.9740733" lon="17.7235483">
        <ele>30.4188</ele>
        <time>2013-04-15T19:06:36Z</time>
      </trkpt>
      <trkpt lat="59.9740819" lon="17.7235905">
        <ele>30.4188</ele>
        <time>2013-04-15T19:06:37Z</time>
      </trkpt>
      <trkpt lat="59.974094" lon="17.72364">
        <ele>30.4188</ele>
        <time>2013-04-15T19:06:38Z</time>
      </trkpt>
      <trkpt lat="59.9741031" lon="17.7236886">
        <ele>30.8995</ele>
        <time>2013-04-15T19:06:39Z</time>
      </trkpt>
      <trkpt lat="59.9741087" lon="17.7237279">
        <ele>30.8995</ele>
        <time>2013-04-15T19:06:40Z</time>
      </trkpt>
      <trkpt lat="59.9741165" lon="17.7237673">
        <ele>31.3801</ele>
        <time>2013-04-15T19:06:41Z</time>
      </trkpt>
      <trkpt lat="59.9741238" lon="17.7238135">
        <ele>31.8607</ele>
        <time>2013-04-15T19:06:42Z</time>
      </trkpt>
      <trkpt lat="59.9741273" lon="17.7238612">
        <ele>31.8607</ele>
        <time>2013-04-15T19:06:43Z</time>
      </trkpt>
      <trkpt lat="59.974132" lon="17.7239068">
        <ele>31.8607</ele>
        <time>2013-04-15T19:06:44Z</time>
      </trkpt>
      <trkpt lat="59.9741386" lon="17.7239539">
        <ele>32.3416</ele>
        <time>2013-04-15T19:06:45Z</time>
      </trkpt>
      <trkpt lat="59.9741436" lon="17.7239969">
        <ele>32.3416</ele>
        <time>2013-04-15T19:06:46Z</time>
      </trkpt>
      <trkpt lat="59.9741479" lon="17.7240399">
        <ele>31.8607</ele>
        <time>2013-04-15T19:06:47Z</time>
      </trkpt>
      <trkpt lat="59.9741526" lon="17.7240878">
        <ele>31.8607</ele>
        <time>2013-04-15T19:06:48Z</time>
      </trkpt>
      <trkpt lat="59.9741574" lon="17.724132">
        <ele>31.8607</ele>
        <time>2013-04-15T19:06:49Z</time>
      </trkpt>
      <trkpt lat="59.974164" lon="17.7241749">
        <ele>31.8607</ele>
        <time>2013-04-15T19:06:50Z</time>
      </trkpt>
      <trkpt lat="59.9741674" lon="17.7242181">
        <ele>31.8607</ele>
        <time>2013-04-15T19:06:51Z</time>
      </trkpt>
      <trkpt lat="59.9741713" lon="17.7242605">
        <ele>31.8607</ele>
        <time>2013-04-15T19:06:52Z</time>
      </trkpt>
      <trkpt lat="59.9741772" lon="17.7243062">
        <ele>31.3801</ele>
        <time>2013-04-15T19:06:53Z</time>
      </trkpt>
      <trkpt lat="59.9741812" lon="17.7243508">
        <ele>30.8995</ele>
        <time>2013-04-15T19:06:54Z</time>
      </trkpt>
      <trkpt lat="59.9741863" lon="17.7243931">
        <ele>30.8995</ele>
        <time>2013-04-15T19:06:55Z</time>
      </trkpt>
      <trkpt lat="59.9741909" lon="17.7244367">
        <ele>30.8995</ele>
        <time>2013-04-15T19:06:56Z</time>
      </trkpt>
      <trkpt lat="59.9741935" lon="17.7244807">
        <ele>30.4188</ele>
        <time>2013-04-15T19:06:57Z</time>
      </trkpt>
      <trkpt lat="59.9741983" lon="17.7245216">
        <ele>30.4188</ele>
        <time>2013-04-15T19:06:58Z</time>
      </trkpt>
      <trkpt lat="59.9742034" lon="17.7245699">
        <ele>29.9381</ele>
        <time>2013-04-15T19:06:59Z</time>
      </trkpt>
      <trkpt lat="59.9742119" lon="17.7246196">
        <ele>29.9381</ele>
        <time>2013-04-15T19:07:00Z</time>
      </trkpt>
      <trkpt lat="59.9742237" lon="17.7246718">
        <ele>30.4188</ele>
        <time>2013-04-15T19:07:01Z</time>
      </trkpt>
      <trkpt lat="59.9742339" lon="17.7247251">
        <ele>30.8995</ele>
        <time>2013-04-15T19:07:02Z</time>
      </trkpt>
      <trkpt lat="59.9742432" lon="17.7247732">
        <ele>30.8995</ele>
        <time>2013-04-15T19:07:03Z</time>
      </trkpt>
      <trkpt lat="59.9742522" lon="17.7248179">
        <ele>31.3801</ele>
        <time>2013-04-15T19:07:04Z</time>
      </trkpt>
      <trkpt lat="59.9742595" lon="17.7248652">
        <ele>31.3801</ele>
        <time>2013-04-15T19:07:05Z</time>
      </trkpt>
      <trkpt lat="59.9742694" lon="17.7249127">
        <ele>31.8607</ele>
        <time>2013-04-15T19:07:06Z</time>
      </trkpt>
      <trkpt lat="59.9742824" lon="17.7249604">
        <ele>32.3416</ele>
        <time>2013-04-15T19:07:07Z</time>
      </trkpt>
      <trkpt lat="59.9742916" lon="17.7250132">
        <ele>32.8223</ele>
        <time>2013-04-15T19:07:08Z</time>
      </trkpt>
      <trkpt lat="59.9742977" lon="17.7250602">
        <ele>33.3029</ele>
        <time>2013-04-15T19:07:09Z</time>
      </trkpt>
      <trkpt lat="59.9743071" lon="17.7251031">
        <ele>33.7834</ele>
        <time>2013-04-15T19:07:10Z</time>
      </trkpt>
      <trkpt lat="59.9743175" lon="17.7251482">
        <ele>34.2642</ele>
        <time>2013-04-15T19:07:11Z</time>
      </trkpt>
      <trkpt lat="59.9743279" lon="17.7251914">
        <ele>35.2255</ele>
        <time>2013-04-15T19:07:12Z</time>
      </trkpt>
      <trkpt lat="59.9743411" lon="17.7252328">
        <ele>35.7061</ele>
        <time>2013-04-15T19:07:13Z</time>
      </trkpt>
      <trkpt lat="59.9743517" lon="17.7252764">
        <ele>36.1868</ele>
        <time>2013-04-15T19:07:14Z</time>
      </trkpt>
      <trkpt lat="59.9743567" lon="17.7253264">
        <ele>36.6675</ele>
        <time>2013-04-15T19:07:15Z</time>
      </trkpt>
      <trkpt lat="59.97436" lon="17.725368">
        <ele>36.6675</ele>
        <time>2013-04-15T19:07:16Z</time>
      </trkpt>
      <trkpt lat="59.9743641" lon="17.7254098">
        <ele>37.1481</ele>
        <time>2013-04-15T19:07:17Z</time>
      </trkpt>
      <trkpt lat="59.9743693" lon="17.7254566">
        <ele>37.1481</ele>
        <time>2013-04-15T19:07:18Z</time>
      </trkpt>
      <trkpt lat="59.9743734" lon="17.7255">
        <ele>37.1481</ele>
        <time>2013-04-15T19:07:19Z</time>
      </trkpt>
      <trkpt lat="59.9743792" lon="17.7255446">
        <ele>37.1481</ele>
        <time>2013-04-15T19:07:20Z</time>
      </trkpt>
      <trkpt lat="59.974386" lon="17.7255921">
        <ele>37.1481</ele>
        <time>2013-04-15T19:07:21Z</time>
      </trkpt>
      <trkpt lat="59.9743927" lon="17.7256316">
        <ele>36.6675</ele>
        <time>2013-04-15T19:07:22Z</time>
      </trkpt>
      <trkpt lat="59.9743945" lon="17.7256698">
        <ele>36.1868</ele>
        <time>2013-04-15T19:07:23Z</time>
      </trkpt>
      <trkpt lat="59.9743988" lon="17.7257144">
        <ele>36.1868</ele>
        <time>2013-04-15T19:07:24Z</time>
      </trkpt>
      <trkpt lat="59.9744041" lon="17.7257529">
        <ele>35.2255</ele>
        <time>2013-04-15T19:07:25Z</time>
      </trkpt>
      <trkpt lat="59.9744081" lon="17.7257912">
        <ele>34.2642</ele>
        <time>2013-04-15T19:07:26Z</time>
      </trkpt>
      <trkpt lat="59.97441" lon="17.7258275">
        <ele>33.7834</ele>
        <time>2013-04-15T19:07:27Z</time>
      </trkpt>
      <trkpt lat="59.9744128" lon="17.7258682">
        <ele>33.7834</ele>
        <time>2013-04-15T19:07:28Z</time>
      </trkpt>
      <trkpt lat="59.9744185" lon="17.725913">
        <ele>33.7834</ele>
        <time>2013-04-15T19:07:29Z</time>
      </trkpt>
      <trkpt lat="59.9744231" lon="17.7259631">
        <ele>34.2642</ele>
        <time>2013-04-15T19:07:30Z</time>
      </trkpt>
      <trkpt lat="59.9744254" lon="17.7260118">
        <ele>34.7449</ele>
        <time>2013-04-15T19:07:31Z</time>
      </trkpt>
      <trkpt lat="59.9744267" lon="17.7260596">
        <ele>34.7449</ele>
        <time>2013-04-15T19:07:32Z</time>
      </trkpt>
      <trkpt lat="59.9744253" lon="17.7261009">
        <ele>34.7449</ele>
        <time>2013-04-15T19:07:33Z</time>
      </trkpt>
      <trkpt lat="59.9744241" lon="17.726143">
        <ele>34.2642</ele>
        <time>2013-04-15T19:07:34Z</time>
      </trkpt>
      <trkpt lat="59.9744254" lon="17.7261886">
        <ele>34.2642</ele>
        <time>2013-04-15T19:07:35Z</time>
      </trkpt>
      <trkpt lat="59.9744294" lon="17.7262365">
        <ele>33.7834</ele>
        <time>2013-04-15T19:07:36Z</time>
      </trkpt>
      <trkpt lat="59.9744329" lon="17.7262873">
        <ele>33.7834</ele>
        <time>2013-04-15T19:07:37Z</time>
      </trkpt>
      <trkpt lat="59.9744357" lon="17.7263277">
        <ele>33.3029</ele>
        <time>2013-04-15T19:07:38Z</time>
      </trkpt>
      <trkpt lat="59.9744372" lon="17.7263725">
        <ele>32.3416</ele>
        <time>2013-04-15T19:07:39Z</time>
      </trkpt>
      <trkpt lat="59.9744362" lon="17.7264056">
        <ele>31.3801</ele>
        <time>2013-04-15T19:07:40Z</time>
      </trkpt>
      <trkpt lat="59.9744326" lon="17.7264352">
        <ele>30.4188</ele>
        <time>2013-04-15T19:07:41Z</time>
      </trkpt>
      <trkpt lat="59.974432" lon="17.7264748">
        <ele>29.9381</ele>
        <time>2013-04-15T19:07:42Z</time>
      </trkpt>
      <trkpt lat="59.9744269" lon="17.726507">
        <ele>29.4575</ele>
        <time>2013-04-15T19:07:43Z</time>
      </trkpt>
      <trkpt lat="59.9744246" lon="17.7265388">
        <ele>28.4962</ele>
        <time>2013-04-15T19:07:44Z</time>
      </trkpt>
      <trkpt lat="59.9744195" lon="17.726579">
        <ele>27.5349</ele>
        <time>2013-04-15T19:07:45Z</time>
      </trkpt>
      <trkpt lat="59.9744179" lon="17.7266287">
        <ele>27.5349</ele>
        <time>2013-04-15T19:07:46Z</time>
      </trkpt>
      <trkpt lat="59.9744185" lon="17.7266703">
        <ele>27.0543</ele>
        <time>2013-04-15T19:07:47Z</time>
      </trkpt>
      <trkpt lat="59.9744164" lon="17.7267133">
        <ele>27.0543</ele>
        <time>2013-04-15T19:07:48Z</time>
      </trkpt>
      <trkpt lat="59.9744118" lon="17.7267553">
        <ele>26.0929</ele>
        <time>2013-04-15T19:07:49Z</time>
      </trkpt>
      <trkpt lat="59.9744107" lon="17.7268014">
        <ele>25.6123</ele>
        <time>2013-04-15T19:07:50Z</time>
      </trkpt>
      <trkpt lat="59.9744118" lon="17.7268553">
        <ele>25.6123</ele>
        <time>2013-04-15T19:07:51Z</time>
      </trkpt>
      <trkpt lat="59.9744205" lon="17.7269117">
        <ele>25.6123</ele>
        <time>2013-04-15T19:07:52Z</time>
      </trkpt>
      <trkpt lat="59.9744263" lon="17.7269563">
        <ele>25.1317</ele>
        <time>2013-04-15T19:07:53Z</time>
      </trkpt>
      <trkpt lat="59.9744232" lon="17.7269961">
        <ele>24.1703</ele>
        <time>2013-04-15T19:07:54Z</time>
      </trkpt>
      <trkpt lat="59.9744185" lon="17.727035">
        <ele>23.6896</ele>
        <time>2013-04-15T19:07:55Z</time>
      </trkpt>
      <trkpt lat="59.9744159" lon="17.727082">
        <ele>23.209</ele>
        <time>2013-04-15T19:07:56Z</time>
      </trkpt>
      <trkpt lat="59.9744163" lon="17.7271324">
        <ele>23.209</ele>
        <time>2013-04-15T19:07:57Z</time>
      </trkpt>
      <trkpt lat="59.9744164" lon="17.7271841">
        <ele>22.7283</ele>
        <time>2013-04-15T19:07:58Z</time>
      </trkpt>
      <trkpt lat="59.974417" lon="17.7272286">
        <ele>22.7283</ele>
        <time>2013-04-15T19:07:59Z</time>
      </trkpt>
      <trkpt lat="59.974417" lon="17.7272729">
        <ele>22.2476</ele>
        <time>2013-04-15T19:08:00Z</time>
      </trkpt>
      <trkpt lat="59.9744164" lon="17.7273138">
        <ele>21.767</ele>
        <time>2013-04-15T19:08:01Z</time>
      </trkpt>
      <trkpt lat="59.9744147" lon="17.7273492">
        <ele>21.767</ele>
        <time>2013-04-15T19:08:02Z</time>
      </trkpt>
      <trkpt lat="59.9744131" lon="17.7273928">
        <ele>21.2864</ele>
        <time>2013-04-15T19:08:03Z</time>
      </trkpt>
      <trkpt lat="59.9744134" lon="17.727439">
        <ele>20.8057</ele>
        <time>2013-04-15T19:08:04Z</time>
      </trkpt>
      <trkpt lat="59.9744154" lon="17.7274829">
        <ele>21.2864</ele>
        <time>2013-04-15T19:08:05Z</time>
      </trkpt>
      <trkpt lat="59.9744237" lon="17.7275326">
        <ele>21.2864</ele>
        <time>2013-04-15T19:08:06Z</time>
      </trkpt>
      <trkpt lat="59.9744316" lon="17.7275832">
        <ele>21.2864</ele>
        <time>2013-04-15T19:08:07Z</time>
      </trkpt>
      <trkpt lat="59.9744397" lon="17.7276378">
        <ele>21.2864</ele>
        <time>2013-04-15T19:08:08Z</time>
      </trkpt>
      <trkpt lat="59.9744475" lon="17.7276939">
        <ele>21.767</ele>
        <time>2013-04-15T19:08:09Z</time>
      </trkpt>
      <trkpt lat="59.9744567" lon="17.7277494">
        <ele>21.767</ele>
        <time>2013-04-15T19:08:10Z</time>
      </trkpt>
      <trkpt lat="59.9744663" lon="17.7278064">
        <ele>22.2476</ele>
        <time>2013-04-15T19:08:11Z</time>
      </trkpt>
      <trkpt lat="59.9744713" lon="17.7278638">
        <ele>22.2476</ele>
        <time>2013-04-15T19:08:12Z</time>
      </trkpt>
      <trkpt lat="59.9744724" lon="17.7279185">
        <ele>22.7283</ele>
        <time>2013-04-15T19:08:13Z</time>
      </trkpt>
      <trkpt lat="59.9744742" lon="17.7279734">
        <ele>23.209</ele>
        <time>2013-04-15T19:08:14Z</time>
      </trkpt>
      <trkpt lat="59.9744802" lon="17.7280289">
        <ele>23.6896</ele>
        <time>2013-04-15T19:08:15Z</time>
      </trkpt>
      <trkpt lat="59.9744851" lon="17.7280813">
        <ele>23.6896</ele>
        <time>2013-04-15T19:08:16Z</time>
      </trkpt>
      <trkpt lat="59.9744858" lon="17.728131">
        <ele>23.209</ele>
        <time>2013-04-15T19:08:17Z</time>
      </trkpt>
      <trkpt lat="59.9744843" lon="17.7281856">
        <ele>24.1703</ele>
        <time>2013-04-15T19:08:18Z</time>
      </trkpt>
      <trkpt lat="59.9744874" lon="17.7282438">
        <ele>25.1317</ele>
        <time>2013-04-15T19:08:19Z</time>
      </trkpt>
      <trkpt lat="59.9744934" lon="17.7283013">
        <ele>26.0929</ele>
        <time>2013-04-15T19:08:20Z</time>
      </trkpt>
      <trkpt lat="59.9744974" lon="17.7283585">
        <ele>27.0543</ele>
        <time>2013-04-15T19:08:21Z</time>
      </trkpt>
      <trkpt lat="59.9744986" lon="17.7284176">
        <ele>27.5349</ele>
        <time>2013-04-15T19:08:22Z</time>
      </trkpt>
      <trkpt lat="59.9744993" lon="17.7284782">
        <ele>28.9769</ele>
        <time>2013-04-15T19:08:23Z</time>
      </trkpt>
      <trkpt lat="59.9745024" lon="17.728537">
        <ele>29.4575</ele>
        <time>2013-04-15T19:08:24Z</time>
      </trkpt>
      <trkpt lat="59.9745045" lon="17.7285999">
        <ele>29.4575</ele>
        <time>2013-04-15T19:08:25Z</time>
      </trkpt>
      <trkpt lat="59.9745077" lon="17.7286643">
        <ele>30.8995</ele>
        <time>2013-04-15T19:08:26Z</time>
      </trkpt>
      <trkpt lat="59.9745119" lon="17.7287298">
        <ele>31.8607</ele>
        <time>2013-04-15T19:08:27Z</time>
      </trkpt>
      <trkpt lat="59.9745144" lon="17.7287802">
        <ele>32.3416</ele>
        <time>2013-04-15T19:08:28Z</time>
      </trkpt>
      <trkpt lat="59.9745138" lon="17.7288372">
        <ele>34.2642</ele>
        <time>2013-04-15T19:08:29Z</time>
      </trkpt>
      <trkpt lat="59.9745122" lon="17.7289136">
        <ele>35.7061</ele>
        <time>2013-04-15T19:08:30Z</time>
      </trkpt>
      <trkpt lat="59.9745106" lon="17.7289882">
        <ele>37.1481</ele>
        <time>2013-04-15T19:08:31Z</time>
      </trkpt>
      <trkpt lat="59.9745121" lon="17.7290532">
        <ele>38.5901</ele>
        <time>2013-04-15T19:08:32Z</time>
      </trkpt>
      <trkpt lat="59.9745112" lon="17.7291137">
        <ele>40.0321</ele>
        <time>2013-04-15T19:08:33Z</time>
      </trkpt>
      <trkpt lat="59.9745093" lon="17.7291701">
        <ele>40.9934</ele>
        <time>2013-04-15T19:08:34Z</time>
      </trkpt>
      <trkpt lat="59.9745086" lon="17.7292301">
        <ele>41.9547</ele>
        <time>2013-04-15T19:08:35Z</time>
      </trkpt>
      <trkpt lat="59.9745075" lon="17.7292793">
        <ele>42.4354</ele>
        <time>2013-04-15T19:08:36Z</time>
      </trkpt>
      <trkpt lat="59.9745055" lon="17.7293199">
        <ele>43.3966</ele>
        <time>2013-04-15T19:08:37Z</time>
      </trkpt>
      <trkpt lat="59.9745065" lon="17.7293518">
        <ele>42.4354</ele>
        <time>2013-04-15T19:08:38Z</time>
      </trkpt>
      <trkpt lat="59.974509" lon="17.7293821">
        <ele>41.9547</ele>
        <time>2013-04-15T19:08:39Z</time>
      </trkpt>
      <trkpt lat="59.9745138" lon="17.729411">
        <ele>42.4354</ele>
        <time>2013-04-15T19:08:40Z</time>
      </trkpt>
      <trkpt lat="59.9745168" lon="17.7294415">
        <ele>42.4354</ele>
        <time>2013-04-15T19:08:41Z</time>
      </trkpt>
      <trkpt lat="59.9745162" lon="17.7294738">
        <ele>42.4354</ele>
        <time>2013-04-15T19:08:42Z</time>
      </trkpt>
      <trkpt lat="59.9745169" lon="17.7295057">
        <ele>41.9547</ele>
        <time>2013-04-15T19:08:43Z</time>
      </trkpt>
      <trkpt lat="59.9745169" lon="17.7295396">
        <ele>41.474</ele>
        <time>2013-04-15T19:08:44Z</time>
      </trkpt>
      <trkpt lat="59.9745162" lon="17.7295808">
        <ele>41.474</ele>
        <time>2013-04-15T19:08:45Z</time>
      </trkpt>
      <trkpt lat="59.9745157" lon="17.7296223">
        <ele>41.474</ele>
        <time>2013-04-15T19:08:46Z</time>
      </trkpt>
      <trkpt lat="59.9745136" lon="17.7296753">
        <ele>41.474</ele>
        <time>2013-04-15T19:08:47Z</time>
      </trkpt>
      <trkpt lat="59.9745123" lon="17.729722">
        <ele>40.5128</ele>
        <time>2013-04-15T19:08:48Z</time>
      </trkpt>
      <trkpt lat="59.9745092" lon="17.7297628">
        <ele>40.5128</ele>
        <time>2013-04-15T19:08:49Z</time>
      </trkpt>
      <trkpt lat="59.9745059" lon="17.7298078">
        <ele>40.0321</ele>
        <time>2013-04-15T19:08:50Z</time>
      </trkpt>
      <trkpt lat="59.974504" lon="17.7298586">
        <ele>40.0321</ele>
        <time>2013-04-15T19:08:51Z</time>
      </trkpt>
      <trkpt lat="59.9745034" lon="17.7299066">
        <ele>39.5513</ele>
        <time>2013-04-15T19:08:52Z</time>
      </trkpt>
      <trkpt lat="59.9744996" lon="17.7299556">
        <ele>39.0707</ele>
        <time>2013-04-15T19:08:53Z</time>
      </trkpt>
      <trkpt lat="59.974495" lon="17.7300048">
        <ele>39.0707</ele>
        <time>2013-04-15T19:08:54Z</time>
      </trkpt>
      <trkpt lat="59.9744905" lon="17.7300362">
        <ele>38.5901</ele>
        <time>2013-04-15T19:08:55Z</time>
      </trkpt>
      <trkpt lat="59.9744848" lon="17.7300743">
        <ele>38.1094</ele>
        <time>2013-04-15T19:08:56Z</time>
      </trkpt>
      <trkpt lat="59.9744815" lon="17.7301244">
        <ele>37.6287</ele>
        <time>2013-04-15T19:08:57Z</time>
      </trkpt>
      <trkpt lat="59.9744776" lon="17.7301685">
        <ele>37.6287</ele>
        <time>2013-04-15T19:08:58Z</time>
      </trkpt>
      <trkpt lat="59.9744733" lon="17.7302209">
        <ele>37.6287</ele>
        <time>2013-04-15T19:08:59Z</time>
      </trkpt>
      <trkpt lat="59.9744686" lon="17.7302947">
        <ele>37.6287</ele>
        <time>2013-04-15T19:09:00Z</time>
      </trkpt>
      <trkpt lat="59.9744625" lon="17.7303467">
        <ele>37.1481</ele>
        <time>2013-04-15T19:09:01Z</time>
      </trkpt>
      <trkpt lat="59.9744582" lon="17.7303855">
        <ele>37.1481</ele>
        <time>2013-04-15T19:09:02Z</time>
      </trkpt>
      <trkpt lat="59.974453" lon="17.7304289">
        <ele>37.1481</ele>
        <time>2013-04-15T19:09:03Z</time>
      </trkpt>
      <trkpt lat="59.974448" lon="17.7304735">
        <ele>37.6287</ele>
        <time>2013-04-15T19:09:04Z</time>
      </trkpt>
      <trkpt lat="59.9744434" lon="17.7305186">
        <ele>37.6287</ele>
        <time>2013-04-15T19:09:05Z</time>
      </trkpt>
      <trkpt lat="59.9744392" lon="17.7305687">
        <ele>37.6287</ele>
        <time>2013-04-15T19:09:06Z</time>
      </trkpt>
      <trkpt lat="59.9744338" lon="17.7305868">
        <ele>37.6287</ele>
        <time>2013-04-15T19:09:07Z</time>
      </trkpt>
      <trkpt lat="59.9744278" lon="17.7306285">
        <ele>37.6287</ele>
        <time>2013-04-15T19:09:08Z</time>
      </trkpt>
      <trkpt lat="59.9744243" lon="17.730675">
        <ele>38.1094</ele>
        <time>2013-04-15T19:09:09Z</time>
      </trkpt>
      <trkpt lat="59.9744206" lon="17.7307273">
        <ele>38.1094</ele>
        <time>2013-04-15T19:09:10Z</time>
      </trkpt>
      <trkpt lat="59.9744164" lon="17.7307699">
        <ele>38.1094</ele>
        <time>2013-04-15T19:09:11Z</time>
      </trkpt>
      <trkpt lat="59.9744122" lon="17.7308049">
        <ele>38.1094</ele>
        <time>2013-04-15T19:09:12Z</time>
      </trkpt>
      <trkpt lat="59.9744083" lon="17.7308422">
        <ele>38.1094</ele>
        <time>2013-04-15T19:09:13Z</time>
      </trkpt>
      <trkpt lat="59.9744054" lon="17.7308849">
        <ele>38.5901</ele>
        <time>2013-04-15T19:09:14Z</time>
      </trkpt>
      <trkpt lat="59.9744059" lon="17.7309252">
        <ele>38.1094</ele>
        <time>2013-04-15T19:09:15Z</time>
      </trkpt>
      <trkpt lat="59.9744066" lon="17.7309665">
        <ele>38.5901</ele>
        <time>2013-04-15T19:09:16Z</time>
      </trkpt>
      <trkpt lat="59.9744067" lon="17.7310102">
        <ele>38.5901</ele>
        <time>2013-04-15T19:09:17Z</time>
      </trkpt>
      <trkpt lat="59.9744065" lon="17.7310527">
        <ele>39.0707</ele>
        <time>2013-04-15T19:09:18Z</time>
      </trkpt>
      <trkpt lat="59.9744064" lon="17.7310976">
        <ele>39.5513</ele>
        <time>2013-04-15T19:09:19Z</time>
      </trkpt>
      <trkpt lat="59.9744081" lon="17.7311442">
        <ele>39.5513</ele>
        <time>2013-04-15T19:09:20Z</time>
      </trkpt>
      <trkpt lat="59.9744081" lon="17.731187">
        <ele>39.5513</ele>
        <time>2013-04-15T19:09:21Z</time>
      </trkpt>
      <trkpt lat="59.9744045" lon="17.7312241">
        <ele>40.0321</ele>
        <time>2013-04-15T19:09:22Z</time>
      </trkpt>
      <trkpt lat="59.9743997" lon="17.7312669">
        <ele>39.5513</ele>
        <time>2013-04-15T19:09:23Z</time>
      </trkpt>
      <trkpt lat="59.9743969" lon="17.7313113">
        <ele>40.0321</ele>
        <time>2013-04-15T19:09:24Z</time>
      </trkpt>
      <trkpt lat="59.9743957" lon="17.731361">
        <ele>40.0321</ele>
        <time>2013-04-15T19:09:25Z</time>
      </trkpt>
      <trkpt lat="59.9743929" lon="17.7314091">
        <ele>40.0321</ele>
        <time>2013-04-15T19:09:26Z</time>
      </trkpt>
      <trkpt lat="59.9743904" lon="17.7314558">
        <ele>40.0321</ele>
        <time>2013-04-15T19:09:27Z</time>
      </trkpt>
      <trkpt lat="59.9743905" lon="17.7314995">
        <ele>39.5513</ele>
        <time>2013-04-15T19:09:28Z</time>
      </trkpt>
      <trkpt lat="59.9743925" lon="17.7315464">
        <ele>40.0321</ele>
        <time>2013-04-15T19:09:29Z</time>
      </trkpt>
      <trkpt lat="59.974393" lon="17.7315971">
        <ele>39.5513</ele>
        <time>2013-04-15T19:09:30Z</time>
      </trkpt>
      <trkpt lat="59.9743916" lon="17.7316467">
        <ele>39.5513</ele>
        <time>2013-04-15T19:09:31Z</time>
      </trkpt>
      <trkpt lat="59.9743935" lon="17.7316924">
        <ele>39.5513</ele>
        <time>2013-04-15T19:09:32Z</time>
      </trkpt>
      <trkpt lat="59.9743942" lon="17.7317368">
        <ele>40.0321</ele>
        <time>2013-04-15T19:09:33Z</time>
      </trkpt>
      <trkpt lat="59.9743917" lon="17.7317774">
        <ele>40.0321</ele>
        <time>2013-04-15T19:09:34Z</time>
      </trkpt>
      <trkpt lat="59.9743885" lon="17.7318306">
        <ele>40.5128</ele>
        <time>2013-04-15T19:09:35Z</time>
      </trkpt>
      <trkpt lat="59.9743854" lon="17.7319012">
        <ele>40.5128</ele>
        <time>2013-04-15T19:09:36Z</time>
      </trkpt>
      <trkpt lat="59.9743836" lon="17.7319557">
        <ele>40.9934</ele>
        <time>2013-04-15T19:09:37Z</time>
      </trkpt>
      <trkpt lat="59.9743822" lon="17.732011">
        <ele>41.474</ele>
        <time>2013-04-15T19:09:38Z</time>
      </trkpt>
      <trkpt lat="59.9743808" lon="17.7320619">
        <ele>41.9547</ele>
        <time>2013-04-15T19:09:39Z</time>
      </trkpt>
      <trkpt lat="59.9743807" lon="17.7321151">
        <ele>43.3966</ele>
        <time>2013-04-15T19:09:40Z</time>
      </trkpt>
      <trkpt lat="59.9743781" lon="17.7321589">
        <ele>44.358</ele>
        <time>2013-04-15T19:09:41Z</time>
      </trkpt>
      <trkpt lat="59.9743736" lon="17.7322036">
        <ele>45.7999</ele>
        <time>2013-04-15T19:09:42Z</time>
      </trkpt>
      <trkpt lat="59.974374" lon="17.7322369">
        <ele>46.7612</ele>
        <time>2013-04-15T19:09:43Z</time>
      </trkpt>
      <trkpt lat="59.974375" lon="17.7322736">
        <ele>47.7225</ele>
        <time>2013-04-15T19:09:44Z</time>
      </trkpt>
      <trkpt lat="59.9743751" lon="17.7323268">
        <ele>48.2034</ele>
        <time>2013-04-15T19:09:45Z</time>
      </trkpt>
      <trkpt lat="59.9743766" lon="17.7323788">
        <ele>48.684</ele>
        <time>2013-04-15T19:09:46Z</time>
      </trkpt>
      <trkpt lat="59.9743767" lon="17.7324332">
        <ele>49.1646</ele>
        <time>2013-04-15T19:09:47Z</time>
      </trkpt>
      <trkpt lat="59.9743755" lon="17.7324803">
        <ele>49.1646</ele>
        <time>2013-04-15T19:09:48Z</time>
      </trkpt>
      <trkpt lat="59.9743746" lon="17.732518">
        <ele>49.6453</ele>
        <time>2013-04-15T19:09:49Z</time>
      </trkpt>
      <trkpt lat="59.9743745" lon="17.7325492">
        <ele>49.6453</ele>
        <time>2013-04-15T19:09:50Z</time>
      </trkpt>
      <trkpt lat="59.9743725" lon="17.7325783">
        <ele>49.1646</ele>
        <time>2013-04-15T19:09:51Z</time>
      </trkpt>
      <trkpt lat="59.974374" lon="17.7326112">
        <ele>48.2034</ele>
        <time>2013-04-15T19:09:52Z</time>
      </trkpt>
      <trkpt lat="59.9743771" lon="17.7326487">
        <ele>47.2418</ele>
        <time>2013-04-15T19:09:53Z</time>
      </trkpt>
      <trkpt lat="59.9743776" lon="17.7326869">
        <ele>46.2806</ele>
        <time>2013-04-15T19:09:54Z</time>
      </trkpt>
      <trkpt lat="59.9743787" lon="17.7327301">
        <ele>46.2806</ele>
        <time>2013-04-15T19:09:55Z</time>
      </trkpt>
      <trkpt lat="59.97438" lon="17.732777">
        <ele>46.2806</ele>
        <time>2013-04-15T19:09:56Z</time>
      </trkpt>
      <trkpt lat="59.9743794" lon="17.7328299">
        <ele>46.2806</ele>
        <time>2013-04-15T19:09:57Z</time>
      </trkpt>
      <trkpt lat="59.9743797" lon="17.7328808">
        <ele>45.3192</ele>
        <time>2013-04-15T19:09:58Z</time>
      </trkpt>
      <trkpt lat="59.9743791" lon="17.7329279">
        <ele>45.3192</ele>
        <time>2013-04-15T19:09:59Z</time>
      </trkpt>
      <trkpt lat="59.9743784" lon="17.7329662">
        <ele>44.358</ele>
        <time>2013-04-15T19:10:00Z</time>
      </trkpt>
      <trkpt lat="59.9743796" lon="17.7329937">
        <ele>43.3966</ele>
        <time>2013-04-15T19:10:01Z</time>
      </trkpt>
      <trkpt lat="59.974382" lon="17.7330366">
        <ele>42.916</ele>
        <time>2013-04-15T19:10:02Z</time>
      </trkpt>
      <trkpt lat="59.9743838" lon="17.7330797">
        <ele>41.9547</ele>
        <time>2013-04-15T19:10:03Z</time>
      </trkpt>
      <trkpt lat="59.9743839" lon="17.7331165">
        <ele>41.474</ele>
        <time>2013-04-15T19:10:04Z</time>
      </trkpt>
      <trkpt lat="59.9743812" lon="17.7331429">
        <ele>40.0321</ele>
        <time>2013-04-15T19:10:05Z</time>
      </trkpt>
      <trkpt lat="59.9743756" lon="17.7331712">
        <ele>39.0707</ele>
        <time>2013-04-15T19:10:06Z</time>
      </trkpt>
      <trkpt lat="59.9743744" lon="17.7331999">
        <ele>37.6287</ele>
        <time>2013-04-15T19:10:07Z</time>
      </trkpt>
      <trkpt lat="59.974374" lon="17.7332427">
        <ele>37.1481</ele>
        <time>2013-04-15T19:10:08Z</time>
      </trkpt>
      <trkpt lat="59.9743722" lon="17.7332841">
        <ele>36.1868</ele>
        <time>2013-04-15T19:10:09Z</time>
      </trkpt>
      <trkpt lat="59.9743696" lon="17.7333199">
        <ele>35.7061</ele>
        <time>2013-04-15T19:10:10Z</time>
      </trkpt>
      <trkpt lat="59.9743676" lon="17.7333621">
        <ele>35.2255</ele>
        <time>2013-04-15T19:10:11Z</time>
      </trkpt>
      <trkpt lat="59.9743652" lon="17.7334076">
        <ele>34.7449</ele>
        <time>2013-04-15T19:10:12Z</time>
      </trkpt>
      <trkpt lat="59.9743645" lon="17.7334457">
        <ele>34.2642</ele>
        <time>2013-04-15T19:10:13Z</time>
      </trkpt>
      <trkpt lat="59.9743642" lon="17.73348">
        <ele>33.7834</ele>
        <time>2013-04-15T19:10:14Z</time>
      </trkpt>
      <trkpt lat="59.9743608" lon="17.733517">
        <ele>33.3029</ele>
        <time>2013-04-15T19:10:15Z</time>
      </trkpt>
      <trkpt lat="59.9743563" lon="17.7335618">
        <ele>32.8223</ele>
        <time>2013-04-15T19:10:16Z</time>
      </trkpt>
      <trkpt lat="59.974352" lon="17.733606">
        <ele>32.3416</ele>
        <time>2013-04-15T19:10:17Z</time>
      </trkpt>
      <trkpt lat="59.9743481" lon="17.7336504">
        <ele>31.8607</ele>
        <time>2013-04-15T19:10:18Z</time>
      </trkpt>
      <trkpt lat="59.9743448" lon="17.7336948">
        <ele>31.8607</ele>
        <time>2013-04-15T19:10:19Z</time>
      </trkpt>
      <trkpt lat="59.9743409" lon="17.733737">
        <ele>30.8995</ele>
        <time>2013-04-15T19:10:20Z</time>
      </trkpt>
      <trkpt lat="59.9743406" lon="17.7337904">
        <ele>30.8995</ele>
        <time>2013-04-15T19:10:21Z</time>
      </trkpt>
      <trkpt lat="59.974342" lon="17.7338391">
        <ele>30.4188</ele>
        <time>2013-04-15T19:10:22Z</time>
      </trkpt>
      <trkpt lat="59.9743393" lon="17.7338924">
        <ele>30.4188</ele>
        <time>2013-04-15T19:10:23Z</time>
      </trkpt>
      <trkpt lat="59.9743367" lon="17.7339452">
        <ele>30.4188</ele>
        <time>2013-04-15T19:10:24Z</time>
      </trkpt>
      <trkpt lat="59.9743351" lon="17.7339917">
        <ele>30.4188</ele>
        <time>2013-04-15T19:10:25Z</time>
      </trkpt>
      <trkpt lat="59.9743335" lon="17.7340457">
        <ele>30.4188</ele>
        <time>2013-04-15T19:10:26Z</time>
      </trkpt>
      <trkpt lat="59.9743316" lon="17.7340996">
        <ele>30.8995</ele>
        <time>2013-04-15T19:10:27Z</time>
      </trkpt>
      <trkpt lat="59.97433" lon="17.7341434">
        <ele>30.8995</ele>
        <time>2013-04-15T19:10:28Z</time>
      </trkpt>
      <trkpt lat="59.9743284" lon="17.7341856">
        <ele>30.8995</ele>
        <time>2013-04-15T19:10:29Z</time>
      </trkpt>
      <trkpt lat="59.974328" lon="17.7342245">
        <ele>30.4188</ele>
        <time>2013-04-15T19:10:30Z</time>
      </trkpt>
      <trkpt lat="59.9743262" lon="17.7342693">
        <ele>30.4188</ele>
        <time>2013-04-15T19:10:31Z</time>
      </trkpt>
      <trkpt lat="59.9743247" lon="17.7343211">
        <ele>30.4188</ele>
        <time>2013-04-15T19:10:32Z</time>
      </trkpt>
      <trkpt lat="59.9743246" lon="17.7343757">
        <ele>30.4188</ele>
        <time>2013-04-15T19:10:33Z</time>
      </trkpt>
      <trkpt lat="59.9743253" lon="17.7344286">
        <ele>29.9381</ele>
        <time>2013-04-15T19:10:34Z</time>
      </trkpt>
      <trkpt lat="59.9743256" lon="17.7344767">
        <ele>29.9381</ele>
        <time>2013-04-15T19:10:35Z</time>
      </trkpt>
      <trkpt lat="59.9743236" lon="17.7345192">
        <ele>29.4575</ele>
        <time>2013-04-15T19:10:36Z</time>
      </trkpt>
      <trkpt lat="59.9743194" lon="17.734569">
        <ele>29.4575</ele>
        <time>2013-04-15T19:10:37Z</time>
      </trkpt>
      <trkpt lat="59.9743149" lon="17.7346157">
        <ele>29.4575</ele>
        <time>2013-04-15T19:10:38Z</time>
      </trkpt>
      <trkpt lat="59.9743139" lon="17.7346679">
        <ele>29.4575</ele>
        <time>2013-04-15T19:10:39Z</time>
      </trkpt>
      <trkpt lat="59.9743168" lon="17.7347172">
        <ele>29.4575</ele>
        <time>2013-04-15T19:10:40Z</time>
      </trkpt>
      <trkpt lat="59.9743191" lon="17.7347689">
        <ele>29.9381</ele>
        <time>2013-04-15T19:10:41Z</time>
      </trkpt>
      <trkpt lat="59.9743211" lon="17.7348098">
        <ele>29.4575</ele>
        <time>2013-04-15T19:10:42Z</time>
      </trkpt>
      <trkpt lat="59.974322" lon="17.7348506">
        <ele>29.4575</ele>
        <time>2013-04-15T19:10:43Z</time>
      </trkpt>
      <trkpt lat="59.974323" lon="17.7348911">
        <ele>29.9381</ele>
        <time>2013-04-15T19:10:44Z</time>
      </trkpt>
      <trkpt lat="59.9743245" lon="17.7349422">
        <ele>30.4188</ele>
        <time>2013-04-15T19:10:45Z</time>
      </trkpt>
      <trkpt lat="59.9743292" lon="17.7349978">
        <ele>30.4188</ele>
        <time>2013-04-15T19:10:46Z</time>
      </trkpt>
      <trkpt lat="59.974333" lon="17.7350522">
        <ele>30.8995</ele>
        <time>2013-04-15T19:10:47Z</time>
      </trkpt>
      <trkpt lat="59.9743361" lon="17.7351228">
        <ele>31.3801</ele>
        <time>2013-04-15T19:10:48Z</time>
      </trkpt>
      <trkpt lat="59.9743429" lon="17.7351932">
        <ele>32.3416</ele>
        <time>2013-04-15T19:10:49Z</time>
      </trkpt>
      <trkpt lat="59.9743494" lon="17.735252">
        <ele>33.3029</ele>
        <time>2013-04-15T19:10:50Z</time>
      </trkpt>
      <trkpt lat="59.9743522" lon="17.7353113">
        <ele>34.2642</ele>
        <time>2013-04-15T19:10:51Z</time>
      </trkpt>
      <trkpt lat="59.9743554" lon="17.7353549">
        <ele>36.1868</ele>
        <time>2013-04-15T19:10:52Z</time>
      </trkpt>
      <trkpt lat="59.9743587" lon="17.7353843">
        <ele>36.6675</ele>
        <time>2013-04-15T19:10:53Z</time>
      </trkpt>
      <trkpt lat="59.9743615" lon="17.7354113">
        <ele>37.6287</ele>
        <time>2013-04-15T19:10:54Z</time>
      </trkpt>
      <trkpt lat="59.9743672" lon="17.7354507">
        <ele>38.1094</ele>
        <time>2013-04-15T19:10:55Z</time>
      </trkpt>
      <trkpt lat="59.9743741" lon="17.7355019">
        <ele>38.5901</ele>
        <time>2013-04-15T19:10:56Z</time>
      </trkpt>
      <trkpt lat="59.9743822" lon="17.7355474">
        <ele>39.5513</ele>
        <time>2013-04-15T19:10:57Z</time>
      </trkpt>
      <trkpt lat="59.9743911" lon="17.7356022">
        <ele>40.5128</ele>
        <time>2013-04-15T19:10:58Z</time>
      </trkpt>
      <trkpt lat="59.9744017" lon="17.7356473">
        <ele>40.9934</ele>
        <time>2013-04-15T19:10:59Z</time>
      </trkpt>
      <trkpt lat="59.9744106" lon="17.7356879">
        <ele>41.9547</ele>
        <time>2013-04-15T19:11:00Z</time>
      </trkpt>
      <trkpt lat="59.9744183" lon="17.7357303">
        <ele>41.9547</ele>
        <time>2013-04-15T19:11:01Z</time>
      </trkpt>
      <trkpt lat="59.974423" lon="17.735766">
        <ele>42.4354</ele>
        <time>2013-04-15T19:11:02Z</time>
      </trkpt>
      <trkpt lat="59.974429" lon="17.7358027">
        <ele>42.4354</ele>
        <time>2013-04-15T19:11:03Z</time>
      </trkpt>
      <trkpt lat="59.9744347" lon="17.73584">
        <ele>42.4354</ele>
        <time>2013-04-15T19:11:04Z</time>
      </trkpt>
      <trkpt lat="59.9744413" lon="17.7358784">
        <ele>41.9547</ele>
        <time>2013-04-15T19:11:05Z</time>
      </trkpt>
      <trkpt lat="59.9744475" lon="17.7359107">
        <ele>41.9547</ele>
        <time>2013-04-15T19:11:06Z</time>
      </trkpt>
      <trkpt lat="59.9744531" lon="17.7359487">
        <ele>42.4354</ele>
        <time>2013-04-15T19:11:07Z</time>
      </trkpt>
      <trkpt lat="59.9744579" lon="17.7359836">
        <ele>41.9547</ele>
        <time>2013-04-15T19:11:08Z</time>
      </trkpt>
      <trkpt lat="59.9744625" lon="17.7360188">
        <ele>41.9547</ele>
        <time>2013-04-15T19:11:09Z</time>
      </trkpt>
      <trkpt lat="59.974475" lon="17.7360551">
        <ele>41.9547</ele>
        <time>2013-04-15T19:11:10Z</time>
      </trkpt>
      <trkpt lat="59.974489" lon="17.7360912">
        <ele>42.4354</ele>
        <time>2013-04-15T19:11:11Z</time>
      </trkpt>
      <trkpt lat="59.9744987" lon="17.7361276">
        <ele>41.9547</ele>
        <time>2013-04-15T19:11:12Z</time>
      </trkpt>
      <trkpt lat="59.9745088" lon="17.7361704">
        <ele>42.4354</ele>
        <time>2013-04-15T19:11:13Z</time>
      </trkpt>
      <trkpt lat="59.9745174" lon="17.7362095">
        <ele>42.4354</ele>
        <time>2013-04-15T19:11:14Z</time>
      </trkpt>
      <trkpt lat="59.9745245" lon="17.7362481">
        <ele>41.9547</ele>
        <time>2013-04-15T19:11:15Z</time>
      </trkpt>
      <trkpt lat="59.974535" lon="17.7362861">
        <ele>41.9547</ele>
        <time>2013-04-15T19:11:16Z</time>
      </trkpt>
      <trkpt lat="59.9745464" lon="17.7363245">
        <ele>41.9547</ele>
        <time>2013-04-15T19:11:17Z</time>
      </trkpt>
      <trkpt lat="59.9745576" lon="17.7363612">
        <ele>41.9547</ele>
        <time>2013-04-15T19:11:18Z</time>
      </trkpt>
      <trkpt lat="59.9745682" lon="17.7364036">
        <ele>41.9547</ele>
        <time>2013-04-15T19:11:19Z</time>
      </trkpt>
      <trkpt lat="59.9745771" lon="17.7364415">
        <ele>41.9547</ele>
        <time>2013-04-15T19:11:20Z</time>
      </trkpt>
      <trkpt lat="59.9745863" lon="17.7364752">
        <ele>41.474</ele>
        <time>2013-04-15T19:11:21Z</time>
      </trkpt>
      <trkpt lat="59.9745961" lon="17.7365129">
        <ele>41.474</ele>
        <time>2013-04-15T19:11:22Z</time>
      </trkpt>
      <trkpt lat="59.9746064" lon="17.736552">
        <ele>41.474</ele>
        <time>2013-04-15T19:11:23Z</time>
      </trkpt>
      <trkpt lat="59.9746163" lon="17.7365918">
        <ele>41.474</ele>
        <time>2013-04-15T19:11:24Z</time>
      </trkpt>
      <trkpt lat="59.9746257" lon="17.7366328">
        <ele>40.9934</ele>
        <time>2013-04-15T19:11:25Z</time>
      </trkpt>
      <trkpt lat="59.9746351" lon="17.7366727">
        <ele>40.9934</ele>
        <time>2013-04-15T19:11:26Z</time>
      </trkpt>
      <trkpt lat="59.9746467" lon="17.7367124">
        <ele>40.5128</ele>
        <time>2013-04-15T19:11:27Z</time>
      </trkpt>
      <trkpt lat="59.9746579" lon="17.7367529">
        <ele>40.5128</ele>
        <time>2013-04-15T19:11:28Z</time>
      </trkpt>
      <trkpt lat="59.9746687" lon="17.7367912">
        <ele>40.5128</ele>
        <time>2013-04-15T19:11:29Z</time>
      </trkpt>
      <trkpt lat="59.974681" lon="17.7368268">
        <ele>40.5128</ele>
        <time>2013-04-15T19:11:30Z</time>
      </trkpt>
      <trkpt lat="59.9746934" lon="17.7368643">
        <ele>40.5128</ele>
        <time>2013-04-15T19:11:31Z</time>
      </trkpt>
      <trkpt lat="59.974706" lon="17.7369021">
        <ele>40.5128</ele>
        <time>2013-04-15T19:11:32Z</time>
      </trkpt>
      <trkpt lat="59.9747204" lon="17.7369376">
        <ele>40.5128</ele>
        <time>2013-04-15T19:11:33Z</time>
      </trkpt>
      <trkpt lat="59.9747338" lon="17.7369741">
        <ele>40.0321</ele>
        <time>2013-04-15T19:11:34Z</time>
      </trkpt>
      <trkpt lat="59.9747444" lon="17.7370119">
        <ele>40.0321</ele>
        <time>2013-04-15T19:11:35Z</time>
      </trkpt>
      <trkpt lat="59.9747548" lon="17.7370477">
        <ele>39.5513</ele>
        <time>2013-04-15T19:11:36Z</time>
      </trkpt>
      <trkpt lat="59.9747681" lon="17.7370866">
        <ele>39.5513</ele>
        <time>2013-04-15T19:11:37Z</time>
      </trkpt>
      <trkpt lat="59.9747825" lon="17.737123">
        <ele>39.5513</ele>
        <time>2013-04-15T19:11:38Z</time>
      </trkpt>
      <trkpt lat="59.9747973" lon="17.7371573">
        <ele>39.5513</ele>
        <time>2013-04-15T19:11:39Z</time>
      </trkpt>
      <trkpt lat="59.9748132" lon="17.7371984">
        <ele>40.0321</ele>
        <time>2013-04-15T19:11:40Z</time>
      </trkpt>
      <trkpt lat="59.9748304" lon="17.7372408">
        <ele>40.5128</ele>
        <time>2013-04-15T19:11:41Z</time>
      </trkpt>
      <trkpt lat="59.9748486" lon="17.7372823">
        <ele>40.9934</ele>
        <time>2013-04-15T19:11:42Z</time>
      </trkpt>
      <trkpt lat="59.9748656" lon="17.7373225">
        <ele>40.9934</ele>
        <time>2013-04-15T19:11:43Z</time>
      </trkpt>
      <trkpt lat="59.9748833" lon="17.7373626">
        <ele>41.474</ele>
        <time>2013-04-15T19:11:44Z</time>
      </trkpt>
      <trkpt lat="59.9749029" lon="17.7373997">
        <ele>41.9547</ele>
        <time>2013-04-15T19:11:45Z</time>
      </trkpt>
      <trkpt lat="59.9749232" lon="17.7374334">
        <ele>42.4354</ele>
        <time>2013-04-15T19:11:46Z</time>
      </trkpt>
      <trkpt lat="59.9749431" lon="17.7374654">
        <ele>42.4354</ele>
        <time>2013-04-15T19:11:47Z</time>
      </trkpt>
      <trkpt lat="59.9749582" lon="17.7375033">
        <ele>42.4354</ele>
        <time>2013-04-15T19:11:48Z</time>
      </trkpt>
      <trkpt lat="59.9749727" lon="17.7375371">
        <ele>42.916</ele>
        <time>2013-04-15T19:11:49Z</time>
      </trkpt>
      <trkpt lat="59.9749909" lon="17.7375697">
        <ele>43.3966</ele>
        <time>2013-04-15T19:11:50Z</time>
      </trkpt>
      <trkpt lat="59.9750057" lon="17.7375981">
        <ele>42.916</ele>
        <time>2013-04-15T19:11:51Z</time>
      </trkpt>
      <trkpt lat="59.9750189" lon="17.7376262">
        <ele>42.4354</ele>
        <time>2013-04-15T19:11:52Z</time>
      </trkpt>
      <trkpt lat="59.9750323" lon="17.7376551">
        <ele>41.9547</ele>
        <time>2013-04-15T19:11:53Z</time>
      </trkpt>
      <trkpt lat="59.9750469" lon="17.737684">
        <ele>41.474</ele>
        <time>2013-04-15T19:11:54Z</time>
      </trkpt>
      <trkpt lat="59.9750638" lon="17.7377094">
        <ele>41.474</ele>
        <time>2013-04-15T19:11:55Z</time>
      </trkpt>
      <trkpt lat="59.9750821" lon="17.7377372">
        <ele>41.474</ele>
        <time>2013-04-15T19:11:56Z</time>
      </trkpt>
      <trkpt lat="59.9751011" lon="17.7377674">
        <ele>41.474</ele>
        <time>2013-04-15T19:11:57Z</time>
      </trkpt>
      <trkpt lat="59.9751183" lon="17.737792">
        <ele>40.9934</ele>
        <time>2013-04-15T19:11:58Z</time>
      </trkpt>
      <trkpt lat="59.9751365" lon="17.7378185">
        <ele>41.474</ele>
        <time>2013-04-15T19:11:59Z</time>
      </trkpt>
      <trkpt lat="59.9751523" lon="17.7378427">
        <ele>40.9934</ele>
        <time>2013-04-15T19:12:00Z</time>
      </trkpt>
      <trkpt lat="59.975167" lon="17.7378666">
        <ele>40.9934</ele>
        <time>2013-04-15T19:12:01Z</time>
      </trkpt>
      <trkpt lat="59.975184" lon="17.7378944">
        <ele>40.9934</ele>
        <time>2013-04-15T19:12:02Z</time>
      </trkpt>
      <trkpt lat="59.9752013" lon="17.7379301">
        <ele>41.474</ele>
        <time>2013-04-15T19:12:03Z</time>
      </trkpt>
      <trkpt lat="59.9752173" lon="17.7379609">
        <ele>40.9934</ele>
        <time>2013-04-15T19:12:04Z</time>
      </trkpt>
      <trkpt lat="59.975235" lon="17.7379857">
        <ele>40.5128</ele>
        <time>2013-04-15T19:12:05Z</time>
      </trkpt>
      <trkpt lat="59.9752542" lon="17.7380148">
        <ele>40.5128</ele>
        <time>2013-04-15T19:12:06Z</time>
      </trkpt>
      <trkpt lat="59.9752722" lon="17.738047">
        <ele>40.5128</ele>
        <time>2013-04-15T19:12:07Z</time>
      </trkpt>
      <trkpt lat="59.9752884" lon="17.7380767">
        <ele>40.0321</ele>
        <time>2013-04-15T19:12:08Z</time>
      </trkpt>
      <trkpt lat="59.9753058" lon="17.7381101">
        <ele>40.0321</ele>
        <time>2013-04-15T19:12:09Z</time>
      </trkpt>
      <trkpt lat="59.9753244" lon="17.7381409">
        <ele>40.0321</ele>
        <time>2013-04-15T19:12:10Z</time>
      </trkpt>
      <trkpt lat="59.9753448" lon="17.7381708">
        <ele>40.0321</ele>
        <time>2013-04-15T19:12:11Z</time>
      </trkpt>
      <trkpt lat="59.9753639" lon="17.7382036">
        <ele>39.5513</ele>
        <time>2013-04-15T19:12:12Z</time>
      </trkpt>
      <trkpt lat="59.9753806" lon="17.7382324">
        <ele>39.5513</ele>
        <time>2013-04-15T19:12:13Z</time>
      </trkpt>
      <trkpt lat="59.9753965" lon="17.7382559">
        <ele>39.0707</ele>
        <time>2013-04-15T19:12:14Z</time>
      </trkpt>
      <trkpt lat="59.9754132" lon="17.7382839">
        <ele>39.0707</ele>
        <time>2013-04-15T19:12:15Z</time>
      </trkpt>
      <trkpt lat="59.9754297" lon="17.7383131">
        <ele>39.0707</ele>
        <time>2013-04-15T19:12:16Z</time>
      </trkpt>
      <trkpt lat="59.9754481" lon="17.7383419">
        <ele>38.5901</ele>
        <time>2013-04-15T19:12:17Z</time>
      </trkpt>
      <trkpt lat="59.9754666" lon="17.7383737">
        <ele>38.5901</ele>
        <time>2013-04-15T19:12:18Z</time>
      </trkpt>
      <trkpt lat="59.975485" lon="17.7384054">
        <ele>38.5901</ele>
        <time>2013-04-15T19:12:19Z</time>
      </trkpt>
      <trkpt lat="59.9755006" lon="17.7384334">
        <ele>38.1094</ele>
        <time>2013-04-15T19:12:20Z</time>
      </trkpt>
      <trkpt lat="59.9755177" lon="17.7384647">
        <ele>38.1094</ele>
        <time>2013-04-15T19:12:21Z</time>
      </trkpt>
      <trkpt lat="59.9755362" lon="17.738496">
        <ele>38.1094</ele>
        <time>2013-04-15T19:12:22Z</time>
      </trkpt>
      <trkpt lat="59.9755576" lon="17.7385287">
        <ele>38.1094</ele>
        <time>2013-04-15T19:12:23Z</time>
      </trkpt>
      <trkpt lat="59.9755782" lon="17.7385652">
        <ele>38.1094</ele>
        <time>2013-04-15T19:12:24Z</time>
      </trkpt>
      <trkpt lat="59.9755969" lon="17.7385975">
        <ele>38.5901</ele>
        <time>2013-04-15T19:12:25Z</time>
      </trkpt>
      <trkpt lat="59.9756172" lon="17.7386305">
        <ele>38.5901</ele>
        <time>2013-04-15T19:12:26Z</time>
      </trkpt>
      <trkpt lat="59.9756379" lon="17.7386643">
        <ele>38.5901</ele>
        <time>2013-04-15T19:12:27Z</time>
      </trkpt>
      <trkpt lat="59.9756574" lon="17.7386918">
        <ele>38.5901</ele>
        <time>2013-04-15T19:12:28Z</time>
      </trkpt>
      <trkpt lat="59.9756786" lon="17.7387239">
        <ele>38.5901</ele>
        <time>2013-04-15T19:12:29Z</time>
      </trkpt>
      <trkpt lat="59.975704" lon="17.738757">
        <ele>38.5901</ele>
        <time>2013-04-15T19:12:30Z</time>
      </trkpt>
      <trkpt lat="59.9757274" lon="17.738788">
        <ele>38.5901</ele>
        <time>2013-04-15T19:12:31Z</time>
      </trkpt>
      <trkpt lat="59.9757506" lon="17.7388164">
        <ele>38.1094</ele>
        <time>2013-04-15T19:12:32Z</time>
      </trkpt>
      <trkpt lat="59.9757752" lon="17.7388437">
        <ele>38.1094</ele>
        <time>2013-04-15T19:12:33Z</time>
      </trkpt>
      <trkpt lat="59.9757972" lon="17.73887">
        <ele>38.1094</ele>
        <time>2013-04-15T19:12:34Z</time>
      </trkpt>
      <trkpt lat="59.9758161" lon="17.738899">
        <ele>37.6287</ele>
        <time>2013-04-15T19:12:35Z</time>
      </trkpt>
      <trkpt lat="59.9758351" lon="17.7389271">
        <ele>37.6287</ele>
        <time>2013-04-15T19:12:36Z</time>
      </trkpt>
      <trkpt lat="59.9758529" lon="17.7389576">
        <ele>37.6287</ele>
        <time>2013-04-15T19:12:37Z</time>
      </trkpt>
      <trkpt lat="59.9758714" lon="17.738987">
        <ele>37.1481</ele>
        <time>2013-04-15T19:12:38Z</time>
      </trkpt>
      <trkpt lat="59.9758916" lon="17.7390149">
        <ele>37.1481</ele>
        <time>2013-04-15T19:12:39Z</time>
      </trkpt>
      <trkpt lat="59.9759094" lon="17.7390451">
        <ele>36.6675</ele>
        <time>2013-04-15T19:12:40Z</time>
      </trkpt>
      <trkpt lat="59.9759324" lon="17.739077">
        <ele>36.6675</ele>
        <time>2013-04-15T19:12:41Z</time>
      </trkpt>
      <trkpt lat="59.9759537" lon="17.7391092">
        <ele>36.6675</ele>
        <time>2013-04-15T19:12:42Z</time>
      </trkpt>
      <trkpt lat="59.9759689" lon="17.73914">
        <ele>37.1481</ele>
        <time>2013-04-15T19:12:43Z</time>
      </trkpt>
      <trkpt lat="59.9759859" lon="17.7391664">
        <ele>36.6675</ele>
        <time>2013-04-15T19:12:44Z</time>
      </trkpt>
      <trkpt lat="59.9760067" lon="17.7391907">
        <ele>36.1868</ele>
        <time>2013-04-15T19:12:45Z</time>
      </trkpt>
      <trkpt lat="59.976028" lon="17.7392192">
        <ele>36.1868</ele>
        <time>2013-04-15T19:12:46Z</time>
      </trkpt>
      <trkpt lat="59.9760483" lon="17.7392501">
        <ele>36.6675</ele>
        <time>2013-04-15T19:12:47Z</time>
      </trkpt>
      <trkpt lat="59.9760704" lon="17.7392751">
        <ele>36.1868</ele>
        <time>2013-04-15T19:12:48Z</time>
      </trkpt>
      <trkpt lat="59.9760933" lon="17.7393046">
        <ele>36.6675</ele>
        <time>2013-04-15T19:12:49Z</time>
      </trkpt>
      <trkpt lat="59.9761129" lon="17.7393378">
        <ele>36.6675</ele>
        <time>2013-04-15T19:12:50Z</time>
      </trkpt>
      <trkpt lat="59.9761329" lon="17.7393683">
        <ele>37.1481</ele>
        <time>2013-04-15T19:12:51Z</time>
      </trkpt>
      <trkpt lat="59.9761552" lon="17.7393952">
        <ele>37.6287</ele>
        <time>2013-04-15T19:12:52Z</time>
      </trkpt>
      <trkpt lat="59.9761796" lon="17.7394309">
        <ele>38.5901</ele>
        <time>2013-04-15T19:12:53Z</time>
      </trkpt>
      <trkpt lat="59.9762046" lon="17.7394625">
        <ele>39.0707</ele>
        <time>2013-04-15T19:12:54Z</time>
      </trkpt>
      <trkpt lat="59.9762272" lon="17.7394956">
        <ele>39.5513</ele>
        <time>2013-04-15T19:12:55Z</time>
      </trkpt>
      <trkpt lat="59.9762506" lon="17.7395288">
        <ele>40.0321</ele>
        <time>2013-04-15T19:12:56Z</time>
      </trkpt>
    </trkseg>
  </trk>
</gpx>